Provisional Data: Hunts Run near Cameron, PA


Please select a monitoring station.
Please select start date.
Please select start date.

Toggle Unit: C/F Toggle Unit: C/F
Sample Time Temperature (C) Temperature (F) Specific Conductivity (mS/cm) pH   Turbidity (NTU+) DO (mg/L)
5/17/2022 12:00:00 AM 11.93 53.474 0.031 6.97 2.02 10.27
5/17/2022 12:15:00 AM 11.89 53.402 0.031 6.98 2 10.29
5/17/2022 12:30:00 AM 11.83 53.294 0.031 6.97 2.12 10.29
5/17/2022 12:45:00 AM 11.78 53.204 0.031 6.96 2 10.3
5/17/2022 1:00:00 AM 11.72 53.096 0.031 6.98 1.97 10.32
5/17/2022 1:15:00 AM 11.66 52.988 0.031 6.98 2.05 10.34
5/17/2022 1:30:00 AM 11.62 52.916 0.031 6.96 2.16 10.34
5/17/2022 1:45:00 AM 11.58 52.844 0.031 6.97 1.98 10.37
5/17/2022 2:00:00 AM 11.53 52.754 0.031 6.95 1.97 10.36
5/17/2022 2:15:00 AM 11.47 52.646 0.031 6.97 2.04 10.38
5/17/2022 2:30:00 AM 11.41 52.538 0.031 6.95 3.04 10.38
5/17/2022 2:45:00 AM 11.36 52.448 0.031 6.96 1.93 10.41
5/17/2022 3:00:00 AM 11.31 52.358 0.031 6.95 2.14 10.42
5/17/2022 3:15:00 AM 11.27 52.286 0.031 6.96 1.91 10.43
5/17/2022 3:30:00 AM 11.23 52.214 0.031 6.94 2.04 10.44
5/17/2022 3:45:00 AM 11.19 52.142 0.031 6.95 2.12 10.45
5/17/2022 4:00:00 AM 11.15 52.07 0.031 6.95 1.84 10.47
5/17/2022 4:15:00 AM 11.1 51.98 0.031 6.95 1.93 10.48
5/17/2022 4:30:00 AM 11.06 51.908 0.031 6.95 2.01 10.49
5/17/2022 4:45:00 AM 11.01 51.818 0.031 6.96 1.87 10.5
5/17/2022 5:00:00 AM 10.97 51.746 0.031 6.95 2.05 10.52
5/17/2022 5:15:00 AM 10.91 51.638 0.031 6.95 2.02 10.52
5/17/2022 5:30:00 AM 10.86 51.548 0.031 6.94 2.25 10.51
5/17/2022 5:45:00 AM 10.81 51.458 0.031 6.94 1.96 10.52
5/17/2022 6:00:00 AM 10.77 51.386 0.031 6.95 1.92 10.55
5/17/2022 6:15:00 AM 10.71 51.278 0.031 6.95 5.82 10.59
5/17/2022 6:30:00 AM 10.66 51.188 0.031 6.94 2.09 10.6
5/17/2022 6:45:00 AM 10.63 51.134 0.031 6.94 2.08 10.64
5/17/2022 7:00:00 AM 10.61 51.098 0.031 6.97 2.05 10.68
5/17/2022 7:15:00 AM 10.59 51.062 0.031 6.97 2.15 10.73
5/17/2022 7:30:00 AM 10.58 51.044 0.031 6.98 2.2 10.74
5/17/2022 7:45:00 AM 10.54 50.972 0.031 7 2.31 10.78
5/17/2022 8:00:00 AM 10.52 50.936 0.031 7 2.04 10.79
5/17/2022 8:15:00 AM 10.52 50.936 0.031 7.03 1.85 10.85
5/17/2022 8:30:00 AM 10.57 51.026 0.031 7.02 2.28 10.86
5/17/2022 8:45:00 AM 10.62 51.116 0.031 7.04 1.92 10.88
5/17/2022 9:00:00 AM 10.66 51.188 0.031 7.05 2.25 10.9
5/17/2022 9:15:00 AM 10.71 51.278 0.031 7.05 1.73 10.89
5/17/2022 9:30:00 AM 10.78 51.404 0.031 7.07 1.78 10.91
5/17/2022 9:45:00 AM 10.86 51.548 0.031 7.09 1.85 10.89
5/17/2022 10:00:00 AM 10.96 51.728 0.031 7.09 1.79 10.86
5/17/2022 10:15:00 AM 11.11 51.998 0.031 7.1 1.89 10.84
5/17/2022 10:30:00 AM 11.27 52.286 0.031 7.11 1.95 10.82
5/17/2022 10:45:00 AM 11.4 52.52 0.031 7.11 2.12 10.79
5/17/2022 11:00:00 AM 11.56 52.808 0.031 7.12 1.8 10.77
5/17/2022 11:15:00 AM 11.74 53.132 0.031 7.12 1.85 10.71
5/17/2022 11:30:00 AM 11.91 53.438 0.031 7.12 1.96 10.69
5/17/2022 11:45:00 AM 12.1 53.78 0.031 7.13 1.72 10.65
5/17/2022 12:00:00 PM 12.27 54.086 0.031 7.13 1.87 10.6
5/17/2022 12:15:00 PM 12.47 54.446 0.031 7.15 1.83 10.56
5/17/2022 12:30:00 PM 12.62 54.716 0.031 7.14 1.7 10.52
5/17/2022 12:45:00 PM 12.81 55.058 0.031 7.15 1.78 10.49
5/17/2022 1:00:00 PM 13.08 55.544 0.031 7.15 1.72 10.45
5/17/2022 1:15:00 PM 13.39 56.102 0.031 7.17 1.59 10.39
5/17/2022 1:30:00 PM 13.66 56.588 0.031 7.17 1.76 10.36
5/17/2022 1:45:00 PM 13.86 56.948 0.031 7.18 2.09 10.31
5/17/2022 2:00:00 PM 13.99 57.182 0.031 7.16 1.9 10.27
5/17/2022 2:15:00 PM 14.15 57.47 0.031 7.17 1.72 10.25
5/17/2022 2:30:00 PM 14.27 57.686 0.031 7.18 1.85 10.2
5/17/2022 2:45:00 PM 14.41 57.938 0.031 7.18 1.72 10.18
5/17/2022 3:00:00 PM 14.47 58.046 0.031 7.18 1.77 10.16
5/17/2022 3:15:00 PM 14.57 58.226 0.031 7.2 1.86 10.14
5/17/2022 3:30:00 PM 14.62 58.316 0.031 7.17 1.7 10.09
5/17/2022 3:45:00 PM 14.63 58.334 0.031 7.19 1.75 10.09
5/17/2022 4:00:00 PM 14.63 58.334 0.031 7.21 1.9 10.07
5/17/2022 4:15:00 PM 14.61 58.298 0.031 7.17 2.35 10.06
5/17/2022 4:30:00 PM 14.55 58.19 0.031 7.18 1.8 10.04
5/17/2022 4:45:00 PM 14.5 58.1 0.031 7.18 2.79 10.06
5/17/2022 5:00:00 PM 14.44 57.992 0.031 7.19 1.79 10.06
5/17/2022 5:15:00 PM 14.31 57.758 0.031 7.15 1.71 10.04
5/17/2022 5:30:00 PM 14.16 57.488 0.031 7.17 2 10.04
5/17/2022 5:45:00 PM 14.08 57.344 0.031 7.14 2.04 10.07
5/17/2022 6:00:00 PM 13.98 57.164 0.031 7.17 1.81 10.07
5/17/2022 6:15:00 PM 13.87 56.966 0.031 7.15 1.76 10.08
5/17/2022 6:30:00 PM 13.78 56.804 0.031 7.15 1.96 10.07
5/17/2022 6:45:00 PM 13.67 56.606 0.031 7.13 6.93 10.08
5/17/2022 7:00:00 PM 13.54 56.372 0.031 7.13 1.82 10.09
5/17/2022 7:15:00 PM 13.43 56.174 0.031 7.1 1.74 10.08
5/17/2022 7:30:00 PM 13.32 55.976 0.031 7.09 1.74 10.09
5/17/2022 7:45:00 PM 13.21 55.778 0.031 7.07 1.65 10.08
5/17/2022 8:00:00 PM 13.09 55.562 0.031 7.06 1.81 10.08
5/17/2022 8:15:00 PM 12.99 55.382 0.031 7.04 1.84 10.08
5/17/2022 8:30:00 PM 12.89 55.202 0.031 7.04 1.73 10.11
5/17/2022 8:45:00 PM 12.79 55.022 0.032 7.03 1.85 10.12
5/17/2022 9:00:00 PM 12.7 54.86 0.032 7.01 2.55 10.12
5/17/2022 9:15:00 PM 12.62 54.716 0.032 7.02 1.78 10.15
5/17/2022 9:30:00 PM 12.52 54.536 0.032 7.01 1.81 10.17
5/17/2022 9:45:00 PM 12.44 54.392 0.032 7 1.8 10.18
5/17/2022 10:00:00 PM 12.35 54.23 0.032 7.01 1.78 10.21
5/17/2022 10:15:00 PM 12.26 54.068 0.032 7.01 1.89 10.24
5/17/2022 10:30:00 PM 12.17 53.906 0.032 6.99 1.85 10.26
5/17/2022 10:45:00 PM 12.08 53.744 0.032 6.99 1.86 10.28
5/17/2022 11:00:00 PM 11.99 53.582 0.032 6.99 1.79 10.31
5/17/2022 11:15:00 PM 11.9 53.42 0.032 6.99 1.85 10.32
5/17/2022 11:30:00 PM 11.82 53.276 0.032 6.98 1.85 10.35
5/17/2022 11:45:00 PM 11.73 53.114 0.032 6.99 1.92 10.37
5/18/2022 12:00:00 AM 11.64 52.952 0.032 6.98 1.8 10.39
5/18/2022 12:15:00 AM 11.55 52.79 0.032 6.98 1.82 10.42
5/18/2022 12:30:00 AM 11.47 52.646 0.032 6.98 1.88 10.43
5/18/2022 12:45:00 AM 11.39 52.502 0.032 6.97 1.73 10.46
5/18/2022 1:00:00 AM 11.3 52.34 0.032 6.97 1.83 10.48
5/18/2022 1:15:00 AM 11.22 52.196 0.032 6.97 1.83 10.5
5/18/2022 1:30:00 AM 11.13 52.034 0.032 6.97 1.82 10.52
5/18/2022 1:45:00 AM 11.05 51.89 0.032 6.97 1.79 10.55
5/18/2022 2:00:00 AM 10.96 51.728 0.032 6.97 1.79 10.57
5/18/2022 2:15:00 AM 10.88 51.584 0.032 6.97 1.72 10.58
5/18/2022 2:30:00 AM 10.8 51.44 0.032 6.97 1.71 10.62
5/18/2022 2:45:00 AM 10.71 51.278 0.032 6.96 1.67 10.63
5/18/2022 3:00:00 AM 10.63 51.134 0.032 6.96 1.74 10.65
5/18/2022 3:15:00 AM 10.55 50.99 0.032 6.96 1.9 10.68
5/18/2022 3:30:00 AM 10.47 50.846 0.032 6.96 1.69 10.7
5/18/2022 3:45:00 AM 10.39 50.702 0.032 6.94 1.69 10.7
5/18/2022 4:00:00 AM 10.31 50.558 0.032 6.96 1.66 10.74
5/18/2022 4:15:00 AM 10.24 50.432 0.032 6.97 1.78 10.76
5/18/2022 4:30:00 AM 10.17 50.306 0.032 6.96 1.77 10.78
5/18/2022 4:45:00 AM 10.09 50.162 0.032 6.97 1.79 10.81
5/18/2022 5:00:00 AM 10.02 50.036 0.032 6.96 3.54 10.83
5/18/2022 5:15:00 AM 9.96 49.928 0.032 6.96 2.08 10.84
5/18/2022 5:30:00 AM 9.89 49.802 0.032 6.97 1.81 10.85
5/18/2022 5:45:00 AM 9.8 49.64 0.032 6.96 2.04 10.89
5/18/2022 6:00:00 AM 9.73 49.514 0.032 6.96 2.17 10.91
5/18/2022 6:15:00 AM 9.66 49.388 0.032 6.96 3.79 10.94
5/18/2022 6:30:00 AM 9.61 49.298 0.032 6.97 3.01 10.96
5/18/2022 6:45:00 AM 9.56 49.208 0.032 6.98 2 11.03
5/18/2022 7:00:00 AM 9.54 49.172 0.032 7 2.06 11.08
5/18/2022 7:15:00 AM 9.52 49.136 0.032 7.01 3.34 11.13
5/18/2022 7:30:00 AM 9.52 49.136 0.032 7.03 1.54 11.18
5/18/2022 7:45:00 AM 9.5 49.1 0.032 7.04 1.57 11.22
5/18/2022 8:00:00 AM 9.49 49.082 0.032 7.05 1.55 11.23
5/18/2022 8:15:00 AM 9.47 49.046 0.032 7.05 1.5 11.24
5/18/2022 8:30:00 AM 9.48 49.064 0.032 7.06 1.7 11.25
5/18/2022 8:45:00 AM 9.51 49.118 0.032 7.06 1.6 11.27
5/18/2022 9:00:00 AM 9.56 49.208 0.031 7.07 1.59 11.26
5/18/2022 9:15:00 AM 9.61 49.298 0.032 7.07 1.54 11.26
5/18/2022 9:30:00 AM 9.7 49.46 0.031 7.09 1.52 11.25
5/18/2022 9:45:00 AM 9.81 49.658 0.031 7.1 1.52 11.24
5/18/2022 10:00:00 AM 9.94 49.892 0.031 7.11 1.45 11.23
5/18/2022 10:15:00 AM 10.07 50.126 0.031 7.12 1.57 11.22
5/18/2022 10:30:00 AM 10.22 50.396 0.031 7.12 1.64 11.19
5/18/2022 10:45:00 AM 10.38 50.684 0.031 7.14 1.62 11.17
5/18/2022 11:00:00 AM 10.55 50.99 0.031 7.16 1.53 11.14
5/18/2022 11:15:00 AM 10.73 51.314 0.031 7.16 1.47 11.09
5/18/2022 11:30:00 AM 10.93 51.674 0.031 7.17 1.65 11.05
5/18/2022 11:45:00 AM 11.13 52.034 0.031 7.19 1.56 11.01
5/18/2022 12:00:00 PM 11.35 52.43 0.031 7.19 1.58 10.96
5/18/2022 12:15:00 PM 11.56 52.808 0.031 7.21 1.45 10.93
5/18/2022 12:30:00 PM 11.77 53.186 0.031 7.21 1.58 10.88
5/18/2022 12:45:00 PM 11.98 53.564 0.031 7.21 1.7 10.83
5/18/2022 1:00:00 PM 12.15 53.87 0.031 7.22 1.52 10.79
5/18/2022 1:15:00 PM 12.36 54.248 0.031 7.23 1.54 10.75
5/18/2022 1:30:00 PM 12.5 54.5 0.031 7.23 1.73 10.7
5/18/2022 1:45:00 PM 12.75 54.95 0.031 7.23 2.14 10.66
5/18/2022 2:00:00 PM 12.89 55.202 0.031 7.24 1.65 10.61
5/18/2022 2:15:00 PM 12.9 55.22 0.031 7.24 1.66 10.56
5/18/2022 2:30:00 PM 12.83 55.094 0.031 7.24 1.7 10.53
5/18/2022 2:45:00 PM 12.87 55.166 0.031 7.23 1.87 10.54
5/18/2022 3:00:00 PM 12.85 55.13 0.031 7.23 1.62 10.52
5/18/2022 3:15:00 PM 12.79 55.022 0.031 7.22 1.61 10.47
5/18/2022 3:30:00 PM 12.73 54.914 0.031 7.2 1.56 10.44
5/18/2022 3:45:00 PM 12.68 54.824 0.031 7.18 1.52 10.41
5/18/2022 4:00:00 PM 12.64 54.752 0.031 7.15 1.54 10.36
5/18/2022 4:15:00 PM 12.59 54.662 0.031 7.14 1.57 10.36
5/18/2022 4:30:00 PM 12.53 54.554 0.031 7.13 1.57 10.33
5/18/2022 4:45:00 PM 12.46 54.428 0.031 7.12 1.6 10.32
5/18/2022 5:00:00 PM 12.41 54.338 0.031 7.11 1.51 10.32
5/18/2022 5:15:00 PM 12.39 54.302 0.031 7.1 1.98 10.34
5/18/2022 5:30:00 PM 12.37 54.266 0.031 7.11 1.57 10.39
5/18/2022 5:45:00 PM 12.32 54.176 0.031 7.1 1.52 10.38
5/18/2022 6:00:00 PM 12.27 54.086 0.032 7.08 2.04 10.35
5/18/2022 6:15:00 PM 12.22 53.996 0.032 7.08 1.51 10.35
5/18/2022 6:30:00 PM 12.17 53.906 0.032 7.08 1.59 10.36
5/18/2022 6:45:00 PM 12.13 53.834 0.032 7.07 1.52 10.36
5/18/2022 7:00:00 PM 12.09 53.762 0.032 7.07 1.5 10.34
5/18/2022 7:15:00 PM 12.05 53.69 0.032 7.08 1.52 10.33
5/18/2022 7:30:00 PM 12.01 53.618 0.032 7.06 1.51 10.33
5/18/2022 7:45:00 PM 11.96 53.528 0.032 7.05 1.54 10.33
5/18/2022 8:00:00 PM 11.92 53.456 0.032 7.05 1.93 10.32
5/18/2022 8:15:00 PM 11.88 53.384 0.032 7.05 1.82 10.33
5/18/2022 8:30:00 PM 11.83 53.294 0.032 7.04 1.6 10.32
5/18/2022 8:45:00 PM 11.79 53.222 0.032 7.04 1.97 10.32
5/18/2022 9:00:00 PM 11.75 53.15 0.032 7.04 1.73 10.33
5/18/2022 9:15:00 PM 11.7 53.06 0.032 7.03 1.78 10.33
5/18/2022 9:30:00 PM 11.66 52.988 0.032 7.03 1.77 10.33
5/18/2022 9:45:00 PM 11.61 52.898 0.032 7.03 1.82 10.34
5/18/2022 10:00:00 PM 11.57 52.826 0.032 7.03 1.85 10.35
5/18/2022 10:15:00 PM 11.54 52.772 0.032 7.03 1.81 10.35
5/18/2022 10:30:00 PM 11.51 52.718 0.032 7.02 1.92 10.36
5/18/2022 10:45:00 PM 11.48 52.664 0.032 7.03 1.95 10.36
5/18/2022 11:00:00 PM 11.45 52.61 0.032 7.04 2.04 10.37
5/18/2022 11:15:00 PM 11.42 52.556 0.032 7.03 1.92 10.37
5/18/2022 11:30:00 PM 11.39 52.502 0.032 7.03 1.97 10.38
5/18/2022 11:45:00 PM 11.37 52.466 0.032 7.02 1.89 10.39
5/19/2022 12:00:00 AM 11.34 52.412 0.032 7.03 1.97 10.39
5/19/2022 12:15:00 AM 11.31 52.358 0.032 7.03 2.08 10.4
5/19/2022 12:30:00 AM 11.29 52.322 0.032 7.03 2.08 10.41
5/19/2022 12:45:00 AM 11.26 52.268 0.032 7.03 1.98 10.41
5/19/2022 1:00:00 AM 11.24 52.232 0.032 7.02 2.11 10.42
5/19/2022 1:15:00 AM 11.22 52.196 0.032 7.02 2.16 10.43
5/19/2022 1:30:00 AM 11.2 52.16 0.032 7.03 2.26 10.43
5/19/2022 1:45:00 AM 11.18 52.124 0.032 7.02 2.1 10.44
5/19/2022 2:00:00 AM 11.16 52.088 0.032 7.02 2.07 10.44
5/19/2022 2:15:00 AM 11.14 52.052 0.032 7.03 2.05 10.44
5/19/2022 2:30:00 AM 11.12 52.016 0.032 7.02 1.94 10.45
5/19/2022 2:45:00 AM 11.1 51.98 0.032 7.03 1.86 10.46
5/19/2022 3:00:00 AM 11.09 51.962 0.032 7.02 1.86 10.46
5/19/2022 3:15:00 AM 11.07 51.926 0.032 7.03 1.93 10.46
5/19/2022 3:30:00 AM 11.06 51.908 0.032 7.03 1.87 10.46
5/19/2022 3:45:00 AM 11.05 51.89 0.032 7.03 1.99 10.47
5/19/2022 4:00:00 AM 11.03 51.854 0.032 7.03 1.99 10.47
5/19/2022 4:15:00 AM 11.02 51.836 0.032 7.03 2.04 10.47
5/19/2022 4:30:00 AM 11.01 51.818 0.032 7.03 1.86 10.47
5/19/2022 4:45:00 AM 11 51.8 0.032 7.03 1.86 10.48
5/19/2022 5:00:00 AM 10.99 51.782 0.032 7.04 1.89 10.48
5/19/2022 5:15:00 AM 10.98 51.764 0.032 7.04 1.93 10.48
5/19/2022 5:30:00 AM 10.97 51.746 0.032 7.03 1.92 10.46
5/19/2022 5:45:00 AM 10.96 51.728 0.032 7.03 1.96 10.48
5/19/2022 6:00:00 AM 10.95 51.71 0.032 7.03 1.89 10.47
5/19/2022 6:15:00 AM 10.94 51.692 0.032 7.03 1.75 10.48
5/19/2022 6:30:00 AM 10.94 51.692 0.032 7.03 1.91 10.49
5/19/2022 6:45:00 AM 10.93 51.674 0.032 7.04 1.9 10.5
5/19/2022 7:00:00 AM 10.93 51.674 0.032 7.03 2.22 10.53
5/19/2022 7:15:00 AM 10.93 51.674 0.032 7.04 1.76 10.55
5/19/2022 7:30:00 AM 10.93 51.674 0.032 7.05 1.71 10.57
5/19/2022 7:45:00 AM 10.93 51.674 0.032 7.05 1.67 10.58
5/19/2022 8:00:00 AM 10.93 51.674 0.032 7.05 1.95 10.57
5/19/2022 8:15:00 AM 10.94 51.692 0.032 7.05 1.68 10.6
5/19/2022 8:30:00 AM 10.95 51.71 0.032 7.05 1.76 10.61
5/19/2022 8:45:00 AM 10.98 51.764 0.032 7.07 1.81 10.62
5/19/2022 9:00:00 AM 11 51.8 0.032 7.08 1.65 10.67
5/19/2022 9:15:00 AM 11.02 51.836 0.032 7.1 1.58 10.69
5/19/2022 9:30:00 AM 11.04 51.872 0.032 7.07 1.83 10.66
5/19/2022 9:45:00 AM 11.05 51.89 0.032 7.09 1.72 10.65
5/19/2022 10:00:00 AM 11.08 51.944 0.031 7.11 1.64 10.68
5/19/2022 10:15:00 AM 11.11 51.998 0.031 7.12 1.61 10.7
5/19/2022 10:30:00 AM 11.13 52.034 0.031 7.1 1.65 10.69
5/19/2022 10:45:00 AM 11.17 52.106 0.031 7.12 1.65 10.7
5/19/2022 11:00:00 AM 11.2 52.16 0.031 7.12 1.69 10.7
5/19/2022 11:15:00 AM 11.24 52.232 0.031 7.13 1.68 10.7
5/19/2022 11:30:00 AM 11.26 52.268 0.031 7.12 1.71 10.67
5/19/2022 11:45:00 AM 11.28 52.304 0.031 7.12 1.8 10.67
5/19/2022 12:00:00 PM 11.42 52.556 0.031 7.13 1.78 10.71
5/19/2022 12:15:00 PM 11.63 52.934 0.031 7.16 1.59 10.71
5/19/2022 12:30:00 PM 11.71 53.078 0.031 7.15 1.62 10.67
5/19/2022 12:45:00 PM 11.84 53.312 0.031 7.19 1.91 10.7
5/19/2022 1:00:00 PM 12.04 53.672 0.031 7.2 1.76 10.68
5/19/2022 1:15:00 PM 12.26 54.068 0.031 7.22 1.69 10.6
5/19/2022 1:30:00 PM 12.27 54.086 0.031 7.2 1.54 10.58
5/19/2022 1:45:00 PM 12.27 54.086 0.031 7.21 2.19 10.55
5/19/2022 2:00:00 PM 12.5 54.5 0.031 7.21 1.65 10.53
5/19/2022 2:15:00 PM 12.78 55.004 0.031 7.2 1.53 10.48
5/19/2022 2:30:00 PM 13.27 55.886 0.031 7.24 1.53 10.45
5/19/2022 2:45:00 PM 13.45 56.21 0.031 7.26 1.71 10.38
5/19/2022 3:00:00 PM 13.66 56.588 0.031 7.24 1.73 10.32
5/19/2022 3:15:00 PM 13.86 56.948 0.031 7.25 1.51 10.29
5/19/2022 3:30:00 PM 14 57.2 0.031 7.25 1.71 10.23
5/19/2022 3:45:00 PM 14.08 57.344 0.031 7.25 1.54 10.2
5/19/2022 4:00:00 PM 14.13 57.434 0.031 7.24 1.79 10.17
5/19/2022 4:15:00 PM 14.17 57.506 0.031 7.25 1.55 10.14
5/19/2022 4:30:00 PM 14.19 57.542 0.031 7.24 1.49 10.11
5/19/2022 4:45:00 PM 14.21 57.578 0.031 7.24 1.6 10.11
5/19/2022 5:00:00 PM 14.16 57.488 0.031 7.23 1.61 10.07
5/19/2022 5:15:00 PM 14.13 57.434 0.031 7.24 5.09 10.09
5/19/2022 5:30:00 PM 14.08 57.344 0.031 7.23 1.65 10.08
5/19/2022 5:45:00 PM 14.02 57.236 0.031 7.22 1.64 10.07
5/19/2022 6:00:00 PM 13.95 57.11 0.031 7.2 1.61 10.05
5/19/2022 6:15:00 PM 13.88 56.984 0.031 7.2 1.48 10.07
5/19/2022 6:30:00 PM 13.83 56.894 0.031 7.18 1.48 10.06
5/19/2022 6:45:00 PM 13.76 56.768 0.031 7.16 1.55 10.03
5/19/2022 7:00:00 PM 13.67 56.606 0.031 7.15 1.5 10.02
5/19/2022 7:15:00 PM 13.58 56.444 0.031 7.13 1.49 10.02
5/19/2022 7:30:00 PM 13.49 56.282 0.031 7.11 1.61 10.02
5/19/2022 7:45:00 PM 13.42 56.156 0.032 7.11 1.53 10.03
5/19/2022 8:00:00 PM 13.35 56.03 0.032 7.09 1.59 10.03
5/19/2022 8:15:00 PM 13.28 55.904 0.032 7.07 1.65 10.01
5/19/2022 8:30:00 PM 13.2 55.76 0.032 7.05 1.55 9.99
5/19/2022 8:45:00 PM 13.13 55.634 0.032 7.04 1.5 9.99
5/19/2022 9:00:00 PM 13.07 55.526 0.032 7.02 2.01 9.95
5/19/2022 9:15:00 PM 13.01 55.418 0.032 7.02 1.59 10.01
5/19/2022 9:30:00 PM 12.96 55.328 0.032 7.03 1.56 10.01
5/19/2022 9:45:00 PM 12.91 55.238 0.032 7.02 1.67 10.02
5/19/2022 10:00:00 PM 12.85 55.13 0.032 7.02 1.6 10.04
5/19/2022 10:15:00 PM 12.79 55.022 0.032 7 1.55 10.05
5/19/2022 10:30:00 PM 12.74 54.932 0.032 7 1.64 10.06
5/19/2022 10:45:00 PM 12.7 54.86 0.032 7.01 1.65 10.07
5/19/2022 11:00:00 PM 12.66 54.788 0.032 7 1.64 10.08
5/19/2022 11:15:00 PM 12.62 54.716 0.032 7.01 1.62 10.09
5/19/2022 11:30:00 PM 12.57 54.626 0.032 7.01 1.93 10.1
5/19/2022 11:45:00 PM 12.52 54.536 0.032 7 1.59 10.11
5/20/2022 12:00:00 AM 12.48 54.464 0.032 7.01 1.69 10.13
5/20/2022 12:15:00 AM 12.43 54.374 0.032 7.01 1.69 10.13
5/20/2022 12:30:00 AM 12.39 54.302 0.032 7 1.8 10.15
5/20/2022 12:45:00 AM 12.35 54.23 0.032 7.01 1.59 10.16
5/20/2022 1:00:00 AM 12.3 54.14 0.032 7 1.72 10.17
5/20/2022 1:15:00 AM 12.25 54.05 0.032 7.01 1.57 10.18
5/20/2022 1:30:00 AM 12.2 53.96 0.032 7 1.65 10.19
5/20/2022 1:45:00 AM 12.16 53.888 0.032 7.01 1.82 10.2
5/20/2022 2:00:00 AM 12.1 53.78 0.032 7 1.66 10.21
5/20/2022 2:15:00 AM 12.05 53.69 0.032 7.01 1.61 10.21
5/20/2022 2:30:00 AM 12 53.6 0.032 7 2.2 10.23
5/20/2022 2:45:00 AM 11.95 53.51 0.032 7 1.6 10.24
5/20/2022 3:00:00 AM 11.9 53.42 0.032 6.99 1.58 10.26
5/20/2022 3:15:00 AM 11.85 53.33 0.032 7 1.61 10.26
5/20/2022 3:30:00 AM 11.8 53.24 0.032 6.99 1.63 10.28
5/20/2022 3:45:00 AM 11.74 53.132 0.032 7 1.66 10.3
5/20/2022 4:00:00 AM 11.69 53.042 0.032 7 1.67 10.3
5/20/2022 4:15:00 AM 11.64 52.952 0.032 6.99 1.84 10.33
5/20/2022 4:30:00 AM 11.59 52.862 0.032 6.99 1.61 10.33
5/20/2022 4:45:00 AM 11.54 52.772 0.032 6.99 1.66 10.35
5/20/2022 5:00:00 AM 11.49 52.682 0.032 6.99 1.58 10.36
5/20/2022 5:15:00 AM 11.44 52.592 0.032 6.99 1.67 10.37
5/20/2022 5:30:00 AM 11.4 52.52 0.032 6.98 1.61 10.38
5/20/2022 5:45:00 AM 11.37 52.466 0.032 6.98 1.79 10.4
5/20/2022 6:00:00 AM 11.35 52.43 0.032 6.99 1.73 10.4
5/20/2022 6:15:00 AM 11.32 52.376 0.032 6.98 1.61 10.4
5/20/2022 6:30:00 AM 11.29 52.322 0.032 7 1.61 10.43
5/20/2022 6:45:00 AM 11.27 52.286 0.032 7.01 1.62 10.48
5/20/2022 7:00:00 AM 11.26 52.268 0.032 7.03 1.9 10.47
5/20/2022 7:15:00 AM 11.25 52.25 0.032 7.02 1.57 10.5
5/20/2022 7:30:00 AM 11.25 52.25 0.032 7.03 1.62 10.56
5/20/2022 7:45:00 AM 11.26 52.268 0.032 7.05 1.52 10.6
5/20/2022 8:00:00 AM 11.28 52.304 0.032 7.06 1.45 10.65
5/20/2022 8:15:00 AM 11.31 52.358 0.032 7.07 1.48 10.66
5/20/2022 8:30:00 AM 11.35 52.43 0.032 7.08 1.84 10.67
5/20/2022 8:45:00 AM 11.42 52.556 0.032 7.1 1.47 10.71
5/20/2022 9:00:00 AM 11.47 52.646 0.032 7.12 1.53 10.73
5/20/2022 9:15:00 AM 11.49 52.682 0.032 7.12 1.5 10.69
5/20/2022 9:30:00 AM 11.53 52.754 0.032 7.11 1.4 10.69
5/20/2022 9:45:00 AM 11.56 52.808 0.032 7.11 1.48 10.69
5/20/2022 10:00:00 AM 11.61 52.898 0.032 7.11 1.47 10.68
5/20/2022 10:15:00 AM 11.67 53.006 0.032 7.11 1.54 10.66
5/20/2022 10:30:00 AM 11.78 53.204 0.032 7.13 1.47 10.68
5/20/2022 10:45:00 AM 11.94 53.492 0.032 7.14 1.54 10.69
5/20/2022 11:00:00 AM 12.09 53.762 0.032 7.16 1.51 10.68
5/20/2022 11:15:00 AM 12.21 53.978 0.032 7.17 1.66 10.64
5/20/2022 11:30:00 AM 12.3 54.14 0.032 7.18 1.43 10.63
5/20/2022 11:45:00 AM 12.43 54.374 0.032 7.2 1.55 10.61
5/20/2022 12:00:00 PM 12.57 54.626 0.032 7.21 1.49 10.58
5/20/2022 12:15:00 PM 12.74 54.932 0.032 7.21 1.52 10.56
5/20/2022 12:30:00 PM 12.88 55.184 0.032 7.22 1.51 10.5
5/20/2022 12:45:00 PM 13.11 55.598 0.032 7.23 1.6 10.49
5/20/2022 1:00:00 PM 13.27 55.886 0.032 7.24 1.5 10.44
5/20/2022 1:15:00 PM 13.35 56.03 0.032 7.23 1.52 10.36
5/20/2022 1:30:00 PM 13.33 55.994 0.032 7.21 1.58 10.26
5/20/2022 1:45:00 PM 13.27 55.886 0.032 7.18 1.48 10.22
5/20/2022 2:00:00 PM 13.27 55.886 0.032 7.16 1.57 10.14
5/20/2022 2:15:00 PM 13.32 55.976 0.032 7.16 1.61 10.15
5/20/2022 2:30:00 PM 13.4 56.12 0.032 7.18 1.47 10.22
5/20/2022 2:45:00 PM 13.45 56.21 0.032 7.18 1.53 10.24
5/20/2022 3:00:00 PM 13.46 56.228 0.032 7.16 1.7 10.2
5/20/2022 3:15:00 PM 13.43 56.174 0.032 7.16 1.6 10.17
5/20/2022 3:30:00 PM 13.44 56.192 0.032 7.16 1.46 10.19
5/20/2022 3:45:00 PM 13.49 56.282 0.032 7.17 1.43 10.22
5/20/2022 4:00:00 PM 13.53 56.354 0.032 7.18 1.53 10.22
5/20/2022 4:15:00 PM 13.53 56.354 0.032 7.16 1.5 10.16
5/20/2022 4:30:00 PM 13.5 56.3 0.032 7.15 1.47 10.13
5/20/2022 4:45:00 PM 13.46 56.228 0.032 7.12 1.5 10.11
5/20/2022 5:00:00 PM 13.46 56.228 0.032 7.11 1.53 10.12
5/20/2022 5:15:00 PM 13.46 56.228 0.032 7.11 1.56 10.08
5/20/2022 5:30:00 PM 13.44 56.192 0.032 7.1 1.49 10.06
5/20/2022 5:45:00 PM 13.47 56.246 0.032 7.09 1.62 10.11
5/20/2022 6:00:00 PM 13.49 56.282 0.032 7.11 1.49 10.16
5/20/2022 6:15:00 PM 13.49 56.282 0.032 7.1 1.5 10.16
5/20/2022 6:30:00 PM 13.47 56.246 0.032 7.1 1.39 10.16
5/20/2022 6:45:00 PM 13.45 56.21 0.032 7.09 1.55 10.15
5/20/2022 7:00:00 PM 13.43 56.174 0.032 7.08 1.51 10.12
5/20/2022 7:15:00 PM 13.41 56.138 0.032 7.08 1.48 10.11
5/20/2022 7:30:00 PM 13.39 56.102 0.032 7.07 1.62 10.07
5/20/2022 7:45:00 PM 13.37 56.066 0.032 7.05 1.49 10.05
5/20/2022 8:00:00 PM 13.34 56.012 0.032 7.04 1.46 10.03
5/20/2022 8:15:00 PM 13.31 55.958 0.032 7.02 1.48 10
5/20/2022 8:30:00 PM 13.28 55.904 0.033 7.01 1.46 9.97
5/20/2022 8:45:00 PM 13.24 55.832 0.033 6.99 1.74 9.96
5/20/2022 9:00:00 PM 13.21 55.778 0.033 6.98 1.52 9.96
5/20/2022 9:15:00 PM 13.19 55.742 0.033 6.98 1.45 9.96
5/20/2022 9:30:00 PM 13.16 55.688 0.033 6.96 1.56 9.96
5/20/2022 9:45:00 PM 13.14 55.652 0.033 6.96 1.58 9.97
5/20/2022 10:00:00 PM 13.12 55.616 0.033 6.95 1.55 9.97
5/20/2022 10:15:00 PM 13.09 55.562 0.033 6.95 1.56 9.97
5/20/2022 10:30:00 PM 13.07 55.526 0.033 6.94 1.47 9.98
5/20/2022 10:45:00 PM 13.05 55.49 0.033 6.94 1.63 9.99
5/20/2022 11:00:00 PM 13.03 55.454 0.033 6.94 1.59 9.99
5/20/2022 11:15:00 PM 13.01 55.418 0.033 6.94 1.5 10
5/20/2022 11:30:00 PM 12.99 55.382 0.033 6.93 1.59 10
5/20/2022 11:45:00 PM 12.96 55.328 0.033 6.93 1.56 10.01
5/21/2022 12:00:00 AM 12.94 55.292 0.033 6.93 1.55 10.02
5/21/2022 12:15:00 AM 12.92 55.256 0.033 6.93 1.55 10.02
5/21/2022 12:30:00 AM 12.91 55.238 0.033 6.93 1.52 10.03
5/21/2022 12:45:00 AM 12.89 55.202 0.033 6.93 1.55 10.04
5/21/2022 1:00:00 AM 12.87 55.166 0.033 6.92 1.46 10.04
5/21/2022 1:15:00 AM 12.86 55.148 0.033 6.91 1.6 10.05
5/21/2022 1:30:00 AM 12.85 55.13 0.033 6.92 1.64 10.06
5/21/2022 1:45:00 AM 12.83 55.094 0.033 6.92 1.52 10.05
5/21/2022 2:00:00 AM 12.83 55.094 0.033 6.91 1.75 10.06
5/21/2022 2:15:00 AM 12.81 55.058 0.033 6.91 1.55 10.06
5/21/2022 2:30:00 AM 12.8 55.04 0.033 6.92 1.64 10.07
5/21/2022 2:45:00 AM 12.79 55.022 0.033 6.93 1.55 10.07
5/21/2022 3:00:00 AM 12.78 55.004 0.033 6.92 1.52 10.08
5/21/2022 3:15:00 AM 12.77 54.986 0.033 6.93 1.5 10.08
5/21/2022 3:30:00 AM 12.76 54.968 0.033 6.93 1.53 10.08
5/21/2022 3:45:00 AM 12.75 54.95 0.033 6.92 1.63 10.08
5/21/2022 4:00:00 AM 12.74 54.932 0.033 6.92 1.72 10.09
5/21/2022 4:15:00 AM 12.73 54.914 0.033 6.92 1.57 10.09
5/21/2022 4:30:00 AM 12.72 54.896 0.033 6.94 1.52 10.09
5/21/2022 4:45:00 AM 12.71 54.878 0.033 6.94 1.53 10.11
5/21/2022 5:00:00 AM 12.7 54.86 0.033 6.95 1.65 10.11
5/21/2022 5:15:00 AM 12.68 54.824 0.033 6.95 1.62 10.1
5/21/2022 5:30:00 AM 12.67 54.806 0.033 6.94 1.6 10.09
5/21/2022 5:45:00 AM 12.66 54.788 0.033 6.94 1.53 10.11
5/21/2022 6:00:00 AM 12.64 54.752 0.033 6.95 1.56 10.1
5/21/2022 6:15:00 AM 12.63 54.734 0.033 6.96 1.56 10.14
5/21/2022 6:30:00 AM 12.63 54.734 0.033 6.97 1.53 10.17
5/21/2022 6:45:00 AM 12.63 54.734 0.033 6.99 1.44 10.2
5/21/2022 7:00:00 AM 12.62 54.716 0.033 6.99 1.51 10.23
5/21/2022 7:15:00 AM 12.6 54.68 0.033 7.01 1.73 10.27
5/21/2022 7:30:00 AM 12.58 54.644 0.033 7.01 1.54 10.29
5/21/2022 7:45:00 AM 12.59 54.662 0.033 7.02 1.58 10.31
5/21/2022 8:00:00 AM 12.59 54.662 0.033 7.03 1.69 10.34
5/21/2022 8:15:00 AM 12.61 54.698 0.033 7.04 1.56 10.34
5/21/2022 8:30:00 AM 12.64 54.752 0.033 7.04 1.54 10.37
5/21/2022 8:45:00 AM 12.68 54.824 0.033 7.05 1.59 10.39
5/21/2022 9:00:00 AM 12.73 54.914 0.033 7.06 1.41 10.4
5/21/2022 9:15:00 AM 12.79 55.022 0.033 7.07 1.42 10.41
5/21/2022 9:30:00 AM 12.88 55.184 0.033 7.08 1.47 10.42
5/21/2022 9:45:00 AM 12.99 55.382 0.033 7.09 1.47 10.41
5/21/2022 10:00:00 AM 13.12 55.616 0.033 7.1 1.47 10.42
5/21/2022 10:15:00 AM 13.28 55.904 0.033 7.13 1.58 10.4
5/21/2022 10:30:00 AM 13.48 56.264 0.033 7.15 1.53 10.39
5/21/2022 10:45:00 AM 13.69 56.642 0.033 7.19 1.55 10.37
5/21/2022 11:00:00 AM 13.85 56.93 0.032 7.2 1.68 10.32
5/21/2022 11:15:00 AM 14 57.2 0.032 7.21 1.49 10.29
5/21/2022 11:30:00 AM 14.23 57.614 0.032 7.22 1.55 10.27
5/21/2022 11:45:00 AM 14.38 57.884 0.032 7.23 1.53 10.24
5/21/2022 12:00:00 PM 14.6 58.28 0.032 7.24 1.5 10.21
5/21/2022 12:15:00 PM 14.87 58.766 0.032 7.24 1.47 10.17
5/21/2022 12:30:00 PM 15.22 59.396 0.032 7.26 1.56 10.12
5/21/2022 12:45:00 PM 15.42 59.756 0.032 7.26 1.35 10.06
5/21/2022 1:00:00 PM 15.66 60.188 0.032 7.26 1.49 10.02
5/21/2022 1:15:00 PM 15.87 60.566 0.032 7.27 1.53 9.99
5/21/2022 1:30:00 PM 16.09 60.962 0.032 7.28 1.42 9.96
5/21/2022 1:45:00 PM 16.33 61.394 0.032 7.27 1.6 9.91
5/21/2022 2:00:00 PM 16.47 61.646 0.032 7.28 1.68 9.87
5/21/2022 2:15:00 PM 16.58 61.844 0.032 7.28 1.43 9.83
5/21/2022 2:30:00 PM 16.75 62.15 0.032 7.27 1.39 9.79
5/21/2022 2:45:00 PM 16.9 62.42 0.032 7.29 1.5 9.76
5/21/2022 3:00:00 PM 17.06 62.708 0.032 7.29 1.78 9.72
5/21/2022 3:15:00 PM 17.2 62.96 0.032 7.3 1.58 9.7
5/21/2022 3:30:00 PM 17.27 63.086 0.032 7.29 1.27 9.67
5/21/2022 3:45:00 PM 17.35 63.23 0.032 7.29 1.45 9.64
5/21/2022 4:00:00 PM 17.34 63.212 0.032 7.29 1.32 9.61
5/21/2022 4:15:00 PM 17.39 63.302 0.032 7.27 1.3 9.59
5/21/2022 4:30:00 PM 17.42 63.356 0.032 7.26 1.42 9.57
5/21/2022 4:45:00 PM 17.44 63.392 0.032 7.26 1.5 9.54
5/21/2022 5:00:00 PM 17.41 63.338 0.032 7.25 1.4 9.52
5/21/2022 5:15:00 PM 17.37 63.266 0.032 7.25 1.33 9.5
5/21/2022 5:30:00 PM 17.31 63.158 0.032 7.23 1.31 9.49
5/21/2022 5:45:00 PM 17.28 63.104 0.032 7.22 1.38 9.48
5/21/2022 6:00:00 PM 17.23 63.014 0.032 7.21 1.35 9.46
5/21/2022 6:15:00 PM 17.19 62.942 0.032 7.2 1.37 9.45
5/21/2022 6:30:00 PM 17.15 62.87 0.032 7.2 1.42 9.44
5/21/2022 6:45:00 PM 17.09 62.762 0.033 7.18 1.29 9.42
5/21/2022 7:00:00 PM 16.97 62.546 0.033 7.15 1.32 9.36
5/21/2022 7:15:00 PM 16.85 62.33 0.033 7.13 1.5 9.32
5/21/2022 7:30:00 PM 16.73 62.114 0.033 7.1 1.37 9.31
5/21/2022 7:45:00 PM 16.63 61.934 0.033 7.08 1.45 9.32
5/21/2022 8:00:00 PM 16.53 61.754 0.033 7.06 1.38 9.32
5/21/2022 8:15:00 PM 16.42 61.556 0.033 7.04 1.4 9.32
5/21/2022 8:30:00 PM 16.32 61.376 0.033 7.02 1.42 9.31
5/21/2022 8:45:00 PM 16.21 61.178 0.033 7.01 1.5 9.32
5/21/2022 9:00:00 PM 16.11 60.998 0.033 6.99 1.5 9.32
5/21/2022 9:15:00 PM 16.02 60.836 0.033 6.98 1.52 9.34
5/21/2022 9:30:00 PM 15.94 60.692 0.033 6.98 1.57 9.36
5/21/2022 9:45:00 PM 15.86 60.548 0.034 6.97 1.52 9.38
5/21/2022 10:00:00 PM 15.79 60.422 0.034 6.97 1.49 9.39
5/21/2022 10:15:00 PM 15.74 60.332 0.034 6.98 1.57 9.41
5/21/2022 10:30:00 PM 15.71 60.278 0.034 7 1.5 9.42
5/21/2022 10:45:00 PM 15.66 60.188 0.034 7.02 1.65 9.43
5/21/2022 11:00:00 PM 15.6 60.08 0.034 7.02 1.45 9.45
5/21/2022 11:15:00 PM 15.55 59.99 0.034 7.02 1.54 9.45
5/21/2022 11:30:00 PM 15.5 59.9 0.034 7.02 1.65 9.47
5/21/2022 11:45:00 PM 15.44 59.792 0.034 7.02 1.49 9.47
5/22/2022 12:00:00 AM 15.37 59.666 0.034 7 1.57 9.49
5/22/2022 12:15:00 AM 15.31 59.558 0.034 6.99 1.66 9.5
5/22/2022 12:30:00 AM 15.26 59.468 0.034 6.99 1.57 9.51
5/22/2022 12:45:00 AM 15.2 59.36 0.034 6.99 1.42 9.52
5/22/2022 1:00:00 AM 15.14 59.252 0.034 6.99 1.58 9.53
5/22/2022 1:15:00 AM 15.09 59.162 0.034 6.99 1.46 9.54
5/22/2022 1:30:00 AM 15.03 59.054 0.034 7 1.54 9.56
5/22/2022 1:45:00 AM 14.98 58.964 0.034 7.01 1.66 9.57
5/22/2022 2:00:00 AM 14.93 58.874 0.034 7.01 1.63 9.58
5/22/2022 2:15:00 AM 14.87 58.766 0.034 7.01 1.56 9.6
5/22/2022 2:30:00 AM 14.82 58.676 0.034 7.01 1.46 9.61
5/22/2022 2:45:00 AM 14.77 58.586 0.034 7.01 1.61 9.62
5/22/2022 3:00:00 AM 14.72 58.496 0.034 7 1.57 9.63
5/22/2022 3:15:00 AM 14.67 58.406 0.034 7 3.53 9.61
5/22/2022 3:30:00 AM 14.63 58.334 0.034 7 1.55 9.64
5/22/2022 3:45:00 AM 14.57 58.226 0.034 7.01 1.61 9.66
5/22/2022 4:00:00 AM 14.52 58.136 0.034 7.01 1.59 9.67
5/22/2022 4:15:00 AM 14.47 58.046 0.034 7 1.6 9.68
5/22/2022 4:30:00 AM 14.42 57.956 0.034 7 1.46 9.69
5/22/2022 4:45:00 AM 14.37 57.866 0.034 7 1.66 9.71
5/22/2022 5:00:00 AM 14.32 57.776 0.034 7 1.64 9.71
5/22/2022 5:15:00 AM 14.27 57.686 0.034 7 1.67 9.71
5/22/2022 5:30:00 AM 14.22 57.596 0.034 7 1.59 9.72
5/22/2022 5:45:00 AM 14.17 57.506 0.034 6.99 1.91 9.75
5/22/2022 6:00:00 AM 14.12 57.416 0.034 6.99 1.63 9.76
5/22/2022 6:15:00 AM 14.08 57.344 0.034 7 1.59 9.8
5/22/2022 6:30:00 AM 14.04 57.272 0.034 7.01 1.59 9.81
5/22/2022 6:45:00 AM 14.01 57.218 0.034 7.02 1.49 9.86
5/22/2022 7:00:00 AM 13.98 57.164 0.034 7.03 1.61 9.88
5/22/2022 7:15:00 AM 13.96 57.128 0.034 7.03 1.54 9.92
5/22/2022 7:30:00 AM 13.95 57.11 0.034 7.05 1.48 9.95
5/22/2022 7:45:00 AM 13.95 57.11 0.034 7.06 1.44 9.99
5/22/2022 8:00:00 AM 13.96 57.128 0.033 7.08 1.5 10.02
5/22/2022 8:15:00 AM 13.95 57.11 0.034 7.09 1.41 10.03
5/22/2022 8:30:00 AM 13.97 57.146 0.033 7.09 1.42 10
5/22/2022 8:45:00 AM 14 57.2 0.033 7.1 1.47 10.09
5/22/2022 9:00:00 AM 14.03 57.254 0.033 7.11 1.42 10.1
5/22/2022 9:15:00 AM 14.08 57.344 0.033 7.12 1.52 10.1
5/22/2022 9:30:00 AM 14.2 57.56 0.033 7.14 1.6 10.14
5/22/2022 9:45:00 AM 14.25 57.65 0.033 7.15 1.48 10.13
5/22/2022 10:00:00 AM 14.26 57.668 0.033 7.16 1.49 10.14
5/22/2022 10:15:00 AM 14.32 57.776 0.033 7.16 1.45 10.15
5/22/2022 10:30:00 AM 14.44 57.992 0.033 7.16 1.36 10.14
5/22/2022 10:45:00 AM 14.64 58.352 0.033 7.19 2.57 10.13
5/22/2022 11:00:00 AM 14.86 58.748 0.033 7.22 1.44 10.12
5/22/2022 11:15:00 AM 14.99 58.982 0.033 7.24 1.57 10.09
5/22/2022 11:30:00 AM 15.09 59.162 0.033 7.24 1.62 10.08
5/22/2022 11:45:00 AM 15.24 59.432 0.033 7.25 1.48 10.06
5/22/2022 12:00:00 PM 15.46 59.828 0.033 7.25 1.5 10.03
5/22/2022 12:15:00 PM 15.59 60.062 0.033 7.26 1.52 9.98
5/22/2022 12:30:00 PM 15.64 60.152 0.033 7.26 1.4 9.91
5/22/2022 12:45:00 PM 15.68 60.224 0.033 7.26 1.39 9.89
5/22/2022 1:00:00 PM 15.66 60.188 0.033 7.24 1.43 9.84
5/22/2022 1:15:00 PM 15.8 60.44 0.033 7.24 1.32 9.88
5/22/2022 1:30:00 PM 15.99 60.782 0.033 7.25 1.54 9.88
5/22/2022 1:45:00 PM 16.3 61.34 0.033 7.27 1.85 9.86
5/22/2022 2:00:00 PM 16.37 61.466 0.033 7.26 1.68 9.81
5/22/2022 2:15:00 PM 16.44 61.592 0.033 7.27 1.49 9.77
5/22/2022 2:30:00 PM 16.67 62.006 0.033 7.28 1.38 9.79
5/22/2022 2:45:00 PM 16.8 62.24 0.033 7.29 1.35 9.76
5/22/2022 3:00:00 PM 16.91 62.438 0.033 7.29 1.36 9.73
5/22/2022 3:15:00 PM 17.02 62.636 0.033 7.29 1.44 9.7
5/22/2022 3:30:00 PM 16.98 62.564 0.033 7.29 1.38 9.68
5/22/2022 3:45:00 PM 16.86 62.348 0.033 7.27 1.34 9.62
5/22/2022 4:00:00 PM 16.74 62.132 0.033 7.25 1.36 9.58
5/22/2022 4:15:00 PM 16.63 61.934 0.033 7.22 1.31 9.52
5/22/2022 4:30:00 PM 16.52 61.736 0.033 7.19 1.4 9.5
5/22/2022 4:45:00 PM 16.44 61.592 0.033 7.17 1.46 9.49
5/22/2022 5:00:00 PM 16.39 61.502 0.033 7.17 1.3 9.5
5/22/2022 5:15:00 PM 16.32 61.376 0.033 7.15 1.36 9.48
5/22/2022 5:30:00 PM 16.24 61.232 0.033 7.15 1.38 9.48
5/22/2022 5:45:00 PM 16.17 61.106 0.033 7.14 1.42 9.52
5/22/2022 6:00:00 PM 16.08 60.944 0.033 7.14 1.36 9.54
5/22/2022 6:15:00 PM 15.99 60.782 0.033 7.13 1.34 9.53
5/22/2022 6:30:00 PM 15.93 60.674 0.033 7.12 1.51 9.54
5/22/2022 6:45:00 PM 15.86 60.548 0.034 7.12 1.49 9.58
5/22/2022 7:00:00 PM 15.79 60.422 0.034 7.12 1.45 9.58
5/22/2022 7:15:00 PM 15.71 60.278 0.034 7.12 1.38 9.61
5/22/2022 7:30:00 PM 15.64 60.152 0.034 7.12 1.57 9.61
5/22/2022 7:45:00 PM 15.56 60.008 0.034 7.12 1.44 9.62
5/22/2022 8:00:00 PM 15.46 59.828 0.034 7.1 1.42 9.61
5/22/2022 8:15:00 PM 15.38 59.684 0.034 7.08 1.4 9.59
5/22/2022 8:30:00 PM 15.3 59.54 0.034 7.08 1.4 9.57
5/22/2022 8:45:00 PM 15.22 59.396 0.034 7.07 1.8 9.57
5/22/2022 9:00:00 PM 15.15 59.27 0.034 7.07 1.43 9.58
5/22/2022 9:15:00 PM 15.09 59.162 0.034 7.07 1.53 9.59
5/22/2022 9:30:00 PM 15.02 59.036 0.034 7.06 1.73 9.6
5/22/2022 9:45:00 PM 14.94 58.892 0.034 7.06 1.39 9.62
5/22/2022 10:00:00 PM 14.86 58.748 0.034 7.06 1.52 9.64
5/22/2022 10:15:00 PM 14.78 58.604 0.034 7.06 1.47 9.66
5/22/2022 10:30:00 PM 14.7 58.46 0.034 7.05 1.59 9.68
5/22/2022 10:45:00 PM 14.63 58.334 0.034 7.05 1.6 9.69
5/22/2022 11:00:00 PM 14.54 58.172 0.034 7.05 1.51 9.71
5/22/2022 11:15:00 PM 14.46 58.028 0.034 7.05 1.52 9.73
5/22/2022 11:30:00 PM 14.38 57.884 0.034 7.04 1.47 9.75
5/22/2022 11:45:00 PM 14.29 57.722 0.034 7.04 1.49 9.77
5/23/2022 12:00:00 AM 14.21 57.578 0.034 7.03 1.58 9.79
5/23/2022 12:15:00 AM 14.12 57.416 0.034 7.04 1.62 9.81
5/23/2022 12:30:00 AM 14.03 57.254 0.034 7.03 1.54 9.83
5/23/2022 12:45:00 AM 13.95 57.11 0.034 7.03 1.45 9.84
5/23/2022 1:00:00 AM 13.87 56.966 0.034 7.03 1.61 9.87
5/23/2022 1:15:00 AM 13.79 56.822 0.034 7.03 1.53 9.89
5/23/2022 1:30:00 AM 13.72 56.696 0.034 7.03 1.46 9.91
5/23/2022 1:45:00 AM 13.65 56.57 0.034 7.02 1.67 9.92
5/23/2022 2:00:00 AM 13.59 56.462 0.034 7.03 1.52 9.94
5/23/2022 2:15:00 AM 13.54 56.372 0.034 7.03 1.43 9.96
5/23/2022 2:30:00 AM 13.49 56.282 0.034 7.03 1.5 9.98
5/23/2022 2:45:00 AM 13.43 56.174 0.034 7.03 1.44 9.99
5/23/2022 3:00:00 AM 13.37 56.066 0.034 7.03 1.44 10
5/23/2022 3:15:00 AM 13.31 55.958 0.034 7.03 1.49 10.01
5/23/2022 3:30:00 AM 13.26 55.868 0.034 7.03 1.44 10.02
5/23/2022 3:45:00 AM 13.21 55.778 0.034 7.03 1.48 10.04
5/23/2022 4:00:00 AM 13.16 55.688 0.034 7.02 1.62 10.05
5/23/2022 4:15:00 AM 13.11 55.598 0.034 7.03 1.5 10.07
5/23/2022 4:30:00 AM 13.06 55.508 0.034 7.02 1.87 10.07
5/23/2022 4:45:00 AM 13.01 55.418 0.034 7.03 1.69 10.09
5/23/2022 5:00:00 AM 12.96 55.328 0.034 7.03 1.47 10.1
5/23/2022 5:15:00 AM 12.89 55.202 0.034 7.03 1.49 10.1
5/23/2022 5:30:00 AM 12.83 55.094 0.034 7.03 1.38 10.13
5/23/2022 5:45:00 AM 12.76 54.968 0.034 7.02 1.55 10.13
5/23/2022 6:00:00 AM 12.69 54.842 0.034 7.02 1.57 10.15
5/23/2022 6:15:00 AM 12.63 54.734 0.034 7.02 1.58 10.18
5/23/2022 6:30:00 AM 12.58 54.644 0.034 7.03 1.54 10.21
5/23/2022 6:45:00 AM 12.54 54.572 0.034 7.04 1.8 10.26
5/23/2022 7:00:00 AM 12.51 54.518 0.034 7.05 1.39 10.31
5/23/2022 7:15:00 AM 12.48 54.464 0.034 7.06 1.48 10.33
5/23/2022 7:30:00 AM 12.44 54.392 0.034 7.06 1.44 10.36
5/23/2022 7:45:00 AM 12.41 54.338 0.034 7.07 1.35 10.4
5/23/2022 8:00:00 AM 12.38 54.284 0.034 7.08 1.44 10.41
5/23/2022 8:15:00 AM 12.39 54.302 0.034 7.09 1.43 10.44
5/23/2022 8:30:00 AM 12.42 54.356 0.034 7.1 1.61 10.5
5/23/2022 8:45:00 AM 12.42 54.356 0.034 7.11 1.35 10.51
5/23/2022 9:00:00 AM 12.45 54.41 0.034 7.12 1.55 10.52
5/23/2022 9:15:00 AM 12.5 54.5 0.033 7.14 1.43 10.55
5/23/2022 9:30:00 AM 12.52 54.536 0.033 7.14 1.37 10.54
5/23/2022 9:45:00 AM 12.56 54.608 0.033 7.16 1.39 10.54
5/23/2022 10:00:00 AM 12.67 54.806 0.033 7.17 1.37 10.57
5/23/2022 10:15:00 AM 12.78 55.004 0.033 7.19 1.44 10.57
5/23/2022 10:30:00 AM 12.91 55.238 0.033 7.2 1.35 10.59
5/23/2022 10:45:00 AM 13.02 55.436 0.033 7.23 1.53 10.58
5/23/2022 11:00:00 AM 13.11 55.598 0.033 7.24 1.33 10.57
5/23/2022 11:15:00 AM 13.18 55.724 0.033 7.24 1.35 10.55
5/23/2022 11:30:00 AM 13.24 55.832 0.033 7.24 1.52 10.53
5/23/2022 11:45:00 AM 13.31 55.958 0.033 7.24 1.48 10.53
5/23/2022 12:00:00 PM 13.4 56.12 0.033 7.25 1.36 10.53
5/23/2022 12:15:00 PM 13.48 56.264 0.033 7.25 1.37 10.5
5/23/2022 12:30:00 PM 13.54 56.372 0.033 7.25 1.35 10.5
5/23/2022 12:45:00 PM 13.65 56.57 0.033 7.26 1.36 10.47
5/23/2022 1:00:00 PM 13.71 56.678 0.033 7.27 1.45 10.46
5/23/2022 1:15:00 PM 13.76 56.768 0.033 7.27 1.46 10.46
5/23/2022 1:30:00 PM 13.81 56.858 0.033 7.26 1.49 10.43
5/23/2022 1:45:00 PM 13.87 56.966 0.033 7.26 1.43 10.43
5/23/2022 2:00:00 PM 13.97 57.146 0.033 7.28 1.41 10.41
5/23/2022 2:15:00 PM 14.02 57.236 0.033 7.28 1.32 10.4
5/23/2022 2:30:00 PM 14.06 57.308 0.033 7.27 1.55 10.37
5/23/2022 2:45:00 PM 14.16 57.488 0.033 7.28 1.5 10.35
5/23/2022 3:00:00 PM 14.22 57.596 0.033 7.28 1.39 10.34
5/23/2022 3:15:00 PM 14.21 57.578 0.033 7.27 1.41 10.33
5/23/2022 3:30:00 PM 14.18 57.524 0.033 7.27 1.5 10.3
5/23/2022 3:45:00 PM 14.16 57.488 0.033 7.26 1.49 10.29
5/23/2022 4:00:00 PM 14.16 57.488 0.033 7.26 1.48 10.28
5/23/2022 4:15:00 PM 14.17 57.506 0.033 7.26 1.4 10.28
5/23/2022 4:30:00 PM 14.17 57.506 0.033 7.26 1.41 10.26
5/23/2022 4:45:00 PM 14.16 57.488 0.033 7.26 1.46 10.25
5/23/2022 5:00:00 PM 14.14 57.452 0.033 7.23 1.45 10.22
5/23/2022 5:15:00 PM 14.13 57.434 0.033 7.24 1.36 10.21
5/23/2022 5:30:00 PM 14.12 57.416 0.033 7.23 1.49 10.21
5/23/2022 5:45:00 PM 14.1 57.38 0.033 7.22 1.37 10.2
5/23/2022 6:00:00 PM 14.08 57.344 0.033 7.21 1.38 10.17
5/23/2022 6:15:00 PM 14.04 57.272 0.033 7.2 1.39 10.15
5/23/2022 6:30:00 PM 14.01 57.218 0.033 7.19 1.37 10.15
5/23/2022 6:45:00 PM 13.97 57.146 0.033 7.18 1.42 10.13
5/23/2022 7:00:00 PM 13.93 57.074 0.033 7.16 1.33 10.09
5/23/2022 7:15:00 PM 13.89 57.002 0.033 7.14 1.42 10.07
5/23/2022 7:30:00 PM 13.84 56.912 0.034 7.12 1.48 10.04
5/23/2022 7:45:00 PM 13.79 56.822 0.034 7.12 1.41 10.02
5/23/2022 8:00:00 PM 13.73 56.714 0.034 7.11 1.37 10
5/23/2022 8:15:00 PM 13.68 56.624 0.034 7.09 1.31 9.98
5/23/2022 8:30:00 PM 13.62 56.516 0.034 7.09 1.47 9.98
5/23/2022 8:45:00 PM 13.56 56.408 0.034 7.07 1.4 9.96
5/23/2022 9:00:00 PM 13.5 56.3 0.034 7.07 1.36 9.96
5/23/2022 9:15:00 PM 13.43 56.174 0.034 7.07 1.52 9.97
5/23/2022 9:30:00 PM 13.37 56.066 0.034 7.07 1.51 9.98
5/23/2022 9:45:00 PM 13.31 55.958 0.034 7.06 1.45 9.99
5/23/2022 10:00:00 PM 13.25 55.85 0.034 7.06 1.41 10.01
5/23/2022 10:15:00 PM 13.2 55.76 0.034 7.06 1.38 10.03
5/23/2022 10:30:00 PM 13.14 55.652 0.034 7.06 1.38 10.03
5/23/2022 10:45:00 PM 13.09 55.562 0.034 7.05 1.4 10.06
5/23/2022 11:00:00 PM 13.03 55.454 0.034 7.06 1.42 10.07
5/23/2022 11:15:00 PM 12.97 55.346 0.034 7.05 1.38 10.08
5/23/2022 11:30:00 PM 12.92 55.256 0.034 7.06 1.61 10.1
5/23/2022 11:45:00 PM 12.86 55.148 0.034 7.05 1.46 10.11
5/24/2022 12:00:00 AM 12.81 55.058 0.034 7.05 1.41 10.12
5/24/2022 12:15:00 AM 12.76 54.968 0.034 7.04 1.35 10.13
5/24/2022 12:30:00 AM 12.7 54.86 0.034 7.04 1.38 10.16
5/24/2022 12:45:00 AM 12.65 54.77 0.034 7.04 1.39 10.16
5/24/2022 1:00:00 AM 12.6 54.68 0.034 7.03 1.37 10.17
5/24/2022 1:15:00 AM 12.56 54.608 0.034 7.04 1.47 10.19
5/24/2022 1:30:00 AM 12.5 54.5 0.034 7.04 1.38 10.2
5/24/2022 1:45:00 AM 12.45 54.41 0.034 7.04 1.46 10.21
5/24/2022 2:00:00 AM 12.39 54.302 0.034 7.04 1.44 10.22
5/24/2022 2:15:00 AM 12.32 54.176 0.034 7.03 1.43 10.24
5/24/2022 2:30:00 AM 12.26 54.068 0.034 7.03 1.39 10.25
5/24/2022 2:45:00 AM 12.19 53.942 0.034 7.03 1.4 10.26
5/24/2022 3:00:00 AM 12.13 53.834 0.034 7.03 1.88 10.28
5/24/2022 3:15:00 AM 12.07 53.726 0.034 7.03 1.43 10.29
5/24/2022 3:30:00 AM 12.01 53.618 0.034 7.03 1.42 10.31
5/24/2022 3:45:00 AM 11.95 53.51 0.034 7.03 1.49 10.33
5/24/2022 4:00:00 AM 11.89 53.402 0.034 7.03 1.5 10.34
5/24/2022 4:15:00 AM 11.83 53.294 0.034 7.03 1.43 10.36
5/24/2022 4:30:00 AM 11.77 53.186 0.034 7.03 1.36 10.36
5/24/2022 4:45:00 AM 11.72 53.096 0.034 7.02 2.05 10.37
5/24/2022 5:00:00 AM 11.68 53.024 0.034 7.01 1.97 10.39
5/24/2022 5:15:00 AM 11.64 52.952 0.034 7.02 1.85 10.39
5/24/2022 5:30:00 AM 11.58 52.844 0.034 7.02 1.8 10.4
5/24/2022 5:45:00 AM 11.52 52.736 0.034 7.01 1.74 10.44
5/24/2022 6:00:00 AM 11.46 52.628 0.034 7.03 1.56 10.45
5/24/2022 6:15:00 AM 11.4 52.52 0.034 7.03 1.41 10.48
5/24/2022 6:30:00 AM 11.36 52.448 0.034 7.03 1.4 10.52
5/24/2022 6:45:00 AM 11.32 52.376 0.034 7.04 1.34 10.55
5/24/2022 7:00:00 AM 11.28 52.304 0.034 7.04 1.41 10.58
5/24/2022 7:15:00 AM 11.26 52.268 0.034 7.05 1.59 10.6
5/24/2022 7:30:00 AM 11.25 52.25 0.034 7.06 1.33 10.66
5/24/2022 7:45:00 AM 11.28 52.304 0.034 7.08 1.29 10.71
5/24/2022 8:00:00 AM 11.32 52.376 0.034 7.11 1.25 10.75
5/24/2022 8:15:00 AM 11.34 52.412 0.034 7.11 1.32 10.78
5/24/2022 8:30:00 AM 11.36 52.448 0.034 7.12 1.35 10.78
5/24/2022 8:45:00 AM 11.39 52.502 0.034 7.14 1.33 10.8
5/24/2022 9:00:00 AM 11.43 52.574 0.034 7.14 1.49 10.81
5/24/2022 9:15:00 AM 11.5 52.7 0.034 7.16 1.3 10.84
5/24/2022 9:30:00 AM 11.59 52.862 0.034 7.18 1.41 10.85
5/24/2022 9:45:00 AM 11.68 53.024 0.034 7.19 1.29 10.85
5/24/2022 10:00:00 AM 11.76 53.168 0.034 7.2 1.38 10.82
5/24/2022 10:15:00 AM 11.83 53.294 0.033 7.2 1.38 10.83
5/24/2022 10:30:00 AM 11.89 53.402 0.033 7.21 1.24 10.8
5/24/2022 10:45:00 AM 11.96 53.528 0.033 7.21 1.4 10.8
5/24/2022 11:00:00 AM 12.03 53.654 0.033 7.22 1.37 10.77
5/24/2022 11:15:00 AM 12.12 53.816 0.033 7.22 1.26 10.77
5/24/2022 11:30:00 AM 12.19 53.942 0.033 7.23 2.58 10.76
5/24/2022 11:45:00 AM 12.27 54.086 0.033 7.22 1.33 10.75
5/24/2022 12:00:00 PM 12.38 54.284 0.033 7.24 1.28 10.74
5/24/2022 12:15:00 PM 12.47 54.446 0.033 7.24 1.39 10.73
5/24/2022 12:30:00 PM 12.53 54.554 0.033 7.24 1.34 10.7
5/24/2022 12:45:00 PM 12.63 54.734 0.033 7.25 1.51 10.69
5/24/2022 1:00:00 PM 12.68 54.824 0.033 7.24 1.27 10.66
5/24/2022 1:15:00 PM 12.7 54.86 0.033 7.23 1.46 10.64
5/24/2022 1:30:00 PM 12.71 54.878 0.033 7.24 1.31 10.61
5/24/2022 1:45:00 PM 12.71 54.878 0.033 7.22 2.09 10.58
5/24/2022 2:00:00 PM 12.7 54.86 0.033 7.21 1.61 10.53
5/24/2022 2:15:00 PM 12.68 54.824 0.033 7.2 1.28 10.49
5/24/2022 2:30:00 PM 12.68 54.824 0.033 7.19 1.45 10.48
5/24/2022 2:45:00 PM 12.7 54.86 0.034 7.18 1.35 10.48
5/24/2022 3:00:00 PM 12.71 54.878 0.034 7.18 1.3 10.47
5/24/2022 3:15:00 PM 12.72 54.896 0.034 7.18 1.31 10.46
5/24/2022 3:30:00 PM 12.76 54.968 0.034 7.19 1.25 10.49
5/24/2022 3:45:00 PM 12.76 54.968 0.034 7.19 1.32 10.48
5/24/2022 4:00:00 PM 12.77 54.986 0.034 7.18 1.28 10.46
5/24/2022 4:15:00 PM 12.79 55.022 0.034 7.18 1.25 10.47
5/24/2022 4:30:00 PM 12.84 55.112 0.034 7.19 1.3 10.49
5/24/2022 4:45:00 PM 12.9 55.22 0.034 7.2 1.31 10.51
5/24/2022 5:00:00 PM 12.94 55.292 0.033 7.22 1.31 10.51
5/24/2022 5:15:00 PM 12.95 55.31 0.033 7.21 1.46 10.48
5/24/2022 5:30:00 PM 12.91 55.238 0.034 7.21 1.27 10.42
5/24/2022 5:45:00 PM 12.87 55.166 0.034 7.18 1.36 10.37
5/24/2022 6:00:00 PM 12.84 55.112 0.034 7.16 1.28 10.34
5/24/2022 6:15:00 PM 12.82 55.076 0.034 7.15 1.29 10.34
5/24/2022 6:30:00 PM 12.81 55.058 0.034 7.14 1.35 10.33
5/24/2022 6:45:00 PM 12.81 55.058 0.034 7.14 1.34 10.32
5/24/2022 7:00:00 PM 12.8 55.04 0.034 7.12 1.41 10.29
5/24/2022 7:15:00 PM 12.78 55.004 0.034 7.11 1.22 10.26
5/24/2022 7:30:00 PM 12.76 54.968 0.034 7.1 1.86 10.23
5/24/2022 7:45:00 PM 12.74 54.932 0.034 7.08 1.43 10.22
5/24/2022 8:00:00 PM 12.72 54.896 0.034 7.06 1.33 10.19
5/24/2022 8:15:00 PM 12.7 54.86 0.034 7.06 1.33 10.2
5/24/2022 8:30:00 PM 12.68 54.824 0.034 7.04 1.3 10.19
5/24/2022 8:45:00 PM 12.66 54.788 0.034 7.04 1.29 10.18
5/24/2022 9:00:00 PM 12.64 54.752 0.034 7.04 1.26 10.2
5/24/2022 9:15:00 PM 12.62 54.716 0.035 7.03 1.33 10.2
5/24/2022 9:30:00 PM 12.6 54.68 0.035 7.04 1.42 10.2
5/24/2022 9:45:00 PM 12.58 54.644 0.035 7.03 1.77 10.2
5/24/2022 10:00:00 PM 12.57 54.626 0.035 7.03 1.35 10.21
5/24/2022 10:15:00 PM 12.55 54.59 0.035 7.03 1.39 10.21
5/24/2022 10:30:00 PM 12.53 54.554 0.035 7.03 1.33 10.21
5/24/2022 10:45:00 PM 12.51 54.518 0.035 7.02 1.33 10.22
5/24/2022 11:00:00 PM 12.5 54.5 0.035 7.03 1.37 10.22
5/24/2022 11:15:00 PM 12.49 54.482 0.035 7.03 1.32 10.23
5/24/2022 11:30:00 PM 12.48 54.464 0.035 7.03 1.4 10.23
5/24/2022 11:45:00 PM 12.47 54.446 0.035 7.02 1.41 10.23
5/25/2022 12:00:00 AM 12.45 54.41 0.035 7.02 1.52 10.23
5/25/2022 12:15:00 AM 12.44 54.392 0.035 7.02 1.46 10.24
5/25/2022 12:30:00 AM 12.43 54.374 0.035 7.03 1.34 10.24
5/25/2022 12:45:00 AM 12.42 54.356 0.035 7.03 1.44 10.25
5/25/2022 1:00:00 AM 12.4 54.32 0.035 7.04 1.33 10.25
5/25/2022 1:15:00 AM 12.39 54.302 0.035 7.04 1.34 10.25
5/25/2022 1:30:00 AM 12.38 54.284 0.035 7.04 1.38 10.25
5/25/2022 1:45:00 AM 12.37 54.266 0.035 7.03 1.36 10.26
5/25/2022 2:00:00 AM 12.36 54.248 0.035 7.03 1.39 10.26
5/25/2022 2:15:00 AM 12.35 54.23 0.035 7.03 1.42 10.27
5/25/2022 2:30:00 AM 12.33 54.194 0.035 7.03 1.36 10.27
5/25/2022 2:45:00 AM 12.32 54.176 0.035 7.03 1.44 10.27
5/25/2022 3:00:00 AM 12.31 54.158 0.035 7.02 1.48 10.28
5/25/2022 3:15:00 AM 12.3 54.14 0.035 7.02 1.44 10.27
5/25/2022 3:30:00 AM 12.29 54.122 0.035 7.02 1.33 10.27
5/25/2022 3:45:00 AM 12.27 54.086 0.035 7.02 1.33 10.28
5/25/2022 4:00:00 AM 12.25 54.05 0.035 7.02 1.35 10.29
5/25/2022 4:15:00 AM 12.23 54.014 0.035 7.02 1.47 10.29
5/25/2022 4:30:00 AM 12.2 53.96 0.035 7.02 1.3 10.3
5/25/2022 4:45:00 AM 12.17 53.906 0.035 7.01 1.81 10.3
5/25/2022 5:00:00 AM 12.15 53.87 0.035 7.02 2.56 10.29
5/25/2022 5:15:00 AM 12.13 53.834 0.035 7.02 1.45 10.3
5/25/2022 5:30:00 AM 12.12 53.816 0.035 7.01 1.39 10.29
5/25/2022 5:45:00 AM 12.11 53.798 0.035 7.03 1.39 10.3
5/25/2022 6:00:00 AM 12.1 53.78 0.035 7.03 1.32 10.31
5/25/2022 6:15:00 AM 12.09 53.762 0.035 7.03 1.33 10.34
5/25/2022 6:30:00 AM 12.07 53.726 0.035 7.03 1.79 10.38
5/25/2022 6:45:00 AM 12.07 53.726 0.035 7.05 1.66 10.42
5/25/2022 7:00:00 AM 12.06 53.708 0.035 7.05 1.28 10.44
5/25/2022 7:15:00 AM 12.07 53.726 0.035 7.08 1.24 10.49
5/25/2022 7:30:00 AM 12.08 53.744 0.035 7.09 1.3 10.53
5/25/2022 7:45:00 AM 12.08 53.744 0.034 7.09 1.23 10.54
5/25/2022 8:00:00 AM 12.11 53.798 0.034 7.1 1.2 10.57
5/25/2022 8:15:00 AM 12.19 53.942 0.034 7.13 1.31 10.62
5/25/2022 8:30:00 AM 12.24 54.032 0.034 7.15 1.25 10.64
5/25/2022 8:45:00 AM 12.3 54.14 0.034 7.16 1.26 10.65
5/25/2022 9:00:00 AM 12.37 54.266 0.034 7.17 1.29 10.65
5/25/2022 9:15:00 AM 12.41 54.338 0.034 7.18 1.26 10.66
5/25/2022 9:30:00 AM 12.44 54.392 0.034 7.19 1.28 10.64
5/25/2022 9:45:00 AM 12.5 54.5 0.034 7.2 1.18 10.64
5/25/2022 10:00:00 AM 12.59 54.662 0.034 7.19 1.25 10.64
5/25/2022 10:15:00 AM 12.63 54.734 0.034 7.21 1.31 10.61
5/25/2022 10:30:00 AM 12.66 54.788 0.034 7.21 1.26 10.62
5/25/2022 10:45:00 AM 12.72 54.896 0.034 7.21 1.24 10.62
5/25/2022 11:00:00 AM 12.81 55.058 0.034 7.22 1.3 10.61
5/25/2022 11:15:00 AM 12.92 55.256 0.034 7.24 1.29 10.62
5/25/2022 11:30:00 AM 13.11 55.598 0.034 7.25 1.26 10.61
5/25/2022 11:45:00 AM 13.33 55.994 0.034 7.26 1.31 10.6
5/25/2022 12:00:00 PM 13.55 56.39 0.034 7.27 1.24 10.57
5/25/2022 12:15:00 PM 13.74 56.732 0.034 7.28 1.23 10.54
5/25/2022 12:30:00 PM 13.89 57.002 0.034 7.28 1.23 10.5
5/25/2022 12:45:00 PM 14.02 57.236 0.034 7.3 1.27 10.48
5/25/2022 1:00:00 PM 14.15 57.47 0.034 7.3 1.23 10.45
5/25/2022 1:15:00 PM 14.38 57.884 0.034 7.29 3.32 10.43
5/25/2022 1:30:00 PM 14.56 58.208 0.034 7.31 1.18 10.38
5/25/2022 1:45:00 PM 14.72 58.496 0.034 7.31 1.21 10.35
5/25/2022 2:00:00 PM 14.96 58.928 0.034 7.32 1.19 10.3
5/25/2022 2:15:00 PM 15.17 59.306 0.034 7.31 1.2 10.26
5/25/2022 2:30:00 PM 15.41 59.738 0.033 7.32 1.28 10.19
5/25/2022 2:45:00 PM 15.56 60.008 0.034 7.31 1.22 10.14
5/25/2022 3:00:00 PM 15.71 60.278 0.034 7.3 1.18 10.09
5/25/2022 3:15:00 PM 15.79 60.422 0.034 7.31 1.29 10.05
5/25/2022 3:30:00 PM 15.73 60.314 0.034 7.31 1.24 10.02
5/25/2022 3:45:00 PM 15.7 60.26 0.034 7.3 1.23 10
5/25/2022 4:00:00 PM 15.69 60.242 0.034 7.29 1.22 9.98
5/25/2022 4:15:00 PM 15.61 60.098 0.034 7.31 1.2 9.98
5/25/2022 4:30:00 PM 15.55 59.99 0.034 7.3 1.17 9.99
5/25/2022 4:45:00 PM 15.54 59.972 0.034 7.3 1.19 10
5/25/2022 5:00:00 PM 15.52 59.936 0.034 7.3 1.23 9.97
5/25/2022 5:15:00 PM 15.5 59.9 0.034 7.29 1.27 9.95
5/25/2022 5:30:00 PM 15.48 59.864 0.034 7.28 1.21 9.94
5/25/2022 5:45:00 PM 15.41 59.738 0.034 7.27 1.25 9.9
5/25/2022 6:00:00 PM 15.34 59.612 0.034 7.27 1.4 9.9
5/25/2022 6:15:00 PM 15.26 59.468 0.034 7.26 1.31 9.9
5/25/2022 6:30:00 PM 15.19 59.342 0.034 7.24 1.27 9.88
5/25/2022 6:45:00 PM 15.12 59.216 0.034 7.21 1.21 9.85
5/25/2022 7:00:00 PM 15.05 59.09 0.034 7.21 1.27 9.84
5/25/2022 7:15:00 PM 14.98 58.964 0.034 7.19 1.4 9.8
5/25/2022 7:30:00 PM 14.91 58.838 0.034 7.17 1.22 9.78
5/25/2022 7:45:00 PM 14.84 58.712 0.035 7.18 1.21 9.76
5/25/2022 8:00:00 PM 14.78 58.604 0.035 7.15 1.28 9.75
5/25/2022 8:15:00 PM 14.7 58.46 0.035 7.14 1.24 9.73
5/25/2022 8:30:00 PM 14.64 58.352 0.035 7.12 1.19 9.72
5/25/2022 8:45:00 PM 14.57 58.226 0.035 7.11 1.24 9.71
5/25/2022 9:00:00 PM 14.51 58.118 0.035 7.12 1.24 9.72
5/25/2022 9:15:00 PM 14.45 58.01 0.035 7.12 1.26 9.72
5/25/2022 9:30:00 PM 14.4 57.92 0.035 7.11 1.39 9.73
5/25/2022 9:45:00 PM 14.34 57.812 0.035 7.11 1.36 9.74
5/25/2022 10:00:00 PM 14.28 57.704 0.035 7.11 1.32 9.75
5/25/2022 10:15:00 PM 14.23 57.614 0.035 7.1 1.3 9.77
5/25/2022 10:30:00 PM 14.18 57.524 0.035 7.11 1.39 9.77
5/25/2022 10:45:00 PM 14.13 57.434 0.035 7.1 1.36 9.79
5/25/2022 11:00:00 PM 14.08 57.344 0.035 7.11 1.29 9.8
5/25/2022 11:15:00 PM 14.03 57.254 0.035 7.1 1.26 9.8
5/25/2022 11:30:00 PM 13.98 57.164 0.035 7.09 1.34 9.8
5/25/2022 11:45:00 PM 13.94 57.092 0.035 7.1 1.38 9.82
5/26/2022 12:00:00 AM 13.89 57.002 0.035 7.1 1.5 9.84
5/26/2022 12:15:00 AM 13.84 56.912 0.035 7.12 1.28 9.84
5/26/2022 12:30:00 AM 13.8 56.84 0.035 7.11 1.29 9.85
5/26/2022 12:45:00 AM 13.76 56.768 0.035 7.11 1.37 9.86
5/26/2022 1:00:00 AM 13.71 56.678 0.035 7.1 1.72 9.87
5/26/2022 1:15:00 AM 13.67 56.606 0.035 7.1 1.31 9.89
5/26/2022 1:30:00 AM 13.63 56.534 0.035 7.09 1.3 9.89
5/26/2022 1:45:00 AM 13.59 56.462 0.035 7.1 1.29 9.9
5/26/2022 2:00:00 AM 13.56 56.408 0.035 7.1 1.34 9.9
5/26/2022 2:15:00 AM 13.52 56.336 0.035 7.1 1.24 9.91
5/26/2022 2:30:00 AM 13.5 56.3 0.035 7.09 1.32 9.92
5/26/2022 2:45:00 AM 13.47 56.246 0.035 7.09 1.29 9.92
5/26/2022 3:00:00 AM 13.43 56.174 0.035 7.1 1.25 9.93
5/26/2022 3:15:00 AM 13.38 56.084 0.035 7.08 1.51 9.94
5/26/2022 3:30:00 AM 13.33 55.994 0.035 7.1 1.33 9.96
5/26/2022 3:45:00 AM 13.29 55.922 0.035 7.1 1.28 9.96
5/26/2022 4:00:00 AM 13.24 55.832 0.035 7.08 1.3 9.97
5/26/2022 4:15:00 AM 13.2 55.76 0.035 7.1 1.51 9.98
5/26/2022 4:30:00 AM 13.15 55.67 0.035 7.09 1.33 9.99
5/26/2022 4:45:00 AM 13.11 55.598 0.035 7.09 1.28 10
5/26/2022 5:00:00 AM 13.07 55.526 0.035 7.09 1.34 10.01
5/26/2022 5:15:00 AM 13.03 55.454 0.035 7.08 1.28 10.01
5/26/2022 5:30:00 AM 12.99 55.382 0.035 7.09 1.33 10.03
5/26/2022 5:45:00 AM 12.94 55.292 0.035 7.08 1.32 10.04
5/26/2022 6:00:00 AM 12.9 55.22 0.035 7.08 1.35 10.06
5/26/2022 6:15:00 AM 12.86 55.148 0.035 7.09 1.43 10.09
5/26/2022 6:30:00 AM 12.83 55.094 0.035 7.09 1.24 10.12
5/26/2022 6:45:00 AM 12.8 55.04 0.035 7.1 1.34 10.16
5/26/2022 7:00:00 AM 12.78 55.004 0.035 7.11 1.35 10.21
5/26/2022 7:15:00 AM 12.77 54.986 0.035 7.13 1.27 10.24
5/26/2022 7:30:00 AM 12.77 54.986 0.035 7.14 1.3 10.25
5/26/2022 7:45:00 AM 12.76 54.968 0.035 7.14 1.26 10.26
5/26/2022 8:00:00 AM 12.76 54.968 0.035 7.14 1.54 10.28
5/26/2022 8:15:00 AM 12.79 55.022 0.035 7.15 1.28 10.31
5/26/2022 8:30:00 AM 12.84 55.112 0.035 7.17 1.28 10.33
5/26/2022 8:45:00 AM 12.89 55.202 0.035 7.18 1.26 10.37
5/26/2022 9:00:00 AM 12.97 55.346 0.035 7.2 1.19 10.38
5/26/2022 9:15:00 AM 13.06 55.508 0.035 7.22 1.24 10.41
5/26/2022 9:30:00 AM 13.15 55.67 0.035 7.23 1.27 10.41
5/26/2022 9:45:00 AM 13.26 55.868 0.034 7.24 1.27 10.41
5/26/2022 10:00:00 AM 13.35 56.03 0.034 7.26 1.26 10.4
5/26/2022 10:15:00 AM 13.4 56.12 0.034 7.24 1.23 10.38
5/26/2022 10:30:00 AM 13.5 56.3 0.034 7.26 1.21 10.37
5/26/2022 10:45:00 AM 13.63 56.534 0.034 7.26 1.34 10.37
5/26/2022 11:00:00 AM 13.75 56.75 0.034 7.26 1.26 10.36
5/26/2022 11:15:00 AM 13.87 56.966 0.034 7.28 1.26 10.34
5/26/2022 11:30:00 AM 14.01 57.218 0.034 7.28 1.25 10.33
5/26/2022 11:45:00 AM 14.19 57.542 0.034 7.3 1.37 10.29
5/26/2022 12:00:00 PM 14.4 57.92 0.034 7.3 1.28 10.27
5/26/2022 12:15:00 PM 14.65 58.37 0.034 7.3 1.25 10.22
5/26/2022 12:30:00 PM 14.9 58.82 0.034 7.31 1.3 10.18
5/26/2022 12:45:00 PM 15.17 59.306 0.034 7.32 1.3 10.13
5/26/2022 1:00:00 PM 15.43 59.774 0.034 7.32 1.26 10.09
5/26/2022 1:15:00 PM 15.71 60.278 0.034 7.33 1.26 10.05
5/26/2022 1:30:00 PM 15.95 60.71 0.034 7.33 1.48 10.01
5/26/2022 1:45:00 PM 16.22 61.196 0.034 7.34 1.22 9.96
5/26/2022 2:00:00 PM 16.49 61.682 0.034 7.35 1.19 9.92
5/26/2022 2:15:00 PM 16.69 62.042 0.034 7.35 1.26 9.87
5/26/2022 2:30:00 PM 16.78 62.204 0.034 7.36 1.23 9.83
5/26/2022 2:45:00 PM 16.74 62.132 0.034 7.35 1.22 9.8
5/26/2022 3:00:00 PM 16.92 62.456 0.034 7.36 1.31 9.8
5/26/2022 3:15:00 PM 16.86 62.348 0.034 7.35 1.21 9.75
5/26/2022 3:30:00 PM 16.7 62.06 0.034 7.34 1.27 9.71
5/26/2022 3:45:00 PM 16.62 61.916 0.034 7.33 1.25 9.7
5/26/2022 4:00:00 PM 16.66 61.988 0.034 7.33 1.21 9.68
5/26/2022 4:15:00 PM 16.71 62.078 0.034 7.32 1.16 9.67
5/26/2022 4:30:00 PM 16.77 62.186 0.034 7.32 1.28 9.65
5/26/2022 4:45:00 PM 16.8 62.24 0.034 7.33 1.22 9.65
5/26/2022 5:00:00 PM 16.83 62.294 0.034 7.34 1.22 9.65
5/26/2022 5:15:00 PM 16.78 62.204 0.034 7.32 1.25 9.63
5/26/2022 5:30:00 PM 16.7 62.06 0.034 7.32 1.35 9.61
5/26/2022 5:45:00 PM 16.64 61.952 0.034 7.31 1.23 9.59
5/26/2022 6:00:00 PM 16.54 61.772 0.035 7.3 1.21 9.55
5/26/2022 6:15:00 PM 16.45 61.61 0.035 7.29 1.3 9.51
5/26/2022 6:30:00 PM 16.36 61.448 0.035 7.27 1.28 9.49
5/26/2022 6:45:00 PM 16.29 61.322 0.035 7.27 1.33 9.5
5/26/2022 7:00:00 PM 16.23 61.214 0.035 7.25 1.26 9.49
5/26/2022 7:15:00 PM 16.17 61.106 0.035 7.24 1.24 9.47
5/26/2022 7:30:00 PM 16.11 60.998 0.035 7.23 1.22 9.46
5/26/2022 7:45:00 PM 16.04 60.872 0.035 7.22 1.25 9.44
5/26/2022 8:00:00 PM 15.99 60.782 0.035 7.22 1.36 9.42
5/26/2022 8:15:00 PM 15.92 60.656 0.035 7.21 1.23 9.39
5/26/2022 8:30:00 PM 15.85 60.53 0.035 7.18 1.34 9.37
5/26/2022 8:45:00 PM 15.79 60.422 0.035 7.17 1.2 9.36
5/26/2022 9:00:00 PM 15.74 60.332 0.035 7.16 1.29 9.35
5/26/2022 9:15:00 PM 15.68 60.224 0.035 7.16 1.29 9.35
5/26/2022 9:30:00 PM 15.63 60.134 0.036 7.15 1.32 9.36
5/26/2022 9:45:00 PM 15.58 60.044 0.036 7.16 1.38 9.37
5/26/2022 10:00:00 PM 15.53 59.954 0.035 7.15 1.27 9.38
5/26/2022 10:15:00 PM 15.49 59.882 0.036 7.14 1.29 9.38
5/26/2022 10:30:00 PM 15.45 59.81 0.036 7.15 1.26 9.4
5/26/2022 10:45:00 PM 15.41 59.738 0.036 7.14 1.45 9.41
5/26/2022 11:00:00 PM 15.36 59.648 0.036 7.15 1.82 9.41
5/26/2022 11:15:00 PM 15.33 59.594 0.036 7.15 1.65 9.42
5/26/2022 11:30:00 PM 15.29 59.522 0.036 7.14 1.24 9.42
5/26/2022 11:45:00 PM 15.26 59.468 0.036 7.13 1.4 9.43
5/27/2022 12:00:00 AM 15.22 59.396 0.036 7.14 1.56 9.44
5/27/2022 12:15:00 AM 15.19 59.342 0.036 7.13 1.26 9.44
5/27/2022 12:30:00 AM 15.16 59.288 0.036 7.14 1.3 9.45
5/27/2022 12:45:00 AM 15.14 59.252 0.036 7.13 1.24 9.46
5/27/2022 1:00:00 AM 15.12 59.216 0.036 7.14 1.34 9.46
5/27/2022 1:15:00 AM 15.09 59.162 0.036 7.14 1.34 9.46
5/27/2022 1:30:00 AM 15.07 59.126 0.036 7.14 1.33 9.47
5/27/2022 1:45:00 AM 15.04 59.072 0.036 7.14 1.37 9.47
5/27/2022 2:00:00 AM 15.02 59.036 0.036 7.14 1.28 9.48
5/27/2022 2:15:00 AM 15 59 0.036 7.14 1.41 9.48
5/27/2022 2:30:00 AM 14.98 58.964 0.036 7.13 1.34 9.48
5/27/2022 2:45:00 AM 14.94 58.892 0.036 7.13 1.36 9.49
5/27/2022 3:00:00 AM 14.91 58.838 0.036 7.14 1.24 9.49
5/27/2022 3:15:00 AM 14.88 58.784 0.036 7.13 1.43 9.51
5/27/2022 3:30:00 AM 14.86 58.748 0.036 7.15 1.3 9.5
5/27/2022 3:45:00 AM 14.83 58.694 0.036 7.15 1.35 9.51
5/27/2022 4:00:00 AM 14.81 58.658 0.036 7.14 1.27 9.51
5/27/2022 4:15:00 AM 14.78 58.604 0.036 7.13 1.34 9.52
5/27/2022 4:30:00 AM 14.76 58.568 0.036 7.13 1.28 9.52
5/27/2022 4:45:00 AM 14.74 58.532 0.036 7.15 1.28 9.53
5/27/2022 5:00:00 AM 14.72 58.496 0.036 7.14 1.33 9.53
5/27/2022 5:15:00 AM 14.69 58.442 0.036 7.13 1.36 9.52
5/27/2022 5:30:00 AM 14.68 58.424 0.036 7.13 1.33 9.52
5/27/2022 5:45:00 AM 14.65 58.37 0.036 7.14 1.33 9.53
5/27/2022 6:00:00 AM 14.63 58.334 0.036 7.14 1.59 9.54
5/27/2022 6:15:00 AM 14.62 58.316 0.036 7.13 1.26 9.56
5/27/2022 6:30:00 AM 14.61 58.298 0.036 7.13 1.26 9.56
5/27/2022 6:45:00 AM 14.59 58.262 0.036 7.14 1.28 9.57
5/27/2022 7:00:00 AM 14.59 58.262 0.036 7.14 1.33 9.59
5/27/2022 7:15:00 AM 14.59 58.262 0.036 7.16 1.36 9.61
5/27/2022 7:30:00 AM 14.59 58.262 0.036 7.16 1.37 9.64
5/27/2022 7:45:00 AM 14.59 58.262 0.036 7.17 1.36 9.65
5/27/2022 8:00:00 AM 14.6 58.28 0.036 7.17 1.29 9.67
5/27/2022 8:15:00 AM 14.6 58.28 0.036 7.17 1.33 9.7
5/27/2022 8:30:00 AM 14.61 58.298 0.036 7.18 1.31 9.71
5/27/2022 8:45:00 AM 14.63 58.334 0.036 7.18 1.26 9.74
5/27/2022 9:00:00 AM 14.66 58.388 0.036 7.21 1.35 9.79
5/27/2022 9:15:00 AM 14.68 58.424 0.035 7.22 1.34 9.82
5/27/2022 9:30:00 AM 14.69 58.442 0.035 7.22 1.37 9.8
5/27/2022 9:45:00 AM 14.7 58.46 0.035 7.22 1.4 9.79
5/27/2022 10:00:00 AM 14.74 58.532 0.035 7.23 1.43 9.82
5/27/2022 10:15:00 AM 14.77 58.586 0.035 7.24 1.42 9.85
5/27/2022 10:30:00 AM 14.79 58.622 0.035 7.24 1.54 9.85
5/27/2022 10:45:00 AM 14.79 58.622 0.035 7.24 1.84 9.82
5/27/2022 11:00:00 AM 14.8 58.64 0.035 7.23 1.7 9.82
5/27/2022 11:15:00 AM 14.81 58.658 0.035 7.24 1.4 9.81
5/27/2022 11:30:00 AM 14.85 58.73 0.035 7.25 1.62 9.83
5/27/2022 11:45:00 AM 14.86 58.748 0.035 7.24 1.45 9.76
5/27/2022 12:00:00 PM 14.88 58.784 0.035 7.23 2.07 9.72
5/27/2022 12:15:00 PM 14.93 58.874 0.035 7.27 1.52 9.78
5/27/2022 12:30:00 PM 15 59 0.035 7.29 1.52 9.83
5/27/2022 12:45:00 PM 15.01 59.018 0.035 7.29 1.51 9.82
5/27/2022 1:00:00 PM 15.17 59.306 0.035 7.31 1.65 9.86
5/27/2022 1:15:00 PM 15.25 59.45 0.035 7.33 1.54 9.89
5/27/2022 1:30:00 PM 15.27 59.486 0.035 7.34 1.49 9.87
5/27/2022 1:45:00 PM 15.28 59.504 0.035 7.35 1.59 9.87
5/27/2022 2:00:00 PM 15.33 59.594 0.035 7.35 1.87 9.89
5/27/2022 2:15:00 PM 15.37 59.666 0.035 7.37 2.41 9.89
5/27/2022 2:30:00 PM 15.44 59.792 0.035 7.37 2.64 9.89
5/27/2022 2:45:00 PM 15.52 59.936 0.035 7.39 2.5 9.89
5/27/2022 3:00:00 PM 15.6 60.08 0.035 7.38 2.45 9.88
5/27/2022 3:15:00 PM 15.63 60.134 0.034 7.4 2.17 9.85
5/27/2022 3:30:00 PM 15.62 60.116 0.034 7.4 2.03 9.81
5/27/2022 3:45:00 PM 15.64 60.152 0.034 7.39 1.92 9.8
5/27/2022 4:00:00 PM 15.65 60.17 0.034 7.39 2.07 9.8
5/27/2022 4:15:00 PM 15.7 60.26 0.034 7.39 1.92 9.8
5/27/2022 4:30:00 PM 15.74 60.332 0.034 7.38 1.92 9.79
5/27/2022 4:45:00 PM 15.8 60.44 0.034 7.39 1.97 9.77
5/27/2022 5:00:00 PM 15.78 60.404 0.034 7.39 1.95 9.73
5/27/2022 5:15:00 PM 15.78 60.404 0.034 7.37 1.79 9.71
5/27/2022 5:30:00 PM 15.77 60.386 0.034 7.37 1.93 9.69
5/27/2022 5:45:00 PM 15.77 60.386 0.034 7.35 1.7 9.67
5/27/2022 6:00:00 PM 15.78 60.404 0.034 7.35 1.68 9.66
5/27/2022 6:15:00 PM 15.78 60.404 0.034 7.34 1.64 9.63
5/27/2022 6:30:00 PM 15.77 60.386 0.034 7.32 1.74 9.59
5/27/2022 6:45:00 PM 15.75 60.35 0.034 7.32 1.74 9.55
5/27/2022 7:00:00 PM 15.71 60.278 0.035 7.3 1.64 9.52
5/27/2022 7:15:00 PM 15.65 60.17 0.035 7.29 1.63 9.48
5/27/2022 7:30:00 PM 15.58 60.044 0.035 7.27 1.54 9.46
5/27/2022 7:45:00 PM 15.52 59.936 0.035 7.26 1.63 9.45
5/27/2022 8:00:00 PM 15.45 59.81 0.035 7.24 1.53 9.44
5/27/2022 8:15:00 PM 15.38 59.684 0.035 7.22 1.59 9.42
5/27/2022 8:30:00 PM 15.32 59.576 0.035 7.22 1.52 9.42
5/27/2022 8:45:00 PM 15.26 59.468 0.035 7.2 1.58 9.42
5/27/2022 9:00:00 PM 15.2 59.36 0.035 7.2 1.54 9.42
5/27/2022 9:15:00 PM 15.15 59.27 0.035 7.2 1.48 9.42
5/27/2022 9:30:00 PM 15.09 59.162 0.035 7.18 1.56 9.43
5/27/2022 9:45:00 PM 15.04 59.072 0.035 7.18 1.64 9.44
5/27/2022 10:00:00 PM 14.99 58.982 0.035 7.17 1.59 9.45
5/27/2022 10:15:00 PM 14.94 58.892 0.035 7.17 1.6 9.46
5/27/2022 10:30:00 PM 14.89 58.802 0.035 7.17 1.54 9.47
5/27/2022 10:45:00 PM 14.84 58.712 0.035 7.17 1.76 9.48
5/27/2022 11:00:00 PM 14.79 58.622 0.035 7.16 1.55 9.5
5/27/2022 11:15:00 PM 14.75 58.55 0.035 7.17 1.54 9.5
5/27/2022 11:30:00 PM 14.7 58.46 0.035 7.16 1.79 9.51
5/27/2022 11:45:00 PM 14.67 58.406 0.035 7.16 1.54 9.52
5/28/2022 12:00:00 AM 14.63 58.334 0.035 7.16 1.55 9.53
5/28/2022 12:15:00 AM 14.6 58.28 0.035 7.16 1.46 9.53
5/28/2022 12:30:00 AM 14.57 58.226 0.035 7.15 1.56 9.54
5/28/2022 12:45:00 AM 14.54 58.172 0.035 7.16 1.63 9.54
5/28/2022 1:00:00 AM 14.5 58.1 0.035 7.15 1.47 9.55
5/28/2022 1:15:00 AM 14.47 58.046 0.035 7.14 1.55 9.55
5/28/2022 1:30:00 AM 14.44 57.992 0.035 7.15 1.54 9.55
5/28/2022 1:45:00 AM 14.41 57.938 0.035 7.15 1.49 9.57
5/28/2022 2:00:00 AM 14.38 57.884 0.035 7.15 1.73 9.57
5/28/2022 2:15:00 AM 14.36 57.848 0.035 7.15 1.33 9.58
5/28/2022 2:30:00 AM 14.34 57.812 0.035 7.15 1.45 9.57
5/28/2022 2:45:00 AM 14.32 57.776 0.035 7.14 1.59 9.58
5/28/2022 3:00:00 AM 14.29 57.722 0.035 7.15 1.43 9.59
5/28/2022 3:15:00 AM 14.26 57.668 0.035 7.14 1.56 9.6
5/28/2022 3:30:00 AM 14.24 57.632 0.035 7.14 1.43 9.6
5/28/2022 3:45:00 AM 14.22 57.596 0.035 7.13 1.44 9.6
5/28/2022 4:00:00 AM 14.2 57.56 0.035 7.14 1.72 9.62
5/28/2022 4:15:00 AM 14.18 57.524 0.035 7.14 1.38 9.62
5/28/2022 4:30:00 AM 14.16 57.488 0.035 7.14 1.5 9.62
5/28/2022 4:45:00 AM 14.14 57.452 0.035 7.14 1.42 9.63
5/28/2022 5:00:00 AM 14.12 57.416 0.035 7.13 1.42 9.63
5/28/2022 5:15:00 AM 14.1 57.38 0.035 7.12 1.5 9.64
5/28/2022 5:30:00 AM 14.08 57.344 0.035 7.13 1.42 9.65
5/28/2022 5:45:00 AM 14.06 57.308 0.035 7.12 1.45 9.64
5/28/2022 6:00:00 AM 14.05 57.29 0.035 7.13 1.5 9.65
5/28/2022 6:15:00 AM 14.03 57.254 0.035 7.11 1.42 9.66
5/28/2022 6:30:00 AM 14.02 57.236 0.035 7.12 1.48 9.67
5/28/2022 6:45:00 AM 14.01 57.218 0.035 7.12 1.81 9.68
5/28/2022 7:00:00 AM 14 57.2 0.035 7.12 2.47 9.71
5/28/2022 7:15:00 AM 14 57.2 0.035 7.14 1.47 9.73
5/28/2022 7:30:00 AM 14.02 57.236 0.035 7.15 2.01 9.8
5/28/2022 7:45:00 AM 14.01 57.218 0.035 7.15 1.58 9.8
5/28/2022 8:00:00 AM 14.02 57.236 0.035 7.17 2.19 9.8
5/28/2022 8:15:00 AM 14.02 57.236 0.035 7.19 1.38 9.84
5/28/2022 8:30:00 AM 14.02 57.236 0.035 7.19 1.36 9.84
5/28/2022 8:45:00 AM 14.01 57.218 0.035 7.19 1.47 9.84
5/28/2022 9:00:00 AM 14.01 57.218 0.035 7.19 1.4 9.82
5/28/2022 9:15:00 AM 14.01 57.218 0.035 7.21 1.36 9.83
5/28/2022 9:30:00 AM 14.01 57.218 0.035 7.21 1.48 9.84
5/28/2022 9:45:00 AM 14.03 57.254 0.035 7.22 1.62 9.88
5/28/2022 10:00:00 AM 14.06 57.308 0.035 7.22 1.42 9.91
5/28/2022 10:15:00 AM 14.06 57.308 0.035 7.23 1.38 9.89
5/28/2022 10:30:00 AM 14.08 57.344 0.035 7.25 1.53 9.92
5/28/2022 10:45:00 AM 14.11 57.398 0.035 7.25 1.43 9.95
5/28/2022 11:00:00 AM 14.13 57.434 0.035 7.27 1.39 9.98
5/28/2022 11:15:00 AM 14.15 57.47 0.035 7.26 1.33 9.97
5/28/2022 11:30:00 AM 14.15 57.47 0.035 7.27 1.41 9.95
5/28/2022 11:45:00 AM 14.23 57.614 0.035 7.28 1.56 9.99
5/28/2022 12:00:00 PM 14.32 57.776 0.035 7.3 1.24 10.04
5/28/2022 12:15:00 PM 14.41 57.938 0.035 7.32 1.36 10.06
5/28/2022 12:30:00 PM 14.48 58.064 0.035 7.33 1.35 10.02
5/28/2022 12:45:00 PM 14.45 58.01 0.035 7.32 1.33 9.96
5/28/2022 1:00:00 PM 14.5 58.1 0.035 7.32 1.34 9.99
5/28/2022 1:15:00 PM 14.49 58.082 0.035 7.3 1.39 9.96
5/28/2022 1:30:00 PM 14.51 58.118 0.035 7.29 1.33 9.93
5/28/2022 1:45:00 PM 14.56 58.208 0.035 7.3 1.47 9.95
5/28/2022 2:00:00 PM 14.66 58.388 0.035 7.32 1.28 9.99
5/28/2022 2:15:00 PM 14.83 58.694 0.034 7.34 1.36 9.98
5/28/2022 2:30:00 PM 14.87 58.766 0.034 7.34 1.34 9.98
5/28/2022 2:45:00 PM 14.9 58.82 0.034 7.35 1.42 9.96
5/28/2022 3:00:00 PM 14.96 58.928 0.034 7.34 1.52 9.95
5/28/2022 3:15:00 PM 15.08 59.144 0.034 7.36 1.28 9.95
5/28/2022 3:30:00 PM 15.1 59.18 0.034 7.36 1.17 9.91
5/28/2022 3:45:00 PM 15.13 59.234 0.034 7.35 1.36 9.9
5/28/2022 4:00:00 PM 15.14 59.252 0.034 7.37 1.25 9.9
5/28/2022 4:15:00 PM 15.14 59.252 0.034 7.36 1.27 9.9
5/28/2022 4:30:00 PM 15.18 59.324 0.034 7.36 1.19 9.89
5/28/2022 4:45:00 PM 15.18 59.324 0.034 7.35 1.31 9.87
5/28/2022 5:00:00 PM 15.18 59.324 0.035 7.35 1.27 9.83
5/28/2022 5:15:00 PM 15.17 59.306 0.035 7.34 1.25 9.8
5/28/2022 5:30:00 PM 15.17 59.306 0.035 7.33 1.26 9.78
5/28/2022 5:45:00 PM 15.16 59.288 0.035 7.32 1.34 9.78
5/28/2022 6:00:00 PM 15.16 59.288 0.035 7.33 1.28 9.78
5/28/2022 6:15:00 PM 15.15 59.27 0.035 7.31 1.25 9.77
5/28/2022 6:30:00 PM 15.13 59.234 0.035 7.32 1.3 9.75
5/28/2022 6:45:00 PM 15.1 59.18 0.035 7.32 1.29 9.74
5/28/2022 7:00:00 PM 15.06 59.108 0.035 7.29 1.21 9.72
5/28/2022 7:15:00 PM 15.02 59.036 0.035 7.27 1.24 9.7
5/28/2022 7:30:00 PM 14.97 58.946 0.035 7.25 4.39 9.68
5/28/2022 7:45:00 PM 14.92 58.856 0.035 7.25 1.21 9.66
5/28/2022 8:00:00 PM 14.86 58.748 0.035 7.23 1.32 9.63
5/28/2022 8:15:00 PM 14.8 58.64 0.035 7.23 1.27 9.62
5/28/2022 8:30:00 PM 14.74 58.532 0.035 7.22 1.33 9.61
5/28/2022 8:45:00 PM 14.7 58.46 0.035 7.2 1.31 9.59
5/28/2022 9:00:00 PM 14.65 58.37 0.035 7.2 1.27 9.59
5/28/2022 9:15:00 PM 14.61 58.298 0.035 7.19 1.31 9.59
5/28/2022 9:30:00 PM 14.57 58.226 0.035 7.19 1.32 9.6
5/28/2022 9:45:00 PM 14.52 58.136 0.035 7.19 1.3 9.61
5/28/2022 10:00:00 PM 14.48 58.064 0.035 7.19 1.51 9.61
5/28/2022 10:15:00 PM 14.44 57.992 0.036 7.18 1.37 9.63
5/28/2022 10:30:00 PM 14.39 57.902 0.035 7.19 1.3 9.64
5/28/2022 10:45:00 PM 14.35 57.83 0.036 7.19 1.28 9.65
5/28/2022 11:00:00 PM 14.31 57.758 0.035 7.17 1.29 9.66
5/28/2022 11:15:00 PM 14.28 57.704 0.035 7.17 1.31 9.67
5/28/2022 11:30:00 PM 14.24 57.632 0.036 7.18 1.26 9.68
5/28/2022 11:45:00 PM 14.2 57.56 0.036 7.2 1.34 9.69
5/29/2022 12:00:00 AM 14.16 57.488 0.036 7.18 1.45 9.7
5/29/2022 12:15:00 AM 14.11 57.398 0.036 7.17 1.47 9.71
5/29/2022 12:30:00 AM 14.08 57.344 0.036 7.18 1.34 9.71
5/29/2022 12:45:00 AM 14.03 57.254 0.036 7.18 1.32 9.72
5/29/2022 1:00:00 AM 14 57.2 0.036 7.17 1.36 9.74
5/29/2022 1:15:00 AM 13.97 57.146 0.036 7.18 1.51 9.75
5/29/2022 1:30:00 AM 13.93 57.074 0.036 7.17 1.36 9.76
5/29/2022 1:45:00 AM 13.91 57.038 0.036 7.17 1.35 9.76
5/29/2022 2:00:00 AM 13.88 56.984 0.036 7.19 1.34 9.77
5/29/2022 2:15:00 AM 13.84 56.912 0.036 7.23 1.31 9.78
5/29/2022 2:30:00 AM 13.81 56.858 0.036 7.22 1.36 9.79
5/29/2022 2:45:00 AM 13.78 56.804 0.036 7.22 1.41 9.79
5/29/2022 3:00:00 AM 13.74 56.732 0.036 7.21 1.4 9.8
5/29/2022 3:15:00 AM 13.71 56.678 0.036 7.21 1.34 9.82
5/29/2022 3:30:00 AM 13.67 56.606 0.036 7.2 1.62 9.82
5/29/2022 3:45:00 AM 13.63 56.534 0.036 7.2 1.46 9.83
5/29/2022 4:00:00 AM 13.6 56.48 0.036 7.2 1.77 9.84
5/29/2022 4:15:00 AM 13.56 56.408 0.036 7.21 1.44 9.84
5/29/2022 4:30:00 AM 13.53 56.354 0.035 7.19 1.42 9.86
5/29/2022 4:45:00 AM 13.5 56.3 0.035 7.2 1.28 9.87
5/29/2022 5:00:00 AM 13.47 56.246 0.035 7.19 1.32 9.87
5/29/2022 5:15:00 AM 13.44 56.192 0.036 7.19 1.4 9.88
5/29/2022 5:30:00 AM 13.41 56.138 0.036 7.2 1.36 9.89
5/29/2022 5:45:00 AM 13.38 56.084 0.036 7.2 1.35 9.91
5/29/2022 6:00:00 AM 13.35 56.03 0.035 7.21 1.35 9.92
5/29/2022 6:15:00 AM 13.33 55.994 0.036 7.2 1.46 9.92
5/29/2022 6:30:00 AM 13.31 55.958 0.035 7.2 1.52 9.96
5/29/2022 6:45:00 AM 13.3 55.94 0.035 7.22 1.31 10
5/29/2022 7:00:00 AM 13.28 55.904 0.035 7.21 1.26 10.03
5/29/2022 7:15:00 AM 13.28 55.904 0.035 7.22 1.31 10.04
5/29/2022 7:30:00 AM 13.27 55.886 0.035 7.23 1.33 10.08
5/29/2022 7:45:00 AM 13.26 55.868 0.035 7.23 1.54 10.08
5/29/2022 8:00:00 AM 13.28 55.904 0.035 7.25 1.32 10.14
5/29/2022 8:15:00 AM 13.3 55.94 0.035 7.26 1.3 10.17
5/29/2022 8:30:00 AM 13.32 55.976 0.035 7.26 1.39 10.21
5/29/2022 8:45:00 AM 13.35 56.03 0.035 7.28 1.37 10.23
5/29/2022 9:00:00 AM 13.39 56.102 0.035 7.29 1.44 10.25
5/29/2022 9:15:00 AM 13.42 56.156 0.035 7.28 1.37 10.27
5/29/2022 9:30:00 AM 13.46 56.228 0.035 7.31 1.26 10.27
5/29/2022 9:45:00 AM 13.55 56.39 0.035 7.32 1.3 10.29
5/29/2022 10:00:00 AM 13.6 56.48 0.035 7.32 1.44 10.27
5/29/2022 10:15:00 AM 13.7 56.66 0.035 7.35 1.27 10.28
5/29/2022 10:30:00 AM 13.77 56.786 0.035 7.32 1.42 10.27
5/29/2022 10:45:00 AM 13.86 56.948 0.035 7.34 1.32 10.24
5/29/2022 11:00:00 AM 14 57.2 0.035 7.33 1.46 10.2
5/29/2022 11:15:00 AM 14.15 57.47 0.035 7.34 1.27 10.17
5/29/2022 11:30:00 AM 14.31 57.758 0.035 7.36 1.25 10.14
5/29/2022 11:45:00 AM 14.5 58.1 0.035 7.35 1.58 10.09
5/29/2022 12:00:00 PM 14.71 58.478 0.035 7.38 1.22 10.11
5/29/2022 12:15:00 PM 14.94 58.892 0.035 7.38 1.2 10.07
5/29/2022 12:30:00 PM 15.19 59.342 0.035 7.39 1.21 10.04
5/29/2022 12:45:00 PM 15.37 59.666 0.035 7.41 1.19 10.01
5/29/2022 1:00:00 PM 15.53 59.954 0.035 7.41 1.38 9.98
5/29/2022 1:15:00 PM 15.78 60.404 0.035 7.42 1.22 9.94
5/29/2022 1:30:00 PM 15.98 60.764 0.035 7.43 1.21 9.92
5/29/2022 1:45:00 PM 16.28 61.304 0.035 7.43 1.18 9.89
5/29/2022 2:00:00 PM 16.59 61.862 0.035 7.43 1.54 9.84
5/29/2022 2:15:00 PM 16.77 62.186 0.035 7.44 1.2 9.79
5/29/2022 2:30:00 PM 16.83 62.294 0.035 7.45 1.2 9.75
5/29/2022 2:45:00 PM 16.93 62.474 0.035 7.44 1.24 9.73
5/29/2022 3:00:00 PM 17.02 62.636 0.035 7.45 1.2 9.7
5/29/2022 3:15:00 PM 17.11 62.798 0.035 7.42 1.27 9.68
5/29/2022 3:30:00 PM 17.09 62.762 0.035 7.44 1.15 9.65
5/29/2022 3:45:00 PM 17.01 62.618 0.035 7.43 1.13 9.63
5/29/2022 4:00:00 PM 16.91 62.438 0.035 7.37 1.21 9.61
5/29/2022 4:15:00 PM 16.84 62.312 0.035 7.4 1.24 9.61
5/29/2022 4:30:00 PM 16.85 62.33 0.035 7.4 1.19 9.6
5/29/2022 4:45:00 PM 16.86 62.348 0.035 7.38 1.17 9.59
5/29/2022 5:00:00 PM 16.87 62.366 0.035 7.38 1.28 9.56
5/29/2022 5:15:00 PM 16.81 62.258 0.035 7.36 1.24 9.53
5/29/2022 5:30:00 PM 16.76 62.168 0.035 7.36 1.13 9.5
5/29/2022 5:45:00 PM 16.71 62.078 0.035 7.35 1.22 9.49
5/29/2022 6:00:00 PM 16.66 61.988 0.035 7.36 1.16 9.47
5/29/2022 6:15:00 PM 16.6 61.88 0.035 7.31 1.18 9.45
5/29/2022 6:30:00 PM 16.53 61.754 0.035 7.34 1.16 9.44
5/29/2022 6:45:00 PM 16.46 61.628 0.035 7.34 1.26 9.43
5/29/2022 7:00:00 PM 16.39 61.502 0.035 7.29 1.14 9.44
5/29/2022 7:15:00 PM 16.33 61.394 0.036 7.32 1.14 9.44
5/29/2022 7:30:00 PM 16.25 61.25 0.036 7.29 1.19 9.41
5/29/2022 7:45:00 PM 16.18 61.124 0.036 7.29 1.25 9.38
5/29/2022 8:00:00 PM 16.1 60.98 0.036 7.25 1.2 9.36
5/29/2022 8:15:00 PM 16.02 60.836 0.036 7.25 1.24 9.36
5/29/2022 8:30:00 PM 15.93 60.674 0.036 7.22 1.18 9.35
5/29/2022 8:45:00 PM 15.85 60.53 0.036 7.2 1.22 9.34
5/29/2022 9:00:00 PM 15.77 60.386 0.036 7.2 1.25 9.34
5/29/2022 9:15:00 PM 15.69 60.242 0.036 7.17 1.25 9.35
5/29/2022 9:30:00 PM 15.6 60.08 0.036 7.18 1.19 9.37
5/29/2022 9:45:00 PM 15.53 59.954 0.036 7.17 1.34 9.38
5/29/2022 10:00:00 PM 15.45 59.81 0.036 7.17 1.24 9.4
5/29/2022 10:15:00 PM 15.37 59.666 0.036 7.19 1.3 9.41
5/29/2022 10:30:00 PM 15.29 59.522 0.036 7.21 1.26 9.43
5/29/2022 10:45:00 PM 15.22 59.396 0.036 7.18 1.46 9.44
5/29/2022 11:00:00 PM 15.15 59.27 0.036 7.2 1.3 9.46
5/29/2022 11:15:00 PM 15.09 59.162 0.036 7.21 1.33 9.49
5/29/2022 11:30:00 PM 15.02 59.036 0.036 7.21 1.26 9.5
5/29/2022 11:45:00 PM 14.96 58.928 0.036 7.2 1.62 9.51
5/30/2022 12:00:00 AM 14.89 58.802 0.036 7.19 1.42 9.52
5/30/2022 12:15:00 AM 14.83 58.694 0.036 7.21 1.35 9.54
5/30/2022 12:30:00 AM 14.76 58.568 0.036 7.22 1.34 9.56
5/30/2022 12:45:00 AM 14.7 58.46 0.036 7.21 1.27 9.57
5/30/2022 1:00:00 AM 14.65 58.37 0.036 7.22 1.32 9.59
5/30/2022 1:15:00 AM 14.59 58.262 0.036 7.22 1.24 9.59
5/30/2022 1:30:00 AM 14.53 58.154 0.036 7.2 1.32 9.61
5/30/2022 1:45:00 AM 14.47 58.046 0.036 7.22 1.21 9.62
5/30/2022 2:00:00 AM 14.42 57.956 0.036 7.2 1.44 9.63
5/30/2022 2:15:00 AM 14.36 57.848 0.036 7.19 1.28 9.64
5/30/2022 2:30:00 AM 14.31 57.758 0.036 7.22 1.28 9.66
5/30/2022 2:45:00 AM 14.25 57.65 0.036 7.21 1.27 9.68
5/30/2022 3:00:00 AM 14.2 57.56 0.036 7.23 1.28 9.69
5/30/2022 3:15:00 AM 14.15 57.47 0.036 7.21 1.23 9.7
5/30/2022 3:30:00 AM 14.11 57.398 0.036 7.21 1.21 9.71
5/30/2022 3:45:00 AM 14.06 57.308 0.036 7.22 1.28 9.72
5/30/2022 4:00:00 AM 14.01 57.218 0.036 7.19 1.27 9.73
5/30/2022 4:15:00 AM 13.96 57.128 0.036 7.18 1.43 9.75
5/30/2022 4:30:00 AM 13.9 57.02 0.036 7.21 1.43 9.76
5/30/2022 4:45:00 AM 13.85 56.93 0.036 7.19 1.38 9.77
5/30/2022 5:00:00 AM 13.8 56.84 0.036 7.21 1.22 9.78
5/30/2022 5:15:00 AM 13.75 56.75 0.036 7.2 1.26 9.8
5/30/2022 5:30:00 AM 13.71 56.678 0.036 7.2 1.28 9.81
5/30/2022 5:45:00 AM 13.67 56.606 0.036 7.22 1.31 9.83
5/30/2022 6:00:00 AM 13.64 56.552 0.036 7.21 1.29 9.84
5/30/2022 6:15:00 AM 13.61 56.498 0.036 7.2 1.34 9.86
5/30/2022 6:30:00 AM 13.58 56.444 0.036 7.22 1.42 9.89
5/30/2022 6:45:00 AM 13.57 56.426 0.036 7.22 1.65 9.9
5/30/2022 7:00:00 AM 13.56 56.408 0.036 7.22 1.3 9.95
5/30/2022 7:15:00 AM 13.56 56.408 0.036 7.22 1.25 9.99
5/30/2022 7:30:00 AM 13.56 56.408 0.036 7.22 1.78 10.03
5/30/2022 7:45:00 AM 13.57 56.426 0.036 7.22 1.52 10.06
5/30/2022 8:00:00 AM 13.6 56.48 0.036 7.25 1.19 10.1
5/30/2022 8:15:00 AM 13.64 56.552 0.036 7.25 1.38 10.12
5/30/2022 8:30:00 AM 13.66 56.588 0.036 7.28 1.67 10.12
5/30/2022 8:45:00 AM 13.69 56.642 0.036 7.27 1.24 10.14
5/30/2022 9:00:00 AM 13.73 56.714 0.036 7.29 1.42 10.16
5/30/2022 9:15:00 AM 13.78 56.804 0.036 7.29 1.23 10.18
5/30/2022 9:30:00 AM 13.82 56.876 0.036 7.29 1.31 10.17
5/30/2022 9:45:00 AM 13.89 57.002 0.036 7.28 1.42 10.15
5/30/2022 10:00:00 AM 14 57.2 0.036 7.31 1.87 10.14
5/30/2022 10:15:00 AM 14.14 57.452 0.036 7.29 1.28 10.11
5/30/2022 10:30:00 AM 14.27 57.686 0.036 7.34 1.3 10.11
5/30/2022 10:45:00 AM 14.41 57.938 0.036 7.33 1.2 10.09
5/30/2022 11:00:00 AM 14.56 58.208 0.036 7.31 1.17 10.05
5/30/2022 11:15:00 AM 14.71 58.478 0.036 7.36 1.24 10.05
5/30/2022 11:30:00 AM 14.89 58.802 0.036 7.31 1.24 10.03
5/30/2022 11:45:00 AM 15.08 59.144 0.036 7.33 1.18 10
5/30/2022 12:00:00 PM 15.27 59.486 0.035 7.38 1.25 9.98
5/30/2022 12:15:00 PM 15.5 59.9 0.035 7.38 1.16 9.96
5/30/2022 12:30:00 PM 15.75 60.35 0.036 7.35 1.17 9.9
5/30/2022 12:45:00 PM 16.02 60.836 0.035 7.36 1.36 9.88
5/30/2022 1:00:00 PM 16.26 61.268 0.035 7.39 1.33 9.84
5/30/2022 1:15:00 PM 16.52 61.736 0.035 7.4 1.11 9.81
5/30/2022 1:30:00 PM 16.76 62.168 0.035 7.4 1.15 9.77
5/30/2022 1:45:00 PM 17.05 62.69 0.036 7.4 1.16 9.72
5/30/2022 2:00:00 PM 17.29 63.122 0.036 7.42 1.23 9.66
5/30/2022 2:15:00 PM 17.53 63.554 0.036 7.41 1.24 9.62
5/30/2022 2:30:00 PM 17.77 63.986 0.036 7.4 1.13 9.59
5/30/2022 2:45:00 PM 17.95 64.31 0.036 7.42 1.16 9.55
5/30/2022 3:00:00 PM 18.1 64.58 0.036 7.42 1.15 9.52
5/30/2022 3:15:00 PM 18.17 64.706 0.036 7.42 1.11 9.48
5/30/2022 3:30:00 PM 18.17 64.706 0.036 7.43 1.13 9.43
5/30/2022 3:45:00 PM 18.13 64.634 0.037 7.39 1.07 9.39
5/30/2022 4:00:00 PM 18.1 64.58 0.036 7.38 1.26 9.38
5/30/2022 4:15:00 PM 18.09 64.562 0.036 7.38 1.25 9.35
5/30/2022 4:30:00 PM 18.05 64.49 0.036 7.36 1.14 9.33
5/30/2022 4:45:00 PM 18.02 64.436 0.036 7.38 1.12 9.31
5/30/2022 5:00:00 PM 17.97 64.346 0.037 7.4 1.08 9.31
5/30/2022 5:15:00 PM 17.91 64.238 0.036 7.39 1.1 9.27
5/30/2022 5:30:00 PM 17.85 64.13 0.036 7.37 1.08 9.24
5/30/2022 5:45:00 PM 17.81 64.058 0.037 7.35 1.28 9.22
5/30/2022 6:00:00 PM 17.78 64.004 0.036 7.34 1.15 9.19
5/30/2022 6:15:00 PM 17.73 63.914 0.036 7.31 1.13 9.16
5/30/2022 6:30:00 PM 17.7 63.86 0.037 7.31 1.09 9.17
5/30/2022 6:45:00 PM 17.65 63.77 0.037 7.3 1.13 9.15
5/30/2022 7:00:00 PM 17.59 63.662 0.037 7.26 1.23 9.14
5/30/2022 7:15:00 PM 17.52 63.536 0.037 7.28 1.2 9.13
5/30/2022 7:30:00 PM 17.44 63.392 0.037 7.27 1.12 9.11
5/30/2022 7:45:00 PM 17.36 63.248 0.037 7.26 1.16 9.09
5/30/2022 8:00:00 PM 17.28 63.104 0.037 7.24 1.18 9.08
5/30/2022 8:15:00 PM 17.19 62.942 0.037 7.22 1.17 9.08
5/30/2022 8:30:00 PM 17.1 62.78 0.037 7.23 1.18 9.08
5/30/2022 8:45:00 PM 17.02 62.636 0.037 7.2 1.19 9.07
5/30/2022 9:00:00 PM 16.94 62.492 0.037 7.19 1.13 9.07
5/30/2022 9:15:00 PM 16.85 62.33 0.037 7.17 1.32 9.07
5/30/2022 9:30:00 PM 16.77 62.186 0.037 7.15 1.15 9.08
5/30/2022 9:45:00 PM 16.69 62.042 0.037 7.14 1.15 9.1
5/30/2022 10:00:00 PM 16.61 61.898 0.037 7.13 1.21 9.12
5/30/2022 10:15:00 PM 16.54 61.772 0.037 7.14 1.3 9.13
5/30/2022 10:30:00 PM 16.45 61.61 0.037 7.15 1.27 9.15
5/30/2022 10:45:00 PM 16.38 61.484 0.037 7.15 1.19 9.16
5/30/2022 11:00:00 PM 16.31 61.358 0.037 7.15 1.18 9.19
5/30/2022 11:15:00 PM 16.24 61.232 0.037 7.15 1.2 9.19
5/30/2022 11:30:00 PM 16.17 61.106 0.037 7.17 1.34 9.2
5/30/2022 11:45:00 PM 16.11 60.998 0.037 7.15 1.26 9.22
5/31/2022 12:00:00 AM 16.04 60.872 0.037 7.15 1.19 9.23
5/31/2022 12:15:00 AM 15.98 60.764 0.037 7.13 1.33 9.25
5/31/2022 12:30:00 AM 15.92 60.656 0.037 7.15 1.16 9.26
5/31/2022 12:45:00 AM 15.86 60.548 0.037 7.16 1.25 9.27
5/31/2022 1:00:00 AM 15.8 60.44 0.037 7.15 1.42 9.29
5/31/2022 1:15:00 AM 15.74 60.332 0.037 7.15 1.29 9.3
5/31/2022 1:30:00 AM 15.68 60.224 0.037 7.17 1.21 9.32
5/31/2022 1:45:00 AM 15.62 60.116 0.037 7.16 1.42 9.32
5/31/2022 2:00:00 AM 15.57 60.026 0.037 7.14 1.28 9.34
5/31/2022 2:15:00 AM 15.51 59.918 0.037 7.15 1.47 9.35
5/31/2022 2:30:00 AM 15.46 59.828 0.037 7.17 1.44 9.37
5/31/2022 2:45:00 AM 15.4 59.72 0.037 7.18 1.32 9.37
5/31/2022 3:00:00 AM 15.35 59.63 0.037 7.17 1.54 9.37
5/31/2022 3:15:00 AM 15.3 59.54 0.037 7.17 1.32 9.39
5/31/2022 3:30:00 AM 15.25 59.45 0.037 7.18 1.3 9.41
5/31/2022 3:45:00 AM 15.2 59.36 0.037 7.18 1.22 9.43
5/31/2022 4:00:00 AM 15.16 59.288 0.037 7.16 1.24 9.44
5/31/2022 4:15:00 AM 15.11 59.198 0.037 7.16 1.27 9.45
5/31/2022 4:30:00 AM 15.04 59.072 0.037 7.16 1.3 9.47
5/31/2022 4:45:00 AM 15 59 0.037 7.17 1.37 9.47
5/31/2022 5:00:00 AM 14.96 58.928 0.037 7.14 1.26 9.48
5/31/2022 5:15:00 AM 14.93 58.874 0.037 7.17 1.26 9.5
5/31/2022 5:30:00 AM 14.89 58.802 0.037 7.16 1.3 9.5
5/31/2022 5:45:00 AM 14.84 58.712 0.037 7.16 1.34 9.53
5/31/2022 6:00:00 AM 14.8 58.64 0.037 7.15 1.23 9.53
5/31/2022 6:15:00 AM 14.77 58.586 0.037 7.16 1.99 9.56
5/31/2022 6:30:00 AM 14.73 58.514 0.037 7.18 1.28 9.59
5/31/2022 6:45:00 AM 14.7 58.46 0.037 7.18 1.32 9.62
5/31/2022 7:00:00 AM 14.69 58.442 0.037 7.21 1.25 9.66
5/31/2022 7:15:00 AM 14.68 58.424 0.037 7.18 1.24 9.7
5/31/2022 7:30:00 AM 14.68 58.424 0.037 7.22 1.25 9.74
5/31/2022 7:45:00 AM 14.69 58.442 0.037 7.19 1.4 9.78
5/31/2022 8:00:00 AM 14.7 58.46 0.037 7.21 1.3 9.79
5/31/2022 8:15:00 AM 14.71 58.478 0.037 7.24 1.29 9.79
5/31/2022 8:30:00 AM 14.74 58.532 0.037 7.23 1.22 9.77
5/31/2022 8:45:00 AM 14.77 58.586 0.037 7.24 1.31 9.78
5/31/2022 9:00:00 AM 14.81 58.658 0.037 7.21 1.22 9.79
5/31/2022 9:15:00 AM 14.86 58.748 0.037 7.22 1.2 9.79
5/31/2022 9:30:00 AM 14.93 58.874 0.037 7.26 1.23 9.79
5/31/2022 9:45:00 AM 15.02 59.036 0.037 7.28 1.23 9.79
5/31/2022 10:00:00 AM 15.16 59.288 0.037 7.29 1.19 9.81
5/31/2022 10:15:00 AM 15.28 59.504 0.037 7.31 1.27 9.81
5/31/2022 10:30:00 AM 15.4 59.72 0.037 7.29 1.21 9.8
5/31/2022 10:45:00 AM 15.53 59.954 0.036 7.31 1.21 9.79
5/31/2022 11:00:00 AM 15.69 60.242 0.036 7.33 1.16 9.8
5/31/2022 11:15:00 AM 15.8 60.44 0.036 7.32 1.26 9.78
5/31/2022 11:30:00 AM 15.89 60.602 0.036 7.33 1.23 9.78
5/31/2022 11:45:00 AM 15.96 60.728 0.036 7.34 1.18 9.74
5/31/2022 12:00:00 PM 16.12 61.016 0.036 7.35 1.17 9.74
5/31/2022 12:15:00 PM 16.18 61.124 0.036 7.35 1.21 9.7
5/31/2022 12:30:00 PM 16.43 61.574 0.036 7.35 1.22 9.73
5/31/2022 12:45:00 PM 16.63 61.934 0.036 7.35 1.16 9.68
5/31/2022 1:00:00 PM 16.81 62.258 0.036 7.36 1.17 9.66
5/31/2022 1:15:00 PM 17.04 62.672 0.036 7.38 1.31 9.64
5/31/2022 1:30:00 PM 17.35 63.23 0.036 7.38 1.19 9.62
5/31/2022 1:45:00 PM 17.71 63.878 0.037 7.38 1.16 9.57
5/31/2022 2:00:00 PM 17.98 64.364 0.037 7.38 1.25 9.51
5/31/2022 2:15:00 PM 17.98 64.364 0.037 7.38 1.21 9.44
5/31/2022 2:30:00 PM 17.88 64.184 0.037 7.38 1.25 9.38
5/31/2022 2:45:00 PM 18 64.4 0.037 7.38 1.12 9.41
5/31/2022 3:00:00 PM 18.15 64.67 0.037 7.39 1.09 9.41
5/31/2022 3:15:00 PM 18.31 64.958 0.037 7.39 1.19 9.41
5/31/2022 3:30:00 PM 18.41 65.138 0.037 7.41 1.18 9.37
5/31/2022 3:45:00 PM 18.48 65.264 0.038 7.38 1.32 9.32
5/31/2022 4:00:00 PM 18.42 65.156 0.037 7.39 1.11 9.28
5/31/2022 4:15:00 PM 18.38 65.084 0.037 7.37 1.34 9.27
5/31/2022 4:30:00 PM 18.37 65.066 0.037 7.32 1.17 9.26
5/31/2022 4:45:00 PM 18.35 65.03 0.037 7.35 1.14 9.26
5/31/2022 5:00:00 PM 18.34 65.012 0.037 7.34 1.09 9.25
5/31/2022 5:15:00 PM 18.3 64.94 0.037 7.34 1.14 9.21
5/31/2022 5:30:00 PM 18.27 64.886 0.037 7.35 1.48 9.19
5/31/2022 5:45:00 PM 18.22 64.796 0.037 7.33 1.11 9.16
5/31/2022 6:00:00 PM 18.19 64.742 0.037 7.3 1.09 9.12
5/31/2022 6:15:00 PM 18.12 64.616 0.037 7.28 1.17 9.11
5/31/2022 6:30:00 PM 18.06 64.508 0.037 7.29 1.14 9.08
5/31/2022 6:45:00 PM 18 64.4 0.037 7.24 1.31 9.05
5/31/2022 7:00:00 PM 17.95 64.31 0.038 7.27 1.19 9.04
5/31/2022 7:15:00 PM 17.88 64.184 0.038 7.23 1.21 9.03
5/31/2022 7:30:00 PM 17.81 64.058 0.038 7.21 1.16 9.03
5/31/2022 7:45:00 PM 17.75 63.95 0.038 7.22 1.08 9.01
5/31/2022 8:00:00 PM 17.68 63.824 0.038 7.2 1.15 8.99
5/31/2022 8:15:00 PM 17.6 63.68 0.038 7.19 1.2 8.96
5/31/2022 8:30:00 PM 17.52 63.536 0.038 7.19 1.21 8.96
5/31/2022 8:45:00 PM 17.45 63.41 0.038 7.18 1.19 8.95
5/31/2022 9:00:00 PM 17.38 63.284 0.038 7.16 1.26 8.94
5/31/2022 9:15:00 PM 17.3 63.14 0.038 7.13 1.2 8.94
5/31/2022 9:30:00 PM 17.24 63.032 0.038 7.11 1.33 8.95
5/31/2022 9:45:00 PM 17.16 62.888 0.038 7.13 1.25 8.95
5/31/2022 10:00:00 PM 17.1 62.78 0.038 7.11 1.16 8.96
5/31/2022 10:15:00 PM 17.03 62.654 0.038 7.13 1.31 8.98
5/31/2022 10:30:00 PM 16.96 62.528 0.038 7.1 1.2 8.99
5/31/2022 10:45:00 PM 16.89 62.402 0.038 7.11 1.22 9.02
5/31/2022 11:00:00 PM 16.83 62.294 0.038 7.13 1.22 9.02
5/31/2022 11:15:00 PM 16.76 62.168 0.038 7.16 1.3 9.04
5/31/2022 11:30:00 PM 16.7 62.06 0.038 7.14 1.2 9.04
5/31/2022 11:45:00 PM 16.63 61.934 0.038 7.15 1.47 9.06
6/1/2022 12:00:00 AM 16.57 61.826 0.038 7.15 1.19 9.09
6/1/2022 12:15:00 AM 16.51 61.718 0.038 7.14 1.34 9.1
6/1/2022 12:30:00 AM 16.46 61.628 0.038 7.14 1.17 9.11
6/1/2022 12:45:00 AM 16.4 61.52 0.038 7.16 1.16 9.13
6/1/2022 1:00:00 AM 16.35 61.43 0.038 7.14 1.27 9.13
6/1/2022 1:15:00 AM 16.3 61.34 0.038 7.14 1.25 9.13
6/1/2022 1:30:00 AM 16.24 61.232 0.038 7.15 1.33 9.15
6/1/2022 1:45:00 AM 16.2 61.16 0.038 7.15 1.36 9.17
6/1/2022 2:00:00 AM 16.14 61.052 0.038 7.13 1.23 9.17
6/1/2022 2:15:00 AM 16.09 60.962 0.038 7.13 1.58 9.18
6/1/2022 2:30:00 AM 16.05 60.89 0.038 7.11 1.22 9.19
6/1/2022 2:45:00 AM 16 60.8 0.038 7.12 1.31 9.2
6/1/2022 3:00:00 AM 15.95 60.71 0.038 7.12 1.26 9.2
6/1/2022 3:15:00 AM 15.9 60.62 0.038 7.14 1.27 9.22
6/1/2022 3:30:00 AM 15.86 60.548 0.038 7.15 1.23 9.23
6/1/2022 3:45:00 AM 15.81 60.458 0.038 7.15 1.24 9.23
6/1/2022 4:00:00 AM 15.77 60.386 0.038 7.15 1.33 9.26
6/1/2022 4:15:00 AM 15.72 60.296 0.038 7.13 1.37 9.24
6/1/2022 4:30:00 AM 15.68 60.224 0.038 7.14 1.27 9.25
6/1/2022 4:45:00 AM 15.64 60.152 0.038 7.13 1.28 9.28
6/1/2022 5:00:00 AM 15.59 60.062 0.038 7.12 1.32 9.28
6/1/2022 5:15:00 AM 15.55 59.99 0.038 7.14 1.26 9.29
6/1/2022 5:30:00 AM 15.51 59.918 0.038 7.15 1.37 9.3
6/1/2022 5:45:00 AM 15.48 59.864 0.038 7.15 1.3 9.31
6/1/2022 6:00:00 AM 15.44 59.792 0.038 7.17 1.28 9.34
6/1/2022 6:15:00 AM 15.4 59.72 0.038 7.14 1.2 9.35
6/1/2022 6:30:00 AM 15.37 59.666 0.038 7.16 1.24 9.38
6/1/2022 6:45:00 AM 15.33 59.594 0.038 7.16 1.24 9.4
6/1/2022 7:00:00 AM 15.31 59.558 0.038 7.17 1.36 9.45
6/1/2022 7:15:00 AM 15.29 59.522 0.038 7.17 1.23 9.46
6/1/2022 7:30:00 AM 15.29 59.522 0.038 7.18 1.18 9.49
6/1/2022 7:45:00 AM 15.29 59.522 0.037 7.18 1.26 9.52
6/1/2022 8:00:00 AM 15.3 59.54 0.037 7.2 1.21 9.53
6/1/2022 8:15:00 AM 15.32 59.576 0.037 7.21 1.19 9.56
6/1/2022 8:30:00 AM 15.35 59.63 0.037 7.21 1.21 9.58
6/1/2022 8:45:00 AM 15.39 59.702 0.037 7.22 1.25 9.58
6/1/2022 9:00:00 AM 15.43 59.774 0.037 7.21 1.22 9.59
6/1/2022 9:15:00 AM 15.49 59.882 0.037 7.23 1.17 9.6
6/1/2022 9:30:00 AM 15.56 60.008 0.037 7.23 1.24 9.61
6/1/2022 9:45:00 AM 15.66 60.188 0.037 7.23 1.29 9.63
6/1/2022 10:00:00 AM 15.79 60.422 0.037 7.24 1.26 9.65
6/1/2022 10:15:00 AM 15.91 60.638 0.037 7.24 1.22 9.65
6/1/2022 10:30:00 AM 16.05 60.89 0.037 7.27 1.4 9.65
6/1/2022 10:45:00 AM 16.21 61.178 0.037 7.27 1.58 9.66
6/1/2022 11:00:00 AM 16.38 61.484 0.037 7.32 1.2 9.65
6/1/2022 11:15:00 AM 16.5 61.7 0.037 7.31 1.19 9.62
6/1/2022 11:30:00 AM 16.64 61.952 0.037 7.3 1.15 9.6
6/1/2022 11:45:00 AM 16.79 62.222 0.037 7.31 1.27 9.58
6/1/2022 12:00:00 PM 16.81 62.258 0.037 7.32 1.21 9.53
6/1/2022 12:15:00 PM 16.99 62.582 0.037 7.3 1.27 9.53
6/1/2022 12:30:00 PM 17.17 62.906 0.037 7.34 1.23 9.53
6/1/2022 12:45:00 PM 17.17 62.906 0.037 7.34 1.23 9.51
6/1/2022 1:00:00 PM 17.28 63.104 0.037 7.32 1.15 9.47
6/1/2022 1:15:00 PM 17.31 63.158 0.037 7.33 1.31 9.45
6/1/2022 1:30:00 PM 17.52 63.536 0.037 7.33 1.17 9.47
6/1/2022 1:45:00 PM 17.67 63.806 0.037 7.34 1.08 9.45
6/1/2022 2:00:00 PM 17.81 64.058 0.037 7.36 1.17 9.44
6/1/2022 2:15:00 PM 17.89 64.202 0.037 7.35 1.31 9.36
6/1/2022 2:30:00 PM 17.97 64.346 0.037 7.35 1.21 9.36
6/1/2022 2:45:00 PM 18.13 64.634 0.038 7.35 1.25 9.36
6/1/2022 3:00:00 PM 18.25 64.85 0.038 7.37 1.23 9.34
6/1/2022 3:15:00 PM 18.29 64.922 0.038 7.37 1.31 9.31
6/1/2022 3:30:00 PM 18.33 64.994 0.038 7.35 1.16 9.31
6/1/2022 3:45:00 PM 18.4 65.12 0.038 7.35 1.32 9.29
6/1/2022 4:00:00 PM 18.38 65.084 0.038 7.36 1.23 9.23
6/1/2022 4:15:00 PM 18.35 65.03 0.038 7.36 1.21 9.2
6/1/2022 4:30:00 PM 18.33 64.994 0.038 7.35 1.17 9.18
6/1/2022 4:45:00 PM 18.22 64.796 0.038 7.34 1.46 9.09
6/1/2022 5:00:00 PM 18.17 64.706 0.038 7.3 1.35 9.06
6/1/2022 5:15:00 PM 18.18 64.724 0.038 7.3 1.3 9.12
6/1/2022 5:30:00 PM 18.17 64.706 0.038 7.3 1.41 9.14
6/1/2022 5:45:00 PM 18.14 64.652 0.038 7.31 1.2 9.14
6/1/2022 6:00:00 PM 18.12 64.616 0.038 7.29 1.19 9.11
6/1/2022 6:15:00 PM 18.06 64.508 0.038 7.27 1.24 9.08
6/1/2022 6:30:00 PM 17.99 64.382 0.038 7.28 1.26 9.05
6/1/2022 6:45:00 PM 17.92 64.256 0.038 7.26 1.2 9.01
6/1/2022 7:00:00 PM 17.86 64.148 0.038 7.25 1.18 9.01
6/1/2022 7:15:00 PM 17.8 64.04 0.038 7.22 1.21 8.98
6/1/2022 7:30:00 PM 17.76 63.968 0.038 7.24 1.47 8.96
6/1/2022 7:45:00 PM 17.71 63.878 0.038 7.2 1.66 8.92
6/1/2022 8:00:00 PM 17.63 63.734 0.038 7.2 1.76 8.89
6/1/2022 8:15:00 PM 17.58 63.644 0.039 7.2 1.32 8.86
6/1/2022 8:30:00 PM 17.51 63.518 0.038 7.18 1.33 8.84
6/1/2022 8:45:00 PM 17.44 63.392 0.039 7.17 1.29 8.83
6/1/2022 9:00:00 PM 17.38 63.284 0.039 7.16 1.31 8.82
6/1/2022 9:15:00 PM 17.32 63.176 0.039 7.15 1.39 8.84
6/1/2022 9:30:00 PM 17.28 63.104 0.039 7.16 1.41 8.84
6/1/2022 9:45:00 PM 17.23 63.014 0.039 7.15 1.48 8.85
6/1/2022 10:00:00 PM 17.18 62.924 0.039 7.14 1.54 8.86
6/1/2022 10:15:00 PM 17.13 62.834 0.039 7.14 1.48 8.87
6/1/2022 10:30:00 PM 17.09 62.762 0.039 7.12 1.57 8.87
6/1/2022 10:45:00 PM 17.04 62.672 0.04 7.13 1.52 8.88
6/1/2022 11:00:00 PM 16.99 62.582 0.039 7.13 1.75 8.91
6/1/2022 11:15:00 PM 16.95 62.51 0.039 7.13 1.69 8.91
6/1/2022 11:30:00 PM 16.9 62.42 0.039 7.14 1.63 8.92
6/1/2022 11:45:00 PM 16.85 62.33 0.039 7.15 1.58 8.93
6/2/2022 12:00:00 AM 16.8 62.24 0.039 7.13 1.55 8.95
6/2/2022 12:15:00 AM 16.75 62.15 0.039 7.11 1.58 8.94
6/2/2022 12:30:00 AM 16.71 62.078 0.039 7.12 1.49 8.97
6/2/2022 12:45:00 AM 16.66 61.988 0.038 7.11 1.46 8.98
6/2/2022 1:00:00 AM 16.62 61.916 0.038 7.14 1.52 8.99
6/2/2022 1:15:00 AM 16.58 61.844 0.038 7.12 1.45 9.01
6/2/2022 1:30:00 AM 16.54 61.772 0.039 7.11 1.46 9.01
6/2/2022 1:45:00 AM 16.51 61.718 0.039 7.12 1.47 9.02
6/2/2022 2:00:00 AM 16.47 61.646 0.039 7.12 1.4 9.03
6/2/2022 2:15:00 AM 16.43 61.574 0.039 7.12 1.38 9.04
6/2/2022 2:30:00 AM 16.4 61.52 0.039 7.12 3.02 9.05
6/2/2022 2:45:00 AM 16.37 61.466 0.039 7.12 1.45 9.05
6/2/2022 3:00:00 AM 16.33 61.394 0.039 7.1 1.41 9.04
6/2/2022 3:15:00 AM 16.3 61.34 0.039 7.12 1.33 9.08
6/2/2022 3:30:00 AM 16.27 61.286 0.039 7.13 1.43 9.07
6/2/2022 3:45:00 AM 16.25 61.25 0.039 7.14 1.42 9.08
6/2/2022 4:00:00 AM 16.22 61.196 0.038 7.12 1.47 9.09
6/2/2022 4:15:00 AM 16.19 61.142 0.039 7.13 1.4 9.11
6/2/2022 4:30:00 AM 16.16 61.088 0.039 7.14 1.96 9.11
6/2/2022 4:45:00 AM 16.13 61.034 0.039 7.13 1.62 9.11
6/2/2022 5:00:00 AM 16.11 60.998 0.039 7.12 1.6 9.12
6/2/2022 5:15:00 AM 16.08 60.944 0.039 7.13 1.42 9.15
6/2/2022 5:30:00 AM 16.05 60.89 0.039 7.12 1.75 9.15
6/2/2022 5:45:00 AM 16.03 60.854 0.039 7.13 1.62 9.15
6/2/2022 6:00:00 AM 16.01 60.818 0.039 7.13 1.46 9.17
6/2/2022 6:15:00 AM 15.99 60.782 0.039 7.13 1.48 9.18
6/2/2022 6:30:00 AM 15.97 60.746 0.039 7.12 1.51 9.21
6/2/2022 6:45:00 AM 15.96 60.728 0.039 7.13 1.43 9.22
6/2/2022 7:00:00 AM 15.95 60.71 0.038 7.15 1.5 9.24
6/2/2022 7:15:00 AM 15.94 60.692 0.038 7.14 1.54 9.27
6/2/2022 7:30:00 AM 15.93 60.674 0.038 7.13 1.44 9.3
6/2/2022 7:45:00 AM 15.93 60.674 0.038 7.18 1.48 9.33
6/2/2022 8:00:00 AM 15.93 60.674 0.038 7.18 1.45 9.35
6/2/2022 8:15:00 AM 15.94 60.692 0.038 7.19 1.51 9.39
6/2/2022 8:30:00 AM 15.95 60.71 0.038 7.2 1.42 9.43
6/2/2022 8:45:00 AM 15.98 60.764 0.038 7.21 1.68 9.46
6/2/2022 9:00:00 AM 16.01 60.818 0.038 7.24 1.35 9.48
6/2/2022 9:15:00 AM 16.02 60.836 0.038 7.24 1.37 9.49
6/2/2022 9:30:00 AM 16.03 60.854 0.038 7.24 1.35 9.48
6/2/2022 9:45:00 AM 16.04 60.872 0.038 7.25 1.26 9.48
6/2/2022 10:00:00 AM 16.04 60.872 0.038 7.25 1.3 9.45
6/2/2022 10:15:00 AM 16.03 60.854 0.038 7.24 1.36 9.44
6/2/2022 10:30:00 AM 16.08 60.944 0.037 7.25 1.54 9.5
6/2/2022 10:45:00 AM 16.16 61.088 0.037 7.28 1.29 9.55
6/2/2022 11:00:00 AM 16.25 61.25 0.037 7.29 1.28 9.58
6/2/2022 11:15:00 AM 16.31 61.358 0.037 7.29 1.3 9.58
6/2/2022 11:30:00 AM 16.35 61.43 0.037 7.31 1.43 9.56
6/2/2022 11:45:00 AM 16.36 61.448 0.037 7.31 1.34 9.51
6/2/2022 12:00:00 PM 16.37 61.466 0.037 7.31 1.33 9.51
6/2/2022 12:15:00 PM 16.37 61.466 0.037 7.31 1.34 9.51
6/2/2022 12:30:00 PM 16.39 61.502 0.037 7.33 1.32 9.52
6/2/2022 12:45:00 PM 16.4 61.52 0.037 7.31 1.4 9.52
6/2/2022 1:00:00 PM 16.39 61.502 0.037 7.31 1.42 9.48
6/2/2022 1:15:00 PM 16.37 61.466 0.037 7.29 1.32 9.42
6/2/2022 1:30:00 PM 16.35 61.43 0.037 7.28 1.3 9.39
6/2/2022 1:45:00 PM 16.41 61.538 0.037 7.28 1.29 9.44
6/2/2022 2:00:00 PM 16.5 61.7 0.037 7.3 1.33 9.5
6/2/2022 2:15:00 PM 16.65 61.97 0.037 7.31 1.45 9.54
6/2/2022 2:30:00 PM 16.83 62.294 0.037 7.36 1.32 9.55
6/2/2022 2:45:00 PM 17.14 62.852 0.037 7.35 1.38 9.55
6/2/2022 3:00:00 PM 17.29 63.122 0.037 7.36 1.27 9.49
6/2/2022 3:15:00 PM 17.34 63.212 0.037 7.37 1.48 9.46
6/2/2022 3:30:00 PM 17.41 63.338 0.037 7.4 1.38 9.45
6/2/2022 3:45:00 PM 17.45 63.41 0.037 7.38 1.25 9.43
6/2/2022 4:00:00 PM 17.49 63.482 0.037 7.39 1.23 9.41
6/2/2022 4:15:00 PM 17.5 63.5 0.037 7.38 1.25 9.39
6/2/2022 4:30:00 PM 17.45 63.41 0.037 7.37 1.46 9.35
6/2/2022 4:45:00 PM 17.37 63.266 0.037 7.36 1.3 9.33
6/2/2022 5:00:00 PM 17.35 63.23 0.037 7.35 1.3 9.33
6/2/2022 5:15:00 PM 17.31 63.158 0.037 7.34 1.36 9.3
6/2/2022 5:30:00 PM 17.27 63.086 0.037 7.33 1.28 9.26
6/2/2022 5:45:00 PM 17.25 63.05 0.037 7.3 1.26 9.24
6/2/2022 6:00:00 PM 17.2 62.96 0.037 7.3 1.31 9.18
6/2/2022 6:15:00 PM 17.17 62.906 0.037 7.29 1.32 9.17
6/2/2022 6:30:00 PM 17.13 62.834 0.037 7.27 1.34 9.14
6/2/2022 6:45:00 PM 17.11 62.798 0.037 7.25 1.31 9.16
6/2/2022 7:00:00 PM 17.08 62.744 0.037 7.23 1.29 9.14
6/2/2022 7:15:00 PM 17.05 62.69 0.037 7.24 1.23 9.13
6/2/2022 7:30:00 PM 17 62.6 0.037 7.23 1.28 9.1
6/2/2022 7:45:00 PM 16.95 62.51 0.037 7.21 1.25 9.05
6/2/2022 8:00:00 PM 16.89 62.402 0.038 7.2 1.29 9.02
6/2/2022 8:15:00 PM 16.84 62.312 0.038 7.19 1.39 9.04
6/2/2022 8:30:00 PM 16.79 62.222 0.038 7.17 1.3 9.02
6/2/2022 8:45:00 PM 16.73 62.114 0.038 7.19 1.43 9.02
6/2/2022 9:00:00 PM 16.68 62.024 0.038 7.19 1.31 9.01
6/2/2022 9:15:00 PM 16.62 61.916 0.038 7.21 1.81 9.02
6/2/2022 9:30:00 PM 16.55 61.79 0.038 7.19 1.63 9.03
6/2/2022 9:45:00 PM 16.49 61.682 0.038 7.19 1.35 9.04
6/2/2022 10:00:00 PM 16.42 61.556 0.038 7.2 1.41 9.07
6/2/2022 10:15:00 PM 16.35 61.43 0.038 7.19 1.4 9.08
6/2/2022 10:30:00 PM 16.28 61.304 0.038 7.18 1.31 9.09
6/2/2022 10:45:00 PM 16.22 61.196 0.038 7.18 1.41 9.11
6/2/2022 11:00:00 PM 16.16 61.088 0.038 7.17 1.4 9.12
6/2/2022 11:15:00 PM 16.1 60.98 0.038 7.18 1.34 9.12
6/2/2022 11:30:00 PM 16.05 60.89 0.038 7.18 1.37 9.15
6/2/2022 11:45:00 PM 16 60.8 0.038 7.18 1.5 9.16
6/3/2022 12:00:00 AM 15.95 60.71 0.038 7.18 1.32 9.18
6/3/2022 12:15:00 AM 15.9 60.62 0.038 7.17 1.34 9.19
6/3/2022 12:30:00 AM 15.86 60.548 0.038 7.18 1.34 9.2
6/3/2022 12:45:00 AM 15.81 60.458 0.038 7.17 1.32 9.21
6/3/2022 1:00:00 AM 15.77 60.386 0.038 7.18 1.4 9.22
6/3/2022 1:15:00 AM 15.72 60.296 0.038 7.18 1.37 9.24
6/3/2022 1:30:00 AM 15.68 60.224 0.037 7.18 1.25 9.25
6/3/2022 1:45:00 AM 15.62 60.116 0.038 7.17 1.33 9.26
6/3/2022 2:00:00 AM 15.58 60.044 0.037 7.17 1.41 9.27
6/3/2022 2:15:00 AM 15.52 59.936 0.037 7.17 2.02 9.27
6/3/2022 2:30:00 AM 15.46 59.828 0.037 7.17 1.39 9.28
6/3/2022 2:45:00 AM 15.4 59.72 0.037 7.16 1.5 9.3
6/3/2022 3:00:00 AM 15.33 59.594 0.038 7.16 1.33 9.32
6/3/2022 3:15:00 AM 15.26 59.468 0.037 7.16 1.27 9.31
6/3/2022 3:30:00 AM 15.18 59.324 0.037 7.16 1.47 9.34
6/3/2022 3:45:00 AM 15.1 59.18 0.037 7.16 1.34 9.35
6/3/2022 4:00:00 AM 15.02 59.036 0.037 7.15 1.36 9.38
6/3/2022 4:15:00 AM 14.94 58.892 0.037 7.16 1.33 9.39
6/3/2022 4:30:00 AM 14.87 58.766 0.037 7.16 1.38 9.4
6/3/2022 4:45:00 AM 14.81 58.658 0.037 7.16 1.27 9.42
6/3/2022 5:00:00 AM 14.74 58.532 0.037 7.15 1.33 9.43
6/3/2022 5:15:00 AM 14.68 58.424 0.037 7.16 1.36 9.44
6/3/2022 5:30:00 AM 14.63 58.334 0.037 7.16 1.37 9.47
6/3/2022 5:45:00 AM 14.58 58.244 0.037 7.16 1.39 9.48
6/3/2022 6:00:00 AM 14.53 58.154 0.037 7.17 1.29 9.52
6/3/2022 6:15:00 AM 14.48 58.064 0.037 7.17 1.38 9.54
6/3/2022 6:30:00 AM 14.43 57.974 0.037 7.19 1.31 9.57
6/3/2022 6:45:00 AM 14.38 57.884 0.037 7.19 1.33 9.62
6/3/2022 7:00:00 AM 14.34 57.812 0.037 7.18 1.33 9.65
6/3/2022 7:15:00 AM 14.3 57.74 0.037 7.2 1.4 9.68
6/3/2022 7:30:00 AM 14.26 57.668 0.037 7.2 1.26 9.7
6/3/2022 7:45:00 AM 14.23 57.614 0.037 7.2 1.36 9.72
6/3/2022 8:00:00 AM 14.22 57.596 0.037 7.21 1.3 9.75
6/3/2022 8:15:00 AM 14.21 57.578 0.037 7.21 1.31 9.75
6/3/2022 8:30:00 AM 14.21 57.578 0.037 7.22 1.24 9.77
6/3/2022 8:45:00 AM 14.23 57.614 0.037 7.23 1.93 9.79
6/3/2022 9:00:00 AM 14.25 57.65 0.037 7.25 1.22 9.79
6/3/2022 9:15:00 AM 14.28 57.704 0.037 7.25 1.27 9.8
6/3/2022 9:30:00 AM 14.33 57.794 0.037 7.23 1.33 9.79
6/3/2022 9:45:00 AM 14.41 57.938 0.037 7.24 1.35 9.8
6/3/2022 10:00:00 AM 14.53 58.154 0.037 7.25 1.26 9.81
6/3/2022 10:15:00 AM 14.65 58.37 0.037 7.28 1.26 9.82
6/3/2022 10:30:00 AM 14.76 58.568 0.037 7.28 1.34 9.82
6/3/2022 10:45:00 AM 14.88 58.784 0.037 7.28 1.33 9.81
6/3/2022 11:00:00 AM 15.01 59.018 0.037 7.29 1.34 9.78
6/3/2022 11:15:00 AM 15.14 59.252 0.037 7.29 1.46 9.78
6/3/2022 11:30:00 AM 15.3 59.54 0.037 7.3 1.22 9.75
6/3/2022 11:45:00 AM 15.46 59.828 0.037 7.32 1.37 9.75
6/3/2022 12:00:00 PM 15.61 60.098 0.037 7.32 1.35 9.73
6/3/2022 12:15:00 PM 15.73 60.314 0.037 7.32 1.31 9.72
6/3/2022 12:30:00 PM 16.05 60.89 0.037 7.32 1.3 9.7
6/3/2022 12:45:00 PM 16.31 61.358 0.037 7.34 1.22 9.67
6/3/2022 1:00:00 PM 16.36 61.448 0.037 7.34 1.36 9.63
6/3/2022 1:15:00 PM 16.55 61.79 0.037 7.33 1.18 9.61
6/3/2022 1:30:00 PM 16.6 61.88 0.038 7.31 1.18 9.58
6/3/2022 1:45:00 PM 16.55 61.79 0.037 7.31 1.26 9.56
6/3/2022 2:00:00 PM 16.71 62.078 0.037 7.32 1.21 9.54
6/3/2022 2:15:00 PM 16.91 62.438 0.037 7.32 1.26 9.54
6/3/2022 2:30:00 PM 16.95 62.51 0.037 7.34 1.34 9.52
6/3/2022 2:45:00 PM 17.03 62.654 0.037 7.33 1.18 9.51
6/3/2022 3:00:00 PM 16.99 62.582 0.037 7.34 1.19 9.48
6/3/2022 3:15:00 PM 17.1 62.78 0.037 7.33 1.22 9.47
6/3/2022 3:30:00 PM 17.12 62.816 0.037 7.33 1.29 9.45
6/3/2022 3:45:00 PM 17.16 62.888 0.037 7.31 1.22 9.42
6/3/2022 4:00:00 PM 17.11 62.798 0.037 7.32 1.26 9.4
6/3/2022 4:15:00 PM 17.12 62.816 0.037 7.32 1.21 9.4
6/3/2022 4:30:00 PM 17.07 62.726 0.038 7.31 1.32 9.37
6/3/2022 4:45:00 PM 17.05 62.69 0.038 7.3 1.19 9.38
6/3/2022 5:00:00 PM 17.1 62.78 0.037 7.32 1.29 9.39
6/3/2022 5:15:00 PM 17.02 62.636 0.038 7.3 1.25 9.35
6/3/2022 5:30:00 PM 16.96 62.528 0.038 7.3 1.24 9.31
6/3/2022 5:45:00 PM 16.9 62.42 0.038 7.28 1.2 9.28
6/3/2022 6:00:00 PM 16.85 62.33 0.038 7.26 1.28 9.24
6/3/2022 6:15:00 PM 16.8 62.24 0.038 7.27 1.29 9.23
6/3/2022 6:30:00 PM 16.75 62.15 0.038 7.25 1.27 9.22
6/3/2022 6:45:00 PM 16.69 62.042 0.038 7.24 1.32 9.22
6/3/2022 7:00:00 PM 16.65 61.97 0.038 7.23 1.27 9.21
6/3/2022 7:15:00 PM 16.59 61.862 0.038 7.22 1.15 9.19
6/3/2022 7:30:00 PM 16.52 61.736 0.038 7.23 1.29 9.18
6/3/2022 7:45:00 PM 16.45 61.61 0.038 7.21 1.2 9.17
6/3/2022 8:00:00 PM 16.37 61.466 0.038 7.21 1.27 9.17
6/3/2022 8:15:00 PM 16.28 61.304 0.038 7.21 1.35 9.17
6/3/2022 8:30:00 PM 16.19 61.142 0.038 7.2 1.22 9.17
6/3/2022 8:45:00 PM 16.1 60.98 0.038 7.18 1.26 9.16
6/3/2022 9:00:00 PM 16.01 60.818 0.038 7.19 1.29 9.17
6/3/2022 9:15:00 PM 15.92 60.656 0.039 7.17 1.27 9.17
6/3/2022 9:30:00 PM 15.83 60.494 0.038 7.15 1.42 9.2
6/3/2022 9:45:00 PM 15.73 60.314 0.038 7.16 1.35 9.21
6/3/2022 10:00:00 PM 15.63 60.134 0.038 7.17 1.23 9.23
6/3/2022 10:15:00 PM 15.53 59.954 0.038 7.16 1.29 9.26
6/3/2022 10:30:00 PM 15.42 59.756 0.038 7.15 1.28 9.28
6/3/2022 10:45:00 PM 15.32 59.576 0.038 7.18 1.29 9.31
6/3/2022 11:00:00 PM 15.22 59.396 0.038 7.11 1.29 9.33
6/3/2022 11:15:00 PM 15.12 59.216 0.038 7.13 1.33 9.35
6/3/2022 11:30:00 PM 15.02 59.036 0.038 7.12 1.44 9.37
6/3/2022 11:45:00 PM 14.92 58.856 0.038 7.14 1.43 9.39
6/4/2022 12:00:00 AM 14.82 58.676 0.038 7.14 1.4 9.42
6/4/2022 12:15:00 AM 14.74 58.532 0.038 7.14 1.34 9.42
6/4/2022 12:30:00 AM 14.64 58.352 0.038 7.17 1.3 9.46
6/4/2022 12:45:00 AM 14.55 58.19 0.038 7.14 1.41 9.46
6/4/2022 1:00:00 AM 14.46 58.028 0.038 7.16 1.31 9.51
6/4/2022 1:15:00 AM 14.39 57.902 0.038 7.16 1.25 9.51
6/4/2022 1:30:00 AM 14.3 57.74 0.038 7.11 1.27 9.55
6/4/2022 1:45:00 AM 14.22 57.596 0.038 7.14 1.55 9.55
6/4/2022 2:00:00 AM 14.15 57.47 0.038 7.11 1.42 9.57
6/4/2022 2:15:00 AM 14.07 57.326 0.038 7.11 1.59 9.56
6/4/2022 2:30:00 AM 13.99 57.182 0.038 7.1 1.47 9.61
6/4/2022 2:45:00 AM 13.91 57.038 0.038 7.11 1.5 9.62
6/4/2022 3:00:00 AM 13.83 56.894 0.038 7.12 4.34 9.63
6/4/2022 3:15:00 AM 13.75 56.75 0.038 7.16 1.32 9.67
6/4/2022 3:30:00 AM 13.66 56.588 0.038 7.12 1.4 9.69
6/4/2022 3:45:00 AM 13.59 56.462 0.038 7.11 1.36 9.7
6/4/2022 4:00:00 AM 13.51 56.318 0.038 7.14 1.17 9.71
6/4/2022 4:15:00 AM 13.43 56.174 0.038 7.12 1.27 9.74
6/4/2022 4:30:00 AM 13.35 56.03 0.038 7.12 1.26 9.76
6/4/2022 4:45:00 AM 13.28 55.904 0.038 7.12 1.68 9.78
6/4/2022 5:00:00 AM 13.2 55.76 0.038 7.12 1.35 9.8
6/4/2022 5:15:00 AM 13.13 55.634 0.038 7.1 1.26 9.81
6/4/2022 5:30:00 AM 13.07 55.526 0.038 7.13 1.26 9.83
6/4/2022 5:45:00 AM 12.99 55.382 0.038 7.14 1.31 9.85
6/4/2022 6:00:00 AM 12.91 55.238 0.037 7.12 1.26 9.88
6/4/2022 6:15:00 AM 12.85 55.13 0.038 7.13 1.21 9.92
6/4/2022 6:30:00 AM 12.8 55.04 0.037 7.13 1.19 9.96
6/4/2022 6:45:00 AM 12.77 54.986 0.037 7.11 1.22 10
6/4/2022 7:00:00 AM 12.74 54.932 0.037 7.14 1.38 10.04
6/4/2022 7:15:00 AM 12.71 54.878 0.037 7.15 1.22 10.08
6/4/2022 7:30:00 AM 12.68 54.824 0.037 7.17 1.24 10.1
6/4/2022 7:45:00 AM 12.67 54.806 0.037 7.16 1.27 10.13
6/4/2022 8:00:00 AM 12.65 54.77 0.037 7.16 1.16 10.15
6/4/2022 8:15:00 AM 12.63 54.734 0.037 7.19 1.2 10.15
6/4/2022 8:30:00 AM 12.63 54.734 0.037 7.21 1.18 10.16
6/4/2022 8:45:00 AM 12.65 54.77 0.037 7.2 1.21 10.17
6/4/2022 9:00:00 AM 12.69 54.842 0.037 7.21 1.12 10.18
6/4/2022 9:15:00 AM 12.76 54.968 0.037 7.2 1.15 10.18
6/4/2022 9:30:00 AM 12.84 55.112 0.037 7.21 1.15 10.17
6/4/2022 9:45:00 AM 12.96 55.328 0.037 7.25 1.14 10.17
6/4/2022 10:00:00 AM 13.12 55.616 0.037 7.22 1.17 10.18
6/4/2022 10:15:00 AM 13.26 55.868 0.037 7.27 1.09 10.17
6/4/2022 10:30:00 AM 13.38 56.084 0.037 7.24 1.19 10.16
6/4/2022 10:45:00 AM 13.51 56.318 0.037 7.26 1.14 10.14
6/4/2022 11:00:00 AM 13.64 56.552 0.037 7.26 1.24 10.12
6/4/2022 11:15:00 AM 13.78 56.804 0.037 7.27 1.23 10.11
6/4/2022 11:30:00 AM 13.93 57.074 0.037 7.29 1.17 10.09
6/4/2022 11:45:00 AM 14.11 57.398 0.037 7.28 1.19 10.07
6/4/2022 12:00:00 PM 14.31 57.758 0.037 7.3 1.14 10.03
6/4/2022 12:15:00 PM 14.52 58.136 0.037 7.31 1.2 10
6/4/2022 12:30:00 PM 14.77 58.586 0.037 7.29 1.16 9.97
6/4/2022 12:45:00 PM 15.05 59.09 0.037 7.32 1.14 9.92
6/4/2022 1:00:00 PM 15.31 59.558 0.037 7.29 1.15 9.88
6/4/2022 1:15:00 PM 15.59 60.062 0.037 7.3 1.19 9.83
6/4/2022 1:30:00 PM 15.86 60.548 0.037 7.31 1.04 9.8
6/4/2022 1:45:00 PM 16.12 61.016 0.037 7.32 1.14 9.75
6/4/2022 2:00:00 PM 16.4 61.52 0.037 7.31 1.2 9.73
6/4/2022 2:15:00 PM 16.61 61.898 0.037 7.32 1.24 9.69
6/4/2022 2:30:00 PM 16.8 62.24 0.037 7.31 1.14 9.65
6/4/2022 2:45:00 PM 16.97 62.546 0.038 7.35 1.11 9.62
6/4/2022 3:00:00 PM 17.06 62.708 0.039 7.32 1.09 9.6
6/4/2022 3:15:00 PM 17.09 62.762 0.038 7.32 1.05 9.56
6/4/2022 3:30:00 PM 16.98 62.564 0.038 7.32 1.13 9.53
6/4/2022 3:45:00 PM 16.84 62.312 0.039 7.32 1.13 9.51
6/4/2022 4:00:00 PM 16.73 62.114 0.038 7.32 1.11 9.5
6/4/2022 4:15:00 PM 16.65 61.97 0.038 7.3 1.12 9.49
6/4/2022 4:30:00 PM 16.53 61.754 0.038 7.28 1.31 9.48
6/4/2022 4:45:00 PM 16.41 61.538 0.038 7.3 1.11 9.49
6/4/2022 5:00:00 PM 16.35 61.43 0.038 7.31 1.1 9.5
6/4/2022 5:15:00 PM 16.18 61.124 0.038 7.28 1.12 9.46
6/4/2022 5:30:00 PM 16.05 60.89 0.037 7.28 1.06 9.48
6/4/2022 5:45:00 PM 15.96 60.728 0.037 7.26 1.18 9.44
6/4/2022 6:00:00 PM 15.86 60.548 0.037 7.26 1.19 9.43
6/4/2022 6:15:00 PM 15.79 60.422 0.038 7.25 1.18 9.43
6/4/2022 6:30:00 PM 15.74 60.332 0.038 7.23 1.28 9.42
6/4/2022 6:45:00 PM 15.69 60.242 0.038 7.22 1.16 9.41
6/4/2022 7:00:00 PM 15.65 60.17 0.038 7.22 1.17 9.43
6/4/2022 7:15:00 PM 15.58 60.044 0.038 7.22 1.19 9.41
6/4/2022 7:30:00 PM 15.49 59.882 0.038 7.2 1.19 9.41
6/4/2022 7:45:00 PM 15.38 59.684 0.038 7.19 1.12 9.39
6/4/2022 8:00:00 PM 15.28 59.504 0.038 7.21 1.17 9.41
6/4/2022 8:15:00 PM 15.17 59.306 0.038 7.16 1.12 9.42
6/4/2022 8:30:00 PM 15.05 59.09 0.038 7.2 1.31 9.42
6/4/2022 8:45:00 PM 14.95 58.91 0.038 7.19 1.08 9.43
6/4/2022 9:00:00 PM 14.85 58.73 0.038 7.18 1.11 9.44
6/4/2022 9:15:00 PM 14.75 58.55 0.038 7.14 1.23 9.44
6/4/2022 9:30:00 PM 14.65 58.37 0.038 7.14 1.23 9.45
6/4/2022 9:45:00 PM 14.54 58.172 0.038 7.16 1.36 9.48
6/4/2022 10:00:00 PM 14.43 57.974 0.038 7.15 1.26 9.5
6/4/2022 10:15:00 PM 14.31 57.758 0.038 7.15 1.2 9.53
6/4/2022 10:30:00 PM 14.2 57.56 0.038 7.14 1.2 9.54
6/4/2022 10:45:00 PM 14.09 57.362 0.038 7.15 1.24 9.57
6/4/2022 11:00:00 PM 13.98 57.164 0.038 7.11 1.29 9.62
6/4/2022 11:15:00 PM 13.89 57.002 0.038 7.13 1.29 9.63
6/4/2022 11:30:00 PM 13.79 56.822 0.038 7.14 1.21 9.67
6/4/2022 11:45:00 PM 13.69 56.642 0.038 7.15 1.24 9.7
6/5/2022 12:00:00 AM 13.6 56.48 0.038 7.1 1.16 9.71
6/5/2022 12:15:00 AM 13.5 56.3 0.038 7.1 1.26 9.73
6/5/2022 12:30:00 AM 13.4 56.12 0.038 7.11 1.35 9.76
6/5/2022 12:45:00 AM 13.32 55.976 0.038 7.13 1.14 9.78
6/5/2022 1:00:00 AM 13.23 55.814 0.038 7.12 1.25 9.8
6/5/2022 1:15:00 AM 13.13 55.634 0.038 7.12 1.23 9.81
6/5/2022 1:30:00 AM 13.04 55.472 0.038 7.12 1.17 9.85
6/5/2022 1:45:00 AM 12.95 55.31 0.038 7.1 1.16 9.87
6/5/2022 2:00:00 AM 12.86 55.148 0.038 7.1 1.26 9.88
6/5/2022 2:15:00 AM 12.77 54.986 0.038 7.1 1.16 9.9
6/5/2022 2:30:00 AM 12.67 54.806 0.038 7.12 1.22 9.93
6/5/2022 2:45:00 AM 12.59 54.662 0.038 7.1 1.26 9.95
6/5/2022 3:00:00 AM 12.5 54.5 0.038 7.11 1.27 9.99
6/5/2022 3:15:00 AM 12.43 54.374 0.038 7.12 1.29 10
6/5/2022 3:30:00 AM 12.34 54.212 0.038 7.1 1.32 10.01
6/5/2022 3:45:00 AM 12.26 54.068 0.038 7.09 1.28 10.05
6/5/2022 4:00:00 AM 12.19 53.942 0.038 7.1 1.22 10.05
6/5/2022 4:15:00 AM 12.1 53.78 0.038 7.1 1.47 10.08
6/5/2022 4:30:00 AM 12.03 53.654 0.038 7.12 1.28 10.1
6/5/2022 4:45:00 AM 11.94 53.492 0.038 7.12 1.24 10.12
6/5/2022 5:00:00 AM 11.87 53.366 0.038 7.1 1.21 10.13
6/5/2022 5:15:00 AM 11.79 53.222 0.038 7.09 1.2 10.18
6/5/2022 5:30:00 AM 11.71 53.078 0.038 7.09 1.21 10.2
6/5/2022 5:45:00 AM 11.65 52.97 0.038 7.1 1.31 10.21
6/5/2022 6:00:00 AM 11.57 52.826 0.038 7.11 1.23 10.24
6/5/2022 6:15:00 AM 11.51 52.718 0.038 7.1 1.23 10.26
6/5/2022 6:30:00 AM 11.44 52.592 0.038 7.12 1.29 10.31
6/5/2022 6:45:00 AM 11.38 52.484 0.038 7.13 1.14 10.33
6/5/2022 7:00:00 AM 11.32 52.376 0.038 7.13 1.17 10.37
6/5/2022 7:15:00 AM 11.29 52.322 0.038 7.14 1.26 10.41
6/5/2022 7:30:00 AM 11.27 52.286 0.038 7.16 1.19 10.44
6/5/2022 7:45:00 AM 11.27 52.286 0.037 7.15 1.2 10.47
6/5/2022 8:00:00 AM 11.28 52.304 0.037 7.16 1.12 10.51
6/5/2022 8:15:00 AM 11.3 52.34 0.037 7.17 1.13 10.53
6/5/2022 8:30:00 AM 11.32 52.376 0.037 7.18 1.16 10.54
6/5/2022 8:45:00 AM 11.37 52.466 0.037 7.2 1.2 10.56
6/5/2022 9:00:00 AM 11.42 52.556 0.037 7.2 1.25 10.57
6/5/2022 9:15:00 AM 11.52 52.736 0.037 7.21 1.15 10.59
6/5/2022 9:30:00 AM 11.65 52.97 0.037 7.23 1.13 10.62
6/5/2022 9:45:00 AM 11.77 53.186 0.037 7.24 1.25 10.63
6/5/2022 10:00:00 AM 11.89 53.402 0.037 7.24 1.35 10.63
6/5/2022 10:15:00 AM 12.02 53.636 0.037 7.26 1.13 10.63
6/5/2022 10:30:00 AM 12.15 53.87 0.037 7.28 1.19 10.62
6/5/2022 10:45:00 AM 12.28 54.104 0.037 7.23 1.13 10.6
6/5/2022 11:00:00 AM 12.41 54.338 0.037 7.24 1.3 10.57
6/5/2022 11:15:00 AM 12.54 54.572 0.037 7.26 1.17 10.54
6/5/2022 11:30:00 AM 12.67 54.806 0.037 7.27 1.17 10.53
6/5/2022 11:45:00 AM 12.83 55.094 0.037 7.27 1.09 10.5
6/5/2022 12:00:00 PM 13.01 55.418 0.037 7.28 1.16 10.46
6/5/2022 12:15:00 PM 13.19 55.742 0.037 7.27 1.18 10.43
6/5/2022 12:30:00 PM 13.4 56.12 0.037 7.27 1.12 10.38
6/5/2022 12:45:00 PM 13.66 56.588 0.037 7.29 1.12 10.34
6/5/2022 1:00:00 PM 13.96 57.128 0.037 7.29 1.25 10.27
6/5/2022 1:15:00 PM 14.26 57.668 0.037 7.31 1.19 10.22
6/5/2022 1:30:00 PM 14.49 58.082 0.037 7.3 1.12 10.18
6/5/2022 1:45:00 PM 14.56 58.208 0.037 7.3 1.19 10.13
6/5/2022 2:00:00 PM 14.84 58.712 0.037 7.31 1.25 10.1
6/5/2022 2:15:00 PM 15.03 59.054 0.037 7.3 1.15 10.06
6/5/2022 2:30:00 PM 15.18 59.324 0.038 7.32 1.17 10.05
6/5/2022 2:45:00 PM 15.38 59.684 0.037 7.31 1.14 10.01
6/5/2022 3:00:00 PM 15.54 59.972 0.038 7.31 1.28 9.93
6/5/2022 3:15:00 PM 15.68 60.224 0.038 7.31 1.13 9.91
6/5/2022 3:30:00 PM 15.69 60.242 0.038 7.32 1.16 9.86
6/5/2022 3:45:00 PM 15.67 60.206 0.038 7.29 1.12 9.8
6/5/2022 4:00:00 PM 15.67 60.206 0.038 7.3 1.07 9.77
6/5/2022 4:15:00 PM 15.61 60.098 0.038 7.3 1.08 9.76
6/5/2022 4:30:00 PM 15.5 59.9 0.038 7.3 1.2 9.79
6/5/2022 4:45:00 PM 15.42 59.756 0.037 7.3 1.14 9.78
6/5/2022 5:00:00 PM 15.33 59.594 0.037 7.29 1.14 9.8
6/5/2022 5:15:00 PM 15.25 59.45 0.037 7.29 1.16 9.79
6/5/2022 5:30:00 PM 15.19 59.342 0.037 7.26 1.33 9.77
6/5/2022 5:45:00 PM 15.12 59.216 0.037 7.26 1.18 9.73
6/5/2022 6:00:00 PM 15.08 59.144 0.038 7.25 1.11 9.69
6/5/2022 6:15:00 PM 15.05 59.09 0.037 7.24 1.21 9.64
6/5/2022 6:30:00 PM 15.02 59.036 0.038 7.23 1.14 9.64
6/5/2022 6:45:00 PM 15 59 0.037 7.23 1.93 9.65
6/5/2022 7:00:00 PM 14.97 58.946 0.037 7.23 1.14 9.66
6/5/2022 7:15:00 PM 14.92 58.856 0.037 7.2 1.17 9.64
6/5/2022 7:30:00 PM 14.88 58.784 0.037 7.2 1.09 9.63
6/5/2022 7:45:00 PM 14.85 58.73 0.038 7.19 1.19 9.61
6/5/2022 8:00:00 PM 14.82 58.676 0.038 7.18 1.19 9.59
6/5/2022 8:15:00 PM 14.79 58.622 0.038 7.16 1.07 9.57
6/5/2022 8:30:00 PM 14.75 58.55 0.038 7.15 1.16 9.54
6/5/2022 8:45:00 PM 14.7 58.46 0.038 7.15 1.23 9.54
6/5/2022 9:00:00 PM 14.65 58.37 0.038 7.14 1.2 9.51
6/5/2022 9:15:00 PM 14.6 58.28 0.038 7.13 1.14 9.5
6/5/2022 9:30:00 PM 14.53 58.154 0.038 7.13 1.23 9.51
6/5/2022 9:45:00 PM 14.46 58.028 0.038 7.13 1.46 9.53
6/5/2022 10:00:00 PM 14.42 57.956 0.038 7.14 1.15 9.53
6/5/2022 10:15:00 PM 14.35 57.83 0.038 7.13 1.17 9.55
6/5/2022 10:30:00 PM 14.28 57.704 0.038 7.11 1.33 9.54
6/5/2022 10:45:00 PM 14.21 57.578 0.038 7.12 1.18 9.58
6/5/2022 11:00:00 PM 14.13 57.434 0.038 7.12 1.22 9.59
6/5/2022 11:15:00 PM 14.05 57.29 0.038 7.12 1.18 9.61
6/5/2022 11:30:00 PM 13.97 57.146 0.038 7.13 1.17 9.63
6/5/2022 11:45:00 PM 13.88 56.984 0.038 7.12 1.15 9.65
6/6/2022 12:00:00 AM 13.81 56.858 0.038 7.12 1.4 9.67
6/6/2022 12:15:00 AM 13.73 56.714 0.038 7.1 1.28 9.66
6/6/2022 12:30:00 AM 13.65 56.57 0.038 7.12 1.67 9.72
6/6/2022 12:45:00 AM 13.58 56.444 0.038 7.13 1.18 9.72
6/6/2022 1:00:00 AM 13.5 56.3 0.038 7.12 1.26 9.74
6/6/2022 1:15:00 AM 13.41 56.138 0.038 7.12 1.32 9.78
6/6/2022 1:30:00 AM 13.34 56.012 0.038 7.11 1.23 9.77
6/6/2022 1:45:00 AM 13.26 55.868 0.038 7.11 1.21 9.79
6/6/2022 2:00:00 AM 13.18 55.724 0.038 7.11 1.25 9.81
6/6/2022 2:15:00 AM 13.11 55.598 0.038 7.13 1.61 9.83
6/6/2022 2:30:00 AM 13.03 55.454 0.038 7.12 1.15 9.85
6/6/2022 2:45:00 AM 12.96 55.328 0.038 7.12 1.67 9.86
6/6/2022 3:00:00 AM 12.88 55.184 0.038 7.12 1.34 9.89
6/6/2022 3:15:00 AM 12.81 55.058 0.038 7.11 1.16 9.89
6/6/2022 3:30:00 AM 12.74 54.932 0.038 7.14 1.16 9.92
6/6/2022 3:45:00 AM 12.67 54.806 0.038 7.13 1.21 9.93
6/6/2022 4:00:00 AM 12.6 54.68 0.038 7.14 1.2 9.95
6/6/2022 4:15:00 AM 12.53 54.554 0.038 7.12 1.26 9.97
6/6/2022 4:30:00 AM 12.46 54.428 0.038 7.11 1.12 9.98
6/6/2022 4:45:00 AM 12.38 54.284 0.038 7.13 1.23 10.01
6/6/2022 5:00:00 AM 12.32 54.176 0.038 7.12 1.29 10.03
6/6/2022 5:15:00 AM 12.25 54.05 0.038 7.09 6.02 10.02
6/6/2022 5:30:00 AM 12.19 53.942 0.038 7.13 1.69 10.05
6/6/2022 5:45:00 AM 12.12 53.816 0.038 7.13 1.56 10.08
6/6/2022 6:00:00 AM 12.06 53.708 0.038 7.12 1.22 10.1
6/6/2022 6:15:00 AM 12.01 53.618 0.038 7.13 1.22 10.14
6/6/2022 6:30:00 AM 11.95 53.51 0.038 7.12 1.24 10.17
6/6/2022 6:45:00 AM 11.9 53.42 0.038 7.15 2.26 10.19
6/6/2022 7:00:00 AM 11.85 53.33 0.038 7.15 1.86 10.23
6/6/2022 7:15:00 AM 11.83 53.294 0.038 7.16 1.13 10.26
6/6/2022 7:30:00 AM 11.81 53.258 0.038 7.16 1.36 10.29
6/6/2022 7:45:00 AM 11.8 53.24 0.038 7.16 1.32 10.31
6/6/2022 8:00:00 AM 11.81 53.258 0.038 7.17 1.18 10.34
6/6/2022 8:15:00 AM 11.83 53.294 0.038 7.18 1.15 10.35
6/6/2022 8:30:00 AM 11.87 53.366 0.038 7.18 1.14 10.36
6/6/2022 8:45:00 AM 11.91 53.438 0.038 7.19 1.27 10.37
6/6/2022 9:00:00 AM 11.98 53.564 0.038 7.2 1.17 10.39
6/6/2022 9:15:00 AM 12.06 53.708 0.037 7.21 1.16 10.39
6/6/2022 9:30:00 AM 12.16 53.888 0.037 7.24 1.15 10.41
6/6/2022 9:45:00 AM 12.3 54.14 0.037 7.24 1.16 10.42
6/6/2022 10:00:00 AM 12.46 54.428 0.037 7.26 1.2 10.44
6/6/2022 10:15:00 AM 12.6 54.68 0.037 7.26 1.2 10.42
6/6/2022 10:30:00 AM 12.74 54.932 0.037 7.27 1.18 10.39
6/6/2022 10:45:00 AM 12.88 55.184 0.037 7.27 1.11 10.36
6/6/2022 11:00:00 AM 13.03 55.454 0.037 7.26 1.17 10.32
6/6/2022 11:15:00 AM 13.21 55.778 0.037 7.27 1.2 10.3
6/6/2022 11:30:00 AM 13.39 56.102 0.037 7.28 1.19 10.27
6/6/2022 11:45:00 AM 13.64 56.552 0.037 7.29 1.23 10.25
6/6/2022 12:00:00 PM 13.92 57.056 0.037 7.31 1.21 10.23
6/6/2022 12:15:00 PM 14.1 57.38 0.037 7.34 1.16 10.19
6/6/2022 12:30:00 PM 14.29 57.722 0.037 7.33 1.12 10.14
6/6/2022 12:45:00 PM 14.54 58.172 0.037 7.33 1.15 10.11
6/6/2022 1:00:00 PM 14.89 58.802 0.037 7.32 1.09 10.05
6/6/2022 1:15:00 PM 15.16 59.288 0.038 7.33 1.23 9.99
6/6/2022 1:30:00 PM 15.41 59.738 0.037 7.29 1.2 9.95
6/6/2022 1:45:00 PM 15.57 60.026 0.037 7.34 1.15 9.92
6/6/2022 2:00:00 PM 15.86 60.548 0.038 7.32 1.13 9.87
6/6/2022 2:15:00 PM 15.88 60.584 0.038 7.33 1.11 9.8
6/6/2022 2:30:00 PM 15.85 60.53 0.038 7.32 1.1 9.75
6/6/2022 2:45:00 PM 16.05 60.89 0.038 7.34 1.17 9.76
6/6/2022 3:00:00 PM 16.19 61.142 0.038 7.33 1.06 9.74
6/6/2022 3:15:00 PM 16.19 61.142 0.039 7.34 1.2 9.7
6/6/2022 3:30:00 PM 16.14 61.052 0.038 7.32 1.13 9.68
6/6/2022 3:45:00 PM 16.15 61.07 0.038 7.32 1.17 9.68
6/6/2022 4:00:00 PM 16.18 61.124 0.038 7.35 1.27 9.67
6/6/2022 4:15:00 PM 16.23 61.214 0.038 7.31 1.13 9.66
6/6/2022 4:30:00 PM 16.25 61.25 0.039 7.33 1.06 9.66
6/6/2022 4:45:00 PM 16.28 61.304 0.038 7.33 1.09 9.64
6/6/2022 5:00:00 PM 16.29 61.322 0.039 7.31 1.13 9.61
6/6/2022 5:15:00 PM 16.22 61.196 0.038 7.3 1.28 9.59
6/6/2022 5:30:00 PM 16.2 61.16 0.038 7.3 1.13 9.56
6/6/2022 5:45:00 PM 16.13 61.034 0.038 7.29 1.16 9.52
6/6/2022 6:00:00 PM 16.09 60.962 0.038 7.29 1.17 9.48
6/6/2022 6:15:00 PM 16.04 60.872 0.038 7.28 1.12 9.48
6/6/2022 6:30:00 PM 16.01 60.818 0.038 7.28 1.18 9.46
6/6/2022 6:45:00 PM 16 60.8 0.038 7.27 1.16 9.46
6/6/2022 7:00:00 PM 15.98 60.764 0.039 7.26 1.13 9.45
6/6/2022 7:15:00 PM 15.95 60.71 0.039 7.26 1.1 9.41
6/6/2022 7:30:00 PM 15.91 60.638 0.039 7.23 1.13 9.36
6/6/2022 7:45:00 PM 15.88 60.584 0.039 7.22 1.18 9.33
6/6/2022 8:00:00 PM 15.85 60.53 0.039 7.22 1.17 9.31
6/6/2022 8:15:00 PM 15.82 60.476 0.039 7.22 1.1 9.3
6/6/2022 8:30:00 PM 15.79 60.422 0.039 7.22 1.17 9.28
6/6/2022 8:45:00 PM 15.75 60.35 0.039 7.2 1.17 9.26
6/6/2022 9:00:00 PM 15.7 60.26 0.039 7.18 1.18 9.25
6/6/2022 9:15:00 PM 15.66 60.188 0.039 7.18 1.34 9.25
6/6/2022 9:30:00 PM 15.62 60.116 0.04 7.21 1.15 9.24
6/6/2022 9:45:00 PM 15.57 60.026 0.039 7.18 1.34 9.24
6/6/2022 10:00:00 PM 15.54 59.972 0.039 7.2 1.21 9.26
6/6/2022 10:15:00 PM 15.5 59.9 0.039 7.16 1.48 9.26
6/6/2022 10:30:00 PM 15.46 59.828 0.039 7.19 1.24 9.27
6/6/2022 10:45:00 PM 15.43 59.774 0.039 7.18 1.08 9.25
6/6/2022 11:00:00 PM 15.4 59.72 0.04 7.18 1.21 9.28
6/6/2022 11:15:00 PM 15.37 59.666 0.039 7.19 1.14 9.28
6/6/2022 11:30:00 PM 15.34 59.612 0.039 7.16 1.11 9.28
6/6/2022 11:45:00 PM 15.31 59.558 0.039 7.18 1.17 9.29
6/7/2022 12:00:00 AM 15.28 59.504 0.039 7.2 1.21 9.3
6/7/2022 12:15:00 AM 15.26 59.468 0.039 7.18 1.29 9.31
6/7/2022 12:30:00 AM 15.22 59.396 0.039 7.18 1.21 9.3
6/7/2022 12:45:00 AM 15.19 59.342 0.039 7.16 1.29 9.3
6/7/2022 1:00:00 AM 15.16 59.288 0.039 7.16 1.13 9.31
6/7/2022 1:15:00 AM 15.13 59.234 0.039 7.17 1.16 9.32
6/7/2022 1:30:00 AM 15.11 59.198 0.039 7.15 1.23 9.33
6/7/2022 1:45:00 AM 15.09 59.162 0.039 7.15 1.18 9.34
6/7/2022 2:00:00 AM 15.07 59.126 0.039 7.17 1.2 9.36
6/7/2022 2:15:00 AM 15.05 59.09 0.039 7.16 1.09 9.33
6/7/2022 2:30:00 AM 15.02 59.036 0.039 7.17 1.11 9.34
6/7/2022 2:45:00 AM 15 59 0.039 7.19 1.11 9.35
6/7/2022 3:00:00 AM 14.98 58.964 0.039 7.17 1.15 9.36
6/7/2022 3:15:00 AM 14.95 58.91 0.039 7.17 1.21 9.36
6/7/2022 3:30:00 AM 14.92 58.856 0.039 7.18 1.28 9.38
6/7/2022 3:45:00 AM 14.89 58.802 0.039 7.17 1.25 9.37
6/7/2022 4:00:00 AM 14.87 58.766 0.039 7.17 1.2 9.39
6/7/2022 4:15:00 AM 14.85 58.73 0.039 7.18 1.19 9.4
6/7/2022 4:30:00 AM 14.82 58.676 0.039 7.18 1.2 9.4
6/7/2022 4:45:00 AM 14.8 58.64 0.039 7.17 1.15 9.42
6/7/2022 5:00:00 AM 14.78 58.604 0.039 7.18 1.22 9.41
6/7/2022 5:15:00 AM 14.76 58.568 0.039 7.17 1.27 9.39
6/7/2022 5:30:00 AM 14.74 58.532 0.039 7.17 1.27 9.41
6/7/2022 5:45:00 AM 14.72 58.496 0.039 7.19 1.25 9.43
6/7/2022 6:00:00 AM 14.7 58.46 0.039 7.18 1.28 9.42
6/7/2022 6:15:00 AM 14.68 58.424 0.039 7.16 1.22 9.43
6/7/2022 6:30:00 AM 14.67 58.406 0.039 7.18 1.32 9.47
6/7/2022 6:45:00 AM 14.65 58.37 0.039 7.18 1.19 9.5
6/7/2022 7:00:00 AM 14.65 58.37 0.039 7.19 1.11 9.52
6/7/2022 7:15:00 AM 14.65 58.37 0.039 7.19 1.23 9.55
6/7/2022 7:30:00 AM 14.65 58.37 0.039 7.2 1.16 9.55
6/7/2022 7:45:00 AM 14.65 58.37 0.039 7.2 1.18 9.57
6/7/2022 8:00:00 AM 14.65 58.37 0.039 7.21 1.11 9.56
6/7/2022 8:15:00 AM 14.65 58.37 0.039 7.22 1.15 9.57
6/7/2022 8:30:00 AM 14.65 58.37 0.039 7.21 1.27 9.57
6/7/2022 8:45:00 AM 14.65 58.37 0.039 7.21 1.2 9.58
6/7/2022 9:00:00 AM 14.65 58.37 0.039 7.21 1.1 9.6
6/7/2022 9:15:00 AM 14.64 58.352 0.039 7.21 1.36 9.6
6/7/2022 9:30:00 AM 14.63 58.334 0.039 7.21 1.35 9.59
6/7/2022 9:45:00 AM 14.63 58.334 0.039 7.23 1.19 9.63
6/7/2022 10:00:00 AM 14.65 58.37 0.039 7.24 1.19 9.68
6/7/2022 10:15:00 AM 14.68 58.424 0.039 7.24 1.31 9.71
6/7/2022 10:30:00 AM 14.71 58.478 0.039 7.25 1.25 9.74
6/7/2022 10:45:00 AM 14.72 58.496 0.039 7.27 1.31 9.71
6/7/2022 11:00:00 AM 14.71 58.478 0.039 7.27 1.36 9.68
6/7/2022 11:15:00 AM 14.7 58.46 0.038 7.23 1.8 9.64
6/7/2022 11:30:00 AM 14.69 58.442 0.038 7.24 3.21 9.61
6/7/2022 11:45:00 AM 14.67 58.406 0.038 7.23 2.2 9.57
6/7/2022 12:00:00 PM 14.64 58.352 0.037 7.28 2.1 9.56
6/7/2022 12:15:00 PM 14.62 58.316 0.038 7.22 1.88 9.57
6/7/2022 12:30:00 PM 14.6 58.28 0.038 7.21 2.17 9.59
6/7/2022 12:45:00 PM 14.6 58.28 0.038 7.22 2.22 9.6
6/7/2022 1:00:00 PM 14.6 58.28 0.038 7.25 3.12 9.62
6/7/2022 1:15:00 PM 14.61 58.298 0.039 7.25 2.36 9.64
6/7/2022 1:30:00 PM 14.61 58.298 0.038 7.23 2.31 9.65
6/7/2022 1:45:00 PM 14.61 58.298 0.038 7.25 2.76 9.64
6/7/2022 2:00:00 PM 14.61 58.298 0.038 7.22 4.11 9.64
6/7/2022 2:15:00 PM 14.61 58.298 0.038 7.25 4.99 9.64
6/7/2022 2:30:00 PM 14.61 58.298 0.039 7.28 6.67 9.64
6/7/2022 2:45:00 PM 14.61 58.298 0.039 7.33 8.11 9.64
6/7/2022 3:00:00 PM 14.62 58.316 0.039 7.26 8.65 9.65
6/7/2022 3:15:00 PM 14.63 58.334 0.039 7.28 6.76 9.65
6/7/2022 3:30:00 PM 14.62 58.316 0.038 7.28 5.89 9.62
6/7/2022 3:45:00 PM 14.62 58.316 0.038 7.27 5.23 9.62
6/7/2022 4:00:00 PM 14.62 58.316 0.038 7.3 5.29 9.62
6/7/2022 4:15:00 PM 14.62 58.316 0.039 7.3 6.1 9.62
6/7/2022 4:30:00 PM 14.62 58.316 0.039 7.28 7.21 9.63
6/7/2022 4:45:00 PM 14.63 58.334 0.039 7.27 8.31 9.64
6/7/2022 5:00:00 PM 14.65 58.37 0.039 7.32 10.07 9.66
6/7/2022 5:15:00 PM 14.66 58.388 0.039 7.29 8.92 9.66
6/7/2022 5:30:00 PM 14.66 58.388 0.039 7.32 8.26 9.65
6/7/2022 5:45:00 PM 14.64 58.352 0.039 7.29 6.68 9.62
6/7/2022 6:00:00 PM 14.62 58.316 0.039 7.2 5.67 9.6
6/7/2022 6:15:00 PM 14.6 58.28 0.038 7.25 4.81 9.61
6/7/2022 6:30:00 PM 14.6 58.28 0.038 7.21 4.41 9.61
6/7/2022 6:45:00 PM 14.59 58.262 0.038 7.23 4.07 9.61
6/7/2022 7:00:00 PM 14.59 58.262 0.038 7.26 3.89 9.6
6/7/2022 7:15:00 PM 14.58 58.244 0.038 7.25 3.36 9.59
6/7/2022 7:30:00 PM 14.58 58.244 0.038 7.24 3.1 9.61
6/7/2022 7:45:00 PM 14.59 58.262 0.038 7.2 2.87 9.63
6/7/2022 8:00:00 PM 14.58 58.244 0.037 7.17 2.9 9.62
6/7/2022 8:15:00 PM 14.57 58.226 0.037 7.23 2.87 9.6
6/7/2022 8:30:00 PM 14.55 58.19 0.037 7.14 2.85 9.58
6/7/2022 8:45:00 PM 14.54 58.172 0.037 7.2 3.08 9.57
6/7/2022 9:00:00 PM 14.53 58.154 0.037 7.11 3.01 9.55
6/7/2022 9:15:00 PM 14.51 58.118 0.037 7.12 3.14 9.55
6/7/2022 9:30:00 PM 14.5 58.1 0.037 7.1 3.06 9.55
6/7/2022 9:45:00 PM 14.49 58.082 0.038 7.1 2.99 9.55
6/7/2022 10:00:00 PM 14.48 58.064 0.037 7.09 3.02 9.55
6/7/2022 10:15:00 PM 14.47 58.046 0.037 7.09 3.11 9.57
6/7/2022 10:30:00 PM 14.45 58.01 0.038 7.08 3.19 9.57
6/7/2022 10:45:00 PM 14.44 57.992 0.038 7.08 3.17 9.57
6/7/2022 11:00:00 PM 14.43 57.974 0.038 7.07 2.92 9.57
6/7/2022 11:15:00 PM 14.42 57.956 0.038 7.09 2.97 9.57
6/7/2022 11:30:00 PM 14.41 57.938 0.038 7.06 3.03 9.58
6/7/2022 11:45:00 PM 14.4 57.92 0.038 7.06 2.91 9.58
6/8/2022 12:00:00 AM 14.39 57.902 0.038 7.07 2.71 9.59
6/8/2022 12:15:00 AM 14.38 57.884 0.038 7.08 2.59 9.6
6/8/2022 12:30:00 AM 14.36 57.848 0.038 7.08 2.87 9.59
6/8/2022 12:45:00 AM 14.35 57.83 0.038 7.09 2.38 9.6
6/8/2022 1:00:00 AM 14.32 57.776 0.038 7.09 2.28 9.61
6/8/2022 1:15:00 AM 14.31 57.758 0.038 7.1 2.33 9.61
6/8/2022 1:30:00 AM 14.29 57.722 0.038 7.11 2.27 9.62
6/8/2022 1:45:00 AM 14.26 57.668 0.037 7.13 2.04 9.63
6/8/2022 2:00:00 AM 14.23 57.614 0.037 7.15 2.04 9.63
6/8/2022 2:15:00 AM 14.2 57.56 0.037 7.16 1.94 9.64
6/8/2022 2:30:00 AM 14.16 57.488 0.037 7.18 1.9 9.66
6/8/2022 2:45:00 AM 14.13 57.434 0.037 7.19 1.82 9.66
6/8/2022 3:00:00 AM 14.09 57.362 0.037 7.17 1.98 9.67
6/8/2022 3:15:00 AM 14.05 57.29 0.037 7.18 2.03 9.68
6/8/2022 3:30:00 AM 14.02 57.236 0.037 7.21 1.8 9.69
6/8/2022 3:45:00 AM 13.99 57.182 0.037 7.18 1.98 9.7
6/8/2022 4:00:00 AM 13.96 57.128 0.037 7.18 1.76 9.7
6/8/2022 4:15:00 AM 13.93 57.074 0.037 7.18 1.84 9.7
6/8/2022 4:30:00 AM 13.9 57.02 0.037 7.18 1.82 9.72
6/8/2022 4:45:00 AM 13.87 56.966 0.037 7.18 1.92 9.72
6/8/2022 5:00:00 AM 13.84 56.912 0.037 7.19 1.77 9.74
6/8/2022 5:15:00 AM 13.81 56.858 0.037 7.18 1.81 9.75
6/8/2022 5:30:00 AM 13.78 56.804 0.037 7.19 1.69 9.75
6/8/2022 5:45:00 AM 13.76 56.768 0.037 7.18 1.68 9.76
6/8/2022 6:00:00 AM 13.73 56.714 0.037 7.19 1.65 9.78
6/8/2022 6:15:00 AM 13.7 56.66 0.037 7.18 1.63 9.79
6/8/2022 6:30:00 AM 13.68 56.624 0.037 7.2 1.61 9.81
6/8/2022 6:45:00 AM 13.66 56.588 0.037 7.19 2.25 9.83
6/8/2022 7:00:00 AM 13.64 56.552 0.036 7.21 1.83 9.86
6/8/2022 7:15:00 AM 13.64 56.552 0.036 7.31 1.66 9.9
6/8/2022 7:30:00 AM 13.63 56.534 0.036 7.3 1.62 9.93
6/8/2022 7:45:00 AM 13.62 56.516 0.036 7.21 1.59 9.95
6/8/2022 8:00:00 AM 13.61 56.498 0.036 7.24 1.7 9.96
6/8/2022 8:15:00 AM 13.62 56.516 0.036 7.23 1.49 9.96
6/8/2022 8:30:00 AM 13.66 56.588 0.036 7.27 1.69 9.98
6/8/2022 8:45:00 AM 13.7 56.66 0.036 7.27 1.67 10.01
6/8/2022 9:00:00 AM 13.74 56.732 0.036 7.32 1.53 10.02
6/8/2022 9:15:00 AM 13.78 56.804 0.036 7.35 1.46 10.04
6/8/2022 9:30:00 AM 13.86 56.948 0.036 7.39 1.54 10.04
6/8/2022 9:45:00 AM 13.94 57.092 0.036 7.4 2.71 10.05
6/8/2022 10:00:00 AM 14.03 57.254 0.036 7.39 1.56 10.03
6/8/2022 10:15:00 AM 14.13 57.434 0.036 7.39 1.54 10.05
6/8/2022 10:30:00 AM 14.23 57.614 0.036 7.4 1.44 10.04
6/8/2022 10:45:00 AM 14.35 57.83 0.036 7.4 1.59 10.05
6/8/2022 11:00:00 AM 14.4 57.92 0.036 7.37 1.5 10.02
6/8/2022 11:15:00 AM 14.48 58.064 0.036 7.34 1.5 10.02
6/8/2022 11:30:00 AM 14.57 58.226 0.036 7.34 1.46 10.02
6/8/2022 11:45:00 AM 14.66 58.388 0.036 7.35 1.54 10
6/8/2022 12:00:00 PM 14.74 58.532 0.036 7.4 1.42 9.99
6/8/2022 12:15:00 PM 14.98 58.964 0.036 7.36 1.55 9.96
6/8/2022 12:30:00 PM 15.07 59.126 0.037 7.35 1.41 9.94
6/8/2022 12:45:00 PM 15.35 59.63 0.037 7.33 1.44 9.91
6/8/2022 1:00:00 PM 15.62 60.116 0.037 7.35 1.51 9.87
6/8/2022 1:15:00 PM 15.74 60.332 0.037 7.35 1.43 9.84
6/8/2022 1:30:00 PM 15.91 60.638 0.037 7.37 1.42 9.79
6/8/2022 1:45:00 PM 16.15 61.07 0.037 7.39 1.38 9.77
6/8/2022 2:00:00 PM 16.26 61.268 0.037 7.37 1.37 9.73
6/8/2022 2:15:00 PM 16.5 61.7 0.038 7.37 1.36 9.69
6/8/2022 2:30:00 PM 16.74 62.132 0.038 7.38 1.35 9.65
6/8/2022 2:45:00 PM 16.91 62.438 0.039 7.36 1.39 9.6
6/8/2022 3:00:00 PM 17.02 62.636 0.039 7.38 1.37 9.56
6/8/2022 3:15:00 PM 17.07 62.726 0.039 7.4 1.37 9.53
6/8/2022 3:30:00 PM 17.03 62.654 0.039 7.38 1.38 9.5
6/8/2022 3:45:00 PM 16.97 62.546 0.039 7.45 1.32 9.46
6/8/2022 4:00:00 PM 16.92 62.456 0.038 7.42 1.35 9.44
6/8/2022 4:15:00 PM 16.87 62.366 0.038 7.41 1.28 9.42
6/8/2022 4:30:00 PM 16.8 62.24 0.038 7.39 1.46 9.41
6/8/2022 4:45:00 PM 16.72 62.096 0.038 7.38 1.38 9.41
6/8/2022 5:00:00 PM 16.67 62.006 0.038 7.38 1.38 9.42
6/8/2022 5:15:00 PM 16.57 61.826 0.038 7.37 1.4 9.39
6/8/2022 5:30:00 PM 16.5 61.7 0.038 7.35 1.44 9.36
6/8/2022 5:45:00 PM 16.45 61.61 0.038 7.34 1.38 9.35
6/8/2022 6:00:00 PM 16.42 61.556 0.038 7.32 1.32 9.35
6/8/2022 6:15:00 PM 16.39 61.502 0.038 7.33 1.62 9.36
6/8/2022 6:30:00 PM 16.32 61.376 0.039 7.32 1.36 9.35
6/8/2022 6:45:00 PM 16.28 61.304 0.038 7.31 1.32 9.33
6/8/2022 7:00:00 PM 16.23 61.214 0.038 7.3 1.31 9.31
6/8/2022 7:15:00 PM 16.19 61.142 0.038 7.29 1.49 9.33
6/8/2022 7:30:00 PM 16.15 61.07 0.038 7.29 1.38 9.32
6/8/2022 7:45:00 PM 16.1 60.98 0.038 7.27 1.31 9.3
6/8/2022 8:00:00 PM 16.05 60.89 0.038 7.26 1.46 9.28
6/8/2022 8:15:00 PM 16 60.8 0.038 7.25 1.65 9.25
6/8/2022 8:30:00 PM 15.95 60.71 0.039 7.23 1.47 9.24
6/8/2022 8:45:00 PM 15.89 60.602 0.039 7.22 1.62 9.22
6/8/2022 9:00:00 PM 15.83 60.494 0.039 7.21 1.33 9.23
6/8/2022 9:15:00 PM 15.77 60.386 0.038 7.21 1.34 9.21
6/8/2022 9:30:00 PM 15.71 60.278 0.039 7.21 1.29 9.22
6/8/2022 9:45:00 PM 15.65 60.17 0.039 7.21 1.89 9.23
6/8/2022 10:00:00 PM 15.59 60.062 0.039 7.21 1.53 9.23
6/8/2022 10:15:00 PM 15.54 59.972 0.039 7.2 1.49 9.24
6/8/2022 10:30:00 PM 15.49 59.882 0.039 7.2 1.43 9.25
6/8/2022 10:45:00 PM 15.45 59.81 0.039 7.19 1.53 9.25
6/8/2022 11:00:00 PM 15.4 59.72 0.039 7.19 1.48 9.26
6/8/2022 11:15:00 PM 15.36 59.648 0.039 7.19 1.36 9.27
6/8/2022 11:30:00 PM 15.31 59.558 0.039 7.2 1.35 9.28
6/8/2022 11:45:00 PM 15.27 59.486 0.039 7.19 1.35 9.28
6/9/2022 12:00:00 AM 15.23 59.414 0.038 7.18 1.44 9.28
6/9/2022 12:15:00 AM 15.2 59.36 0.038 7.18 1.51 9.3
6/9/2022 12:30:00 AM 15.17 59.306 0.038 7.19 1.64 9.29
6/9/2022 12:45:00 AM 15.13 59.234 0.038 7.18 1.55 9.26
6/9/2022 1:00:00 AM 15.1 59.18 0.038 7.17 1.62 9.26
6/9/2022 1:15:00 AM 15.06 59.108 0.038 7.18 1.61 9.28
6/9/2022 1:30:00 AM 15.03 59.054 0.038 7.19 1.64 9.27
6/9/2022 1:45:00 AM 14.99 58.982 0.039 7.19 1.68 9.28
6/9/2022 2:00:00 AM 14.96 58.928 0.038 7.19 1.98 9.27
6/9/2022 2:15:00 AM 14.92 58.856 0.038 7.18 1.72 9.28
6/9/2022 2:30:00 AM 14.89 58.802 0.039 7.16 1.83 9.3
6/9/2022 2:45:00 AM 14.86 58.748 0.039 7.16 1.8 9.31
6/9/2022 3:00:00 AM 14.84 58.712 0.038 7.14 1.75 9.33
6/9/2022 3:15:00 AM 14.81 58.658 0.038 7.15 3.1 9.34
6/9/2022 3:30:00 AM 14.79 58.622 0.038 7.17 2.25 9.37
6/9/2022 3:45:00 AM 14.76 58.568 0.038 7.18 2.57 9.38
6/9/2022 4:00:00 AM 14.74 58.532 0.038 7.19 2.57 9.39
6/9/2022 4:15:00 AM 14.72 58.496 0.038 7.18 2.42 9.4
6/9/2022 4:30:00 AM 14.7 58.46 0.038 7.19 2.59 9.4
6/9/2022 4:45:00 AM 14.68 58.424 0.038 7.16 2.75 9.4
6/9/2022 5:00:00 AM 14.66 58.388 0.038 7.18 2.68 9.42
6/9/2022 5:15:00 AM 14.63 58.334 0.038 7.17 2.56 9.43
6/9/2022 5:30:00 AM 14.62 58.316 0.038 7.21 2.4 9.42
6/9/2022 5:45:00 AM 14.6 58.28 0.038 7.2 2.62 9.44
6/9/2022 6:00:00 AM 14.58 58.244 0.038 7.17 2.69 9.45
6/9/2022 6:15:00 AM 14.57 58.226 0.038 7.23 2.85 9.46
6/9/2022 6:30:00 AM 14.56 58.208 0.038 7.23 2.93 9.49
6/9/2022 6:45:00 AM 14.55 58.19 0.038 7.21 2.89 9.49
6/9/2022 7:00:00 AM 14.54 58.172 0.038 7.18 2.94 9.51
6/9/2022 7:15:00 AM 14.53 58.154 0.038 7.23 3.23 9.53
6/9/2022 7:30:00 AM 14.53 58.154 0.038 7.21 2.97 9.57
6/9/2022 7:45:00 AM 14.52 58.136 0.037 7.19 2.78 9.59
6/9/2022 8:00:00 AM 14.52 58.136 0.037 7.23 2.8 9.59
6/9/2022 8:15:00 AM 14.51 58.118 0.037 7.23 2.9 9.6
6/9/2022 8:30:00 AM 14.51 58.118 0.037 7.24 2.48 9.62
6/9/2022 8:45:00 AM 14.52 58.136 0.037 7.21 2.2 9.66
6/9/2022 9:00:00 AM 14.55 58.19 0.037 7.22 2.17 9.71
6/9/2022 9:15:00 AM 14.57 58.226 0.037 7.23 2.32 9.73
6/9/2022 9:30:00 AM 14.6 58.28 0.037 7.25 2.02 9.75
6/9/2022 9:45:00 AM 14.66 58.388 0.037 7.27 1.93 9.77
6/9/2022 10:00:00 AM 14.73 58.514 0.036 7.27 1.91 9.79
6/9/2022 10:15:00 AM 14.78 58.604 0.036 7.28 1.8 9.78
6/9/2022 10:30:00 AM 14.82 58.676 0.036 7.28 1.87 9.78
6/9/2022 10:45:00 AM 14.85 58.73 0.036 7.29 2.09 9.77
6/9/2022 11:00:00 AM 14.88 58.784 0.036 7.29 1.98 9.78
6/9/2022 11:15:00 AM 14.89 58.802 0.036 7.3 1.99 9.78
6/9/2022 11:30:00 AM 14.93 58.874 0.036 7.31 1.95 9.81
6/9/2022 11:45:00 AM 14.95 58.91 0.036 7.31 1.85 9.8
6/9/2022 12:00:00 PM 15.03 59.054 0.036 7.32 1.9 9.82
6/9/2022 12:15:00 PM 15.02 59.036 0.036 7.32 1.87 9.77
6/9/2022 12:30:00 PM 15.01 59.018 0.036 7.31 2.01 9.77
6/9/2022 12:45:00 PM 15.07 59.126 0.036 7.31 1.89 9.76
6/9/2022 1:00:00 PM 14.99 58.982 0.036 7.3 2.08 9.73
6/9/2022 1:15:00 PM 14.96 58.928 0.036 7.28 2.1 9.71
6/9/2022 1:30:00 PM 14.96 58.928 0.036 7.28 1.84 9.73
6/9/2022 1:45:00 PM 15.01 59.018 0.036 7.29 1.81 9.76
6/9/2022 2:00:00 PM 15.06 59.108 0.036 7.3 1.8 9.79
6/9/2022 2:15:00 PM 15.09 59.162 0.036 7.3 1.83 9.79
6/9/2022 2:30:00 PM 15.1 59.18 0.036 7.31 1.75 9.76
6/9/2022 2:45:00 PM 15.07 59.126 0.036 7.3 2.08 9.74
6/9/2022 3:00:00 PM 15.1 59.18 0.036 7.31 1.66 9.75
6/9/2022 3:15:00 PM 15.08 59.144 0.036 7.31 1.7 9.75
6/9/2022 3:30:00 PM 15.06 59.108 0.036 7.31 1.59 9.74
6/9/2022 3:45:00 PM 15.05 59.09 0.036 7.3 1.52 9.74
6/9/2022 4:00:00 PM 15.09 59.162 0.036 7.31 1.81 9.77
6/9/2022 4:15:00 PM 15.08 59.144 0.036 7.32 1.75 9.75
6/9/2022 4:30:00 PM 15.05 59.09 0.036 7.3 1.61 9.71
6/9/2022 4:45:00 PM 15.03 59.054 0.036 7.29 1.66 9.71
6/9/2022 5:00:00 PM 15.05 59.09 0.036 7.29 1.6 9.73
6/9/2022 5:15:00 PM 15.06 59.108 0.036 7.3 1.6 9.75
6/9/2022 5:30:00 PM 15.1 59.18 0.036 7.33 1.63 9.75
6/9/2022 5:45:00 PM 15.1 59.18 0.036 7.3 1.56 9.72
6/9/2022 6:00:00 PM 15.13 59.234 0.036 7.31 1.55 9.72
6/9/2022 6:15:00 PM 15.13 59.234 0.036 7.29 1.51 9.67
6/9/2022 6:30:00 PM 15.1 59.18 0.036 7.28 1.57 9.65
6/9/2022 6:45:00 PM 15.05 59.09 0.036 7.28 2.16 9.62
6/9/2022 7:00:00 PM 15.01 59.018 0.036 7.26 1.47 9.6
6/9/2022 7:15:00 PM 14.95 58.91 0.036 7.25 1.55 9.61
6/9/2022 7:30:00 PM 14.91 58.838 0.036 7.25 1.51 9.6
6/9/2022 7:45:00 PM 14.88 58.784 0.037 7.24 1.46 9.59
6/9/2022 8:00:00 PM 14.85 58.73 0.037 7.24 1.48 9.58
6/9/2022 8:15:00 PM 14.81 58.658 0.037 7.22 1.47 9.56
6/9/2022 8:30:00 PM 14.76 58.568 0.037 7.21 1.49 9.54
6/9/2022 8:45:00 PM 14.71 58.478 0.037 7.22 1.5 9.55
6/9/2022 9:00:00 PM 14.65 58.37 0.037 7.2 1.59 9.54
6/9/2022 9:15:00 PM 14.59 58.262 0.037 7.19 1.65 9.52
6/9/2022 9:30:00 PM 14.53 58.154 0.037 7.2 1.56 9.55
6/9/2022 9:45:00 PM 14.47 58.046 0.037 7.18 1.54 9.53
6/9/2022 10:00:00 PM 14.4 57.92 0.037 7.19 1.56 9.57
6/9/2022 10:15:00 PM 14.34 57.812 0.037 7.19 1.46 9.58
6/9/2022 10:30:00 PM 14.28 57.704 0.037 7.21 1.78 9.6
6/9/2022 10:45:00 PM 14.22 57.596 0.037 7.2 1.51 9.62
6/9/2022 11:00:00 PM 14.15 57.47 0.037 7.19 1.57 9.61
6/9/2022 11:15:00 PM 14.09 57.362 0.037 7.19 1.43 9.65
6/9/2022 11:30:00 PM 14.03 57.254 0.037 7.18 1.48 9.65
6/9/2022 11:45:00 PM 13.97 57.146 0.037 7.18 1.49 9.66
6/10/2022 12:00:00 AM 13.91 57.038 0.037 7.18 1.45 9.68
6/10/2022 12:15:00 AM 13.85 56.93 0.037 7.19 1.54 9.7
6/10/2022 12:30:00 AM 13.78 56.804 0.037 7.17 1.52 9.71
6/10/2022 12:45:00 AM 13.73 56.714 0.037 7.17 1.55 9.72
6/10/2022 1:00:00 AM 13.68 56.624 0.037 7.16 1.46 9.72
6/10/2022 1:15:00 AM 13.62 56.516 0.037 7.19 1.45 9.76
6/10/2022 1:30:00 AM 13.58 56.444 0.037 7.19 1.52 9.76
6/10/2022 1:45:00 AM 13.54 56.372 0.037 7.16 1.53 9.75
6/10/2022 2:00:00 AM 13.5 56.3 0.037 7.18 1.49 9.78
6/10/2022 2:15:00 AM 13.46 56.228 0.037 7.16 1.48 9.78
6/10/2022 2:30:00 AM 13.41 56.138 0.037 7.17 1.54 9.8
6/10/2022 2:45:00 AM 13.35 56.03 0.038 7.17 1.62 9.81
6/10/2022 3:00:00 AM 13.3 55.94 0.038 7.17 1.44 9.81
6/10/2022 3:15:00 AM 13.26 55.868 0.038 7.16 1.48 9.82
6/10/2022 3:30:00 AM 13.22 55.796 0.038 7.16 1.45 9.84
6/10/2022 3:45:00 AM 13.18 55.724 0.037 7.16 1.45 9.85
6/10/2022 4:00:00 AM 13.14 55.652 0.037 7.17 1.46 9.85
6/10/2022 4:15:00 AM 13.1 55.58 0.037 7.17 1.53 9.87
6/10/2022 4:30:00 AM 13.06 55.508 0.038 7.17 1.49 9.87
6/10/2022 4:45:00 AM 13 55.4 0.038 7.17 1.58 9.89
6/10/2022 5:00:00 AM 12.95 55.31 0.038 7.17 1.44 9.9
6/10/2022 5:15:00 AM 12.9 55.22 0.038 7.16 1.48 9.91
6/10/2022 5:30:00 AM 12.84 55.112 0.038 7.15 1.48 9.92
6/10/2022 5:45:00 AM 12.78 55.004 0.038 7.15 1.51 9.94
6/10/2022 6:00:00 AM 12.73 54.914 0.038 7.17 1.48 9.96
6/10/2022 6:15:00 AM 12.69 54.842 0.039 7.16 1.35 9.98
6/10/2022 6:30:00 AM 12.66 54.788 0.039 7.21 1.46 10.02
6/10/2022 6:45:00 AM 12.63 54.734 0.039 7.16 1.41 10.05
6/10/2022 7:00:00 AM 12.6 54.68 0.038 7.16 1.48 10.07
6/10/2022 7:15:00 AM 12.59 54.662 0.038 7.18 1.46 10.1
6/10/2022 7:30:00 AM 12.59 54.662 0.038 7.2 1.42 10.15
6/10/2022 7:45:00 AM 12.59 54.662 0.039 7.2 1.51 10.16
6/10/2022 8:00:00 AM 12.6 54.68 0.039 7.21 1.41 10.19
6/10/2022 8:15:00 AM 12.6 54.68 0.038 7.22 1.43 10.18
6/10/2022 8:30:00 AM 12.6 54.68 0.038 7.24 1.4 10.18
6/10/2022 8:45:00 AM 12.62 54.716 0.038 7.23 1.36 10.17
6/10/2022 9:00:00 AM 12.66 54.788 0.038 7.23 1.4 10.18
6/10/2022 9:15:00 AM 12.72 54.896 0.038 7.24 1.45 10.17
6/10/2022 9:30:00 AM 12.8 55.04 0.038 7.23 1.38 10.18
6/10/2022 9:45:00 AM 12.92 55.256 0.038 7.25 1.34 10.18
6/10/2022 10:00:00 AM 13.07 55.526 0.038 7.26 1.31 10.19
6/10/2022 10:15:00 AM 13.21 55.778 0.038 7.3 1.27 10.19